<?xml version="1.0" encoding="UTF-8" standalone="no" ?>
<gpx xmlns="http://www.topografix.com/GPX/1/1" xmlns:xsi="http://www.w3.org/2001/XMLSchema-instance" xsi:schemaLocation="http://www.topografix.com/GPX/1/1 http://www.topografix.com/GPX/1/1/gpx.xsd" version="1.1" creator="VisuGPX - https://www.visugpx.com">
  <metadata>
    <name>5 mai 2019 ploubalay</name>
  </metadata>
  <trk>
    <name><![CDATA[5 mai 2019]]></name>
    <trkseg>
      <trkpt lat="48.57533" lon="-2.14011">
        <ele>38</ele>
        <time>2019-05-05T07:37:43Z</time>
      </trkpt>
      <trkpt lat="48.57533" lon="-2.14011">
        <ele>38</ele>
        <time>2019-05-05T07:37:44Z</time>
      </trkpt>
      <trkpt lat="48.57529" lon="-2.1401">
        <ele>39</ele>
        <time>2019-05-05T07:39:32Z</time>
      </trkpt>
      <trkpt lat="48.57524" lon="-2.14009">
        <ele>38</ele>
        <time>2019-05-05T07:39:35Z</time>
      </trkpt>
      <trkpt lat="48.57518" lon="-2.14009">
        <ele>34</ele>
        <time>2019-05-05T07:39:42Z</time>
      </trkpt>
      <trkpt lat="48.57513" lon="-2.1401">
        <ele>34</ele>
        <time>2019-05-05T07:39:45Z</time>
      </trkpt>
      <trkpt lat="48.57491" lon="-2.14012">
        <ele>33</ele>
        <time>2019-05-05T07:39:57Z</time>
      </trkpt>
      <trkpt lat="48.57472" lon="-2.14001">
        <ele>33</ele>
        <time>2019-05-05T07:40:13Z</time>
      </trkpt>
      <trkpt lat="48.57469" lon="-2.13995">
        <ele>33</ele>
        <time>2019-05-05T07:40:18Z</time>
      </trkpt>
      <trkpt lat="48.57471" lon="-2.13987">
        <ele>32</ele>
        <time>2019-05-05T07:40:21Z</time>
      </trkpt>
      <trkpt lat="48.57469" lon="-2.13978">
        <ele>32</ele>
        <time>2019-05-05T07:40:24Z</time>
      </trkpt>
      <trkpt lat="48.57469" lon="-2.13971">
        <ele>32</ele>
        <time>2019-05-05T07:40:27Z</time>
      </trkpt>
      <trkpt lat="48.57474" lon="-2.13972">
        <ele>31</ele>
        <time>2019-05-05T07:40:31Z</time>
      </trkpt>
      <trkpt lat="48.57477" lon="-2.13965">
        <ele>30</ele>
        <time>2019-05-05T07:40:35Z</time>
      </trkpt>
      <trkpt lat="48.5748" lon="-2.13958">
        <ele>29</ele>
        <time>2019-05-05T07:40:39Z</time>
      </trkpt>
      <trkpt lat="48.57483" lon="-2.13952">
        <ele>28</ele>
        <time>2019-05-05T07:40:42Z</time>
      </trkpt>
      <trkpt lat="48.57495" lon="-2.13916">
        <ele>26</ele>
        <time>2019-05-05T07:41:00Z</time>
      </trkpt>
      <trkpt lat="48.57496" lon="-2.13907">
        <ele>26</ele>
        <time>2019-05-05T07:41:04Z</time>
      </trkpt>
      <trkpt lat="48.57496" lon="-2.13899">
        <ele>26</ele>
        <time>2019-05-05T07:41:07Z</time>
      </trkpt>
      <trkpt lat="48.575" lon="-2.13892">
        <ele>26</ele>
        <time>2019-05-05T07:41:11Z</time>
      </trkpt>
      <trkpt lat="48.57504" lon="-2.13878">
        <ele>26</ele>
        <time>2019-05-05T07:41:17Z</time>
      </trkpt>
      <trkpt lat="48.57506" lon="-2.1387">
        <ele>27</ele>
        <time>2019-05-05T07:41:20Z</time>
      </trkpt>
      <trkpt lat="48.57507" lon="-2.13853">
        <ele>27</ele>
        <time>2019-05-05T07:41:27Z</time>
      </trkpt>
      <trkpt lat="48.57505" lon="-2.13845">
        <ele>27</ele>
        <time>2019-05-05T07:41:31Z</time>
      </trkpt>
      <trkpt lat="48.57501" lon="-2.1384">
        <ele>26</ele>
        <time>2019-05-05T07:41:35Z</time>
      </trkpt>
      <trkpt lat="48.57497" lon="-2.13834">
        <ele>26</ele>
        <time>2019-05-05T07:41:39Z</time>
      </trkpt>
      <trkpt lat="48.57493" lon="-2.13828">
        <ele>26</ele>
        <time>2019-05-05T07:41:43Z</time>
      </trkpt>
      <trkpt lat="48.5749" lon="-2.13821">
        <ele>26</ele>
        <time>2019-05-05T07:41:47Z</time>
      </trkpt>
      <trkpt lat="48.57489" lon="-2.13814">
        <ele>27</ele>
        <time>2019-05-05T07:41:56Z</time>
      </trkpt>
      <trkpt lat="48.57494" lon="-2.13811">
        <ele>27</ele>
        <time>2019-05-05T07:42:02Z</time>
      </trkpt>
      <trkpt lat="48.575" lon="-2.1381">
        <ele>25</ele>
        <time>2019-05-05T07:42:06Z</time>
      </trkpt>
      <trkpt lat="48.57505" lon="-2.13808">
        <ele>25</ele>
        <time>2019-05-05T07:42:10Z</time>
      </trkpt>
      <trkpt lat="48.57508" lon="-2.13802">
        <ele>24</ele>
        <time>2019-05-05T07:42:14Z</time>
      </trkpt>
      <trkpt lat="48.57519" lon="-2.1375">
        <ele>20</ele>
        <time>2019-05-05T07:42:42Z</time>
      </trkpt>
      <trkpt lat="48.5752" lon="-2.13742">
        <ele>20</ele>
        <time>2019-05-05T07:42:46Z</time>
      </trkpt>
      <trkpt lat="48.57523" lon="-2.13728">
        <ele>20</ele>
        <time>2019-05-05T07:42:53Z</time>
      </trkpt>
      <trkpt lat="48.57526" lon="-2.1372">
        <ele>20</ele>
        <time>2019-05-05T07:42:57Z</time>
      </trkpt>
      <trkpt lat="48.5753" lon="-2.13697">
        <ele>21</ele>
        <time>2019-05-05T07:43:06Z</time>
      </trkpt>
      <trkpt lat="48.57533" lon="-2.13672">
        <ele>22</ele>
        <time>2019-05-05T07:43:18Z</time>
      </trkpt>
      <trkpt lat="48.57531" lon="-2.13664">
        <ele>22</ele>
        <time>2019-05-05T07:43:22Z</time>
      </trkpt>
      <trkpt lat="48.57522" lon="-2.13661">
        <ele>23</ele>
        <time>2019-05-05T07:43:29Z</time>
      </trkpt>
      <trkpt lat="48.57512" lon="-2.13654">
        <ele>23</ele>
        <time>2019-05-05T07:43:36Z</time>
      </trkpt>
      <trkpt lat="48.57507" lon="-2.13651">
        <ele>23</ele>
        <time>2019-05-05T07:43:39Z</time>
      </trkpt>
      <trkpt lat="48.57492" lon="-2.13637">
        <ele>24</ele>
        <time>2019-05-05T07:43:49Z</time>
      </trkpt>
      <trkpt lat="48.57489" lon="-2.13631">
        <ele>24</ele>
        <time>2019-05-05T07:43:53Z</time>
      </trkpt>
      <trkpt lat="48.57471" lon="-2.13619">
        <ele>26</ele>
        <time>2019-05-05T07:44:07Z</time>
      </trkpt>
      <trkpt lat="48.57468" lon="-2.13614">
        <ele>26</ele>
        <time>2019-05-05T07:44:12Z</time>
      </trkpt>
      <trkpt lat="48.57463" lon="-2.13611">
        <ele>26</ele>
        <time>2019-05-05T07:44:17Z</time>
      </trkpt>
      <trkpt lat="48.57459" lon="-2.1361">
        <ele>25</ele>
        <time>2019-05-05T07:44:23Z</time>
      </trkpt>
      <trkpt lat="48.57456" lon="-2.13602">
        <ele>26</ele>
        <time>2019-05-05T07:44:29Z</time>
      </trkpt>
      <trkpt lat="48.5744" lon="-2.13594">
        <ele>26</ele>
        <time>2019-05-05T07:44:39Z</time>
      </trkpt>
      <trkpt lat="48.57421" lon="-2.13579">
        <ele>24</ele>
        <time>2019-05-05T07:44:51Z</time>
      </trkpt>
      <trkpt lat="48.57416" lon="-2.13577">
        <ele>24</ele>
        <time>2019-05-05T07:44:54Z</time>
      </trkpt>
      <trkpt lat="48.57411" lon="-2.13573">
        <ele>24</ele>
        <time>2019-05-05T07:44:57Z</time>
      </trkpt>
      <trkpt lat="48.57409" lon="-2.13567">
        <ele>23</ele>
        <time>2019-05-05T07:45:02Z</time>
      </trkpt>
      <trkpt lat="48.57403" lon="-2.13563">
        <ele>23</ele>
        <time>2019-05-05T07:45:06Z</time>
      </trkpt>
      <trkpt lat="48.57399" lon="-2.1356">
        <ele>23</ele>
        <time>2019-05-05T07:45:09Z</time>
      </trkpt>
      <trkpt lat="48.57384" lon="-2.13552">
        <ele>24</ele>
        <time>2019-05-05T07:45:18Z</time>
      </trkpt>
      <trkpt lat="48.57379" lon="-2.1355">
        <ele>24</ele>
        <time>2019-05-05T07:45:21Z</time>
      </trkpt>
      <trkpt lat="48.57362" lon="-2.13544">
        <ele>24</ele>
        <time>2019-05-05T07:45:30Z</time>
      </trkpt>
      <trkpt lat="48.57354" lon="-2.13533">
        <ele>25</ele>
        <time>2019-05-05T07:45:38Z</time>
      </trkpt>
      <trkpt lat="48.57325" lon="-2.13523">
        <ele>21</ele>
        <time>2019-05-05T07:46:00Z</time>
      </trkpt>
      <trkpt lat="48.57321" lon="-2.13519">
        <ele>21</ele>
        <time>2019-05-05T07:46:12Z</time>
      </trkpt>
      <trkpt lat="48.57317" lon="-2.13523">
        <ele>22</ele>
        <time>2019-05-05T07:46:16Z</time>
      </trkpt>
      <trkpt lat="48.5732" lon="-2.13536">
        <ele>24</ele>
        <time>2019-05-05T07:48:04Z</time>
      </trkpt>
      <trkpt lat="48.57318" lon="-2.13532">
        <ele>23</ele>
        <time>2019-05-05T07:48:53Z</time>
      </trkpt>
      <trkpt lat="48.5732" lon="-2.13526">
        <ele>23</ele>
        <time>2019-05-05T07:49:02Z</time>
      </trkpt>
      <trkpt lat="48.57319" lon="-2.1351">
        <ele>23</ele>
        <time>2019-05-05T07:49:10Z</time>
      </trkpt>
      <trkpt lat="48.57321" lon="-2.13502">
        <ele>23</ele>
        <time>2019-05-05T07:49:14Z</time>
      </trkpt>
      <trkpt lat="48.57327" lon="-2.1349">
        <ele>21</ele>
        <time>2019-05-05T07:49:21Z</time>
      </trkpt>
      <trkpt lat="48.57332" lon="-2.13486">
        <ele>21</ele>
        <time>2019-05-05T07:49:24Z</time>
      </trkpt>
      <trkpt lat="48.57336" lon="-2.1348">
        <ele>20</ele>
        <time>2019-05-05T07:49:27Z</time>
      </trkpt>
      <trkpt lat="48.57346" lon="-2.13472">
        <ele>20</ele>
        <time>2019-05-05T07:49:33Z</time>
      </trkpt>
      <trkpt lat="48.57348" lon="-2.13466">
        <ele>20</ele>
        <time>2019-05-05T07:49:36Z</time>
      </trkpt>
      <trkpt lat="48.57348" lon="-2.13457">
        <ele>18</ele>
        <time>2019-05-05T07:49:39Z</time>
      </trkpt>
      <trkpt lat="48.5735" lon="-2.13449">
        <ele>17</ele>
        <time>2019-05-05T07:49:42Z</time>
      </trkpt>
      <trkpt lat="48.57354" lon="-2.13435">
        <ele>18</ele>
        <time>2019-05-05T07:49:48Z</time>
      </trkpt>
      <trkpt lat="48.57359" lon="-2.13413">
        <ele>19</ele>
        <time>2019-05-05T07:49:56Z</time>
      </trkpt>
      <trkpt lat="48.57366" lon="-2.13401">
        <ele>19</ele>
        <time>2019-05-05T07:50:03Z</time>
      </trkpt>
      <trkpt lat="48.5737" lon="-2.13396">
        <ele>19</ele>
        <time>2019-05-05T07:50:06Z</time>
      </trkpt>
      <trkpt lat="48.57375" lon="-2.13394">
        <ele>19</ele>
        <time>2019-05-05T07:50:10Z</time>
      </trkpt>
      <trkpt lat="48.5738" lon="-2.13388">
        <ele>19</ele>
        <time>2019-05-05T07:50:14Z</time>
      </trkpt>
      <trkpt lat="48.57385" lon="-2.13381">
        <ele>20</ele>
        <time>2019-05-05T07:50:18Z</time>
      </trkpt>
      <trkpt lat="48.5739" lon="-2.13373">
        <ele>21</ele>
        <time>2019-05-05T07:50:22Z</time>
      </trkpt>
      <trkpt lat="48.57393" lon="-2.13362">
        <ele>22</ele>
        <time>2019-05-05T07:50:27Z</time>
      </trkpt>
      <trkpt lat="48.57397" lon="-2.13356">
        <ele>25</ele>
        <time>2019-05-05T07:50:32Z</time>
      </trkpt>
      <trkpt lat="48.574" lon="-2.13352">
        <ele>25</ele>
        <time>2019-05-05T07:50:36Z</time>
      </trkpt>
      <trkpt lat="48.57402" lon="-2.13343">
        <ele>26</ele>
        <time>2019-05-05T07:50:39Z</time>
      </trkpt>
      <trkpt lat="48.57405" lon="-2.13328">
        <ele>24</ele>
        <time>2019-05-05T07:50:44Z</time>
      </trkpt>
      <trkpt lat="48.57409" lon="-2.13321">
        <ele>23</ele>
        <time>2019-05-05T07:50:48Z</time>
      </trkpt>
      <trkpt lat="48.57414" lon="-2.13292">
        <ele>21</ele>
        <time>2019-05-05T07:50:54Z</time>
      </trkpt>
      <trkpt lat="48.57426" lon="-2.1328">
        <ele>21</ele>
        <time>2019-05-05T07:50:58Z</time>
      </trkpt>
      <trkpt lat="48.57479" lon="-2.13213">
        <ele>22</ele>
        <time>2019-05-05T07:51:15Z</time>
      </trkpt>
      <trkpt lat="48.57482" lon="-2.13176">
        <ele>23</ele>
        <time>2019-05-05T07:51:20Z</time>
      </trkpt>
      <trkpt lat="48.57475" lon="-2.13106">
        <ele>25</ele>
        <time>2019-05-05T07:51:27Z</time>
      </trkpt>
      <trkpt lat="48.57477" lon="-2.13095">
        <ele>25</ele>
        <time>2019-05-05T07:51:29Z</time>
      </trkpt>
      <trkpt lat="48.57499" lon="-2.13055">
        <ele>28</ele>
        <time>2019-05-05T07:51:38Z</time>
      </trkpt>
      <trkpt lat="48.57499" lon="-2.13046">
        <ele>28</ele>
        <time>2019-05-05T07:51:40Z</time>
      </trkpt>
      <trkpt lat="48.57497" lon="-2.13038">
        <ele>28</ele>
        <time>2019-05-05T07:51:42Z</time>
      </trkpt>
      <trkpt lat="48.57493" lon="-2.12979">
        <ele>25</ele>
        <time>2019-05-05T07:51:50Z</time>
      </trkpt>
      <trkpt lat="48.57488" lon="-2.12948">
        <ele>24</ele>
        <time>2019-05-05T07:51:54Z</time>
      </trkpt>
      <trkpt lat="48.57486" lon="-2.12943">
        <ele>21</ele>
        <time>2019-05-05T07:52:02Z</time>
      </trkpt>
      <trkpt lat="48.57492" lon="-2.12944">
        <ele>20</ele>
        <time>2019-05-05T07:52:06Z</time>
      </trkpt>
      <trkpt lat="48.57494" lon="-2.12952">
        <ele>20</ele>
        <time>2019-05-05T07:52:11Z</time>
      </trkpt>
      <trkpt lat="48.57493" lon="-2.1295">
        <ele>21</ele>
        <time>2019-05-05T07:52:23Z</time>
      </trkpt>
      <trkpt lat="48.5749" lon="-2.12911">
        <ele>22</ele>
        <time>2019-05-05T07:52:29Z</time>
      </trkpt>
      <trkpt lat="48.57446" lon="-2.12746">
        <ele>21</ele>
        <time>2019-05-05T07:52:52Z</time>
      </trkpt>
      <trkpt lat="48.5745" lon="-2.12725">
        <ele>21</ele>
        <time>2019-05-05T07:52:55Z</time>
      </trkpt>
      <trkpt lat="48.57453" lon="-2.12715">
        <ele>21</ele>
        <time>2019-05-05T07:52:57Z</time>
      </trkpt>
      <trkpt lat="48.57457" lon="-2.12706">
        <ele>21</ele>
        <time>2019-05-05T07:52:59Z</time>
      </trkpt>
      <trkpt lat="48.57465" lon="-2.12654">
        <ele>20</ele>
        <time>2019-05-05T07:53:12Z</time>
      </trkpt>
      <trkpt lat="48.5747" lon="-2.12648">
        <ele>19</ele>
        <time>2019-05-05T07:53:14Z</time>
      </trkpt>
      <trkpt lat="48.57476" lon="-2.12644">
        <ele>19</ele>
        <time>2019-05-05T07:53:16Z</time>
      </trkpt>
      <trkpt lat="48.57474" lon="-2.12638">
        <ele>22</ele>
        <time>2019-05-05T07:53:25Z</time>
      </trkpt>
      <trkpt lat="48.57469" lon="-2.12638">
        <ele>26</ele>
        <time>2019-05-05T07:53:29Z</time>
      </trkpt>
      <trkpt lat="48.5746" lon="-2.12632">
        <ele>30</ele>
        <time>2019-05-05T07:53:33Z</time>
      </trkpt>
      <trkpt lat="48.57455" lon="-2.1263">
        <ele>31</ele>
        <time>2019-05-05T07:53:35Z</time>
      </trkpt>
      <trkpt lat="48.57413" lon="-2.12602">
        <ele>35</ele>
        <time>2019-05-05T07:53:54Z</time>
      </trkpt>
      <trkpt lat="48.57395" lon="-2.1259">
        <ele>36</ele>
        <time>2019-05-05T07:54:00Z</time>
      </trkpt>
      <trkpt lat="48.57384" lon="-2.12584">
        <ele>36</ele>
        <time>2019-05-05T07:54:06Z</time>
      </trkpt>
      <trkpt lat="48.57373" lon="-2.12577">
        <ele>39</ele>
        <time>2019-05-05T07:54:13Z</time>
      </trkpt>
      <trkpt lat="48.57359" lon="-2.12575">
        <ele>42</ele>
        <time>2019-05-05T07:54:24Z</time>
      </trkpt>
      <trkpt lat="48.57351" lon="-2.12564">
        <ele>44</ele>
        <time>2019-05-05T07:54:29Z</time>
      </trkpt>
      <trkpt lat="48.57349" lon="-2.12556">
        <ele>45</ele>
        <time>2019-05-05T07:54:31Z</time>
      </trkpt>
      <trkpt lat="48.57348" lon="-2.12548">
        <ele>45</ele>
        <time>2019-05-05T07:54:33Z</time>
      </trkpt>
      <trkpt lat="48.57349" lon="-2.12531">
        <ele>45</ele>
        <time>2019-05-05T07:54:39Z</time>
      </trkpt>
      <trkpt lat="48.57352" lon="-2.12526">
        <ele>45</ele>
        <time>2019-05-05T07:54:42Z</time>
      </trkpt>
      <trkpt lat="48.57354" lon="-2.12519">
        <ele>45</ele>
        <time>2019-05-05T07:54:45Z</time>
      </trkpt>
      <trkpt lat="48.57368" lon="-2.12429">
        <ele>46</ele>
        <time>2019-05-05T07:55:11Z</time>
      </trkpt>
      <trkpt lat="48.57377" lon="-2.12418">
        <ele>46</ele>
        <time>2019-05-05T07:55:16Z</time>
      </trkpt>
      <trkpt lat="48.5738" lon="-2.12411">
        <ele>47</ele>
        <time>2019-05-05T07:55:19Z</time>
      </trkpt>
      <trkpt lat="48.57374" lon="-2.12406">
        <ele>47</ele>
        <time>2019-05-05T07:55:23Z</time>
      </trkpt>
      <trkpt lat="48.57363" lon="-2.12401">
        <ele>47</ele>
        <time>2019-05-05T07:55:30Z</time>
      </trkpt>
      <trkpt lat="48.57345" lon="-2.12387">
        <ele>50</ele>
        <time>2019-05-05T07:55:42Z</time>
      </trkpt>
      <trkpt lat="48.57296" lon="-2.12297">
        <ele>46</ele>
        <time>2019-05-05T07:56:07Z</time>
      </trkpt>
      <trkpt lat="48.57292" lon="-2.12289">
        <ele>46</ele>
        <time>2019-05-05T07:56:09Z</time>
      </trkpt>
      <trkpt lat="48.57288" lon="-2.1223">
        <ele>46</ele>
        <time>2019-05-05T07:56:18Z</time>
      </trkpt>
      <trkpt lat="48.57271" lon="-2.12124">
        <ele>41</ele>
        <time>2019-05-05T07:56:32Z</time>
      </trkpt>
      <trkpt lat="48.57268" lon="-2.11901">
        <ele>37</ele>
        <time>2019-05-05T07:57:00Z</time>
      </trkpt>
      <trkpt lat="48.57258" lon="-2.11859">
        <ele>32</ele>
        <time>2019-05-05T07:57:10Z</time>
      </trkpt>
      <trkpt lat="48.57208" lon="-2.11776">
        <ele>30</ele>
        <time>2019-05-05T07:57:26Z</time>
      </trkpt>
      <trkpt lat="48.5716" lon="-2.11725">
        <ele>32</ele>
        <time>2019-05-05T07:57:37Z</time>
      </trkpt>
      <trkpt lat="48.57154" lon="-2.1172">
        <ele>33</ele>
        <time>2019-05-05T07:57:39Z</time>
      </trkpt>
      <trkpt lat="48.57137" lon="-2.1175">
        <ele>35</ele>
        <time>2019-05-05T07:57:47Z</time>
      </trkpt>
      <trkpt lat="48.57134" lon="-2.11743">
        <ele>36</ele>
        <time>2019-05-05T07:57:50Z</time>
      </trkpt>
      <trkpt lat="48.5713" lon="-2.11737">
        <ele>37</ele>
        <time>2019-05-05T07:57:52Z</time>
      </trkpt>
      <trkpt lat="48.5713" lon="-2.1169">
        <ele>41</ele>
        <time>2019-05-05T07:58:03Z</time>
      </trkpt>
      <trkpt lat="48.57129" lon="-2.11682">
        <ele>42</ele>
        <time>2019-05-05T07:58:06Z</time>
      </trkpt>
      <trkpt lat="48.57128" lon="-2.11675">
        <ele>42</ele>
        <time>2019-05-05T07:58:10Z</time>
      </trkpt>
      <trkpt lat="48.57121" lon="-2.11654">
        <ele>44</ele>
        <time>2019-05-05T07:58:19Z</time>
      </trkpt>
      <trkpt lat="48.57117" lon="-2.11646">
        <ele>45</ele>
        <time>2019-05-05T07:58:22Z</time>
      </trkpt>
      <trkpt lat="48.57115" lon="-2.11632">
        <ele>46</ele>
        <time>2019-05-05T07:58:28Z</time>
      </trkpt>
      <trkpt lat="48.57069" lon="-2.11488">
        <ele>46</ele>
        <time>2019-05-05T07:58:59Z</time>
      </trkpt>
      <trkpt lat="48.57061" lon="-2.1146">
        <ele>47</ele>
        <time>2019-05-05T07:59:05Z</time>
      </trkpt>
      <trkpt lat="48.57052" lon="-2.11434">
        <ele>49</ele>
        <time>2019-05-05T07:59:11Z</time>
      </trkpt>
      <trkpt lat="48.57044" lon="-2.11407">
        <ele>50</ele>
        <time>2019-05-05T07:59:19Z</time>
      </trkpt>
      <trkpt lat="48.57039" lon="-2.11398">
        <ele>50</ele>
        <time>2019-05-05T07:59:21Z</time>
      </trkpt>
      <trkpt lat="48.57035" lon="-2.11382">
        <ele>51</ele>
        <time>2019-05-05T07:59:25Z</time>
      </trkpt>
      <trkpt lat="48.57012" lon="-2.11302">
        <ele>52</ele>
        <time>2019-05-05T07:59:47Z</time>
      </trkpt>
      <trkpt lat="48.57011" lon="-2.11288">
        <ele>53</ele>
        <time>2019-05-05T07:59:53Z</time>
      </trkpt>
      <trkpt lat="48.57009" lon="-2.1127">
        <ele>52</ele>
        <time>2019-05-05T08:00:01Z</time>
      </trkpt>
      <trkpt lat="48.56998" lon="-2.11233">
        <ele>55</ele>
        <time>2019-05-05T08:00:17Z</time>
      </trkpt>
      <trkpt lat="48.56997" lon="-2.11226">
        <ele>56</ele>
        <time>2019-05-05T08:00:20Z</time>
      </trkpt>
      <trkpt lat="48.56997" lon="-2.11218">
        <ele>56</ele>
        <time>2019-05-05T08:00:23Z</time>
      </trkpt>
      <trkpt lat="48.56995" lon="-2.11211">
        <ele>57</ele>
        <time>2019-05-05T08:00:26Z</time>
      </trkpt>
      <trkpt lat="48.56996" lon="-2.11203">
        <ele>58</ele>
        <time>2019-05-05T08:00:30Z</time>
      </trkpt>
      <trkpt lat="48.56994" lon="-2.11195">
        <ele>57</ele>
        <time>2019-05-05T08:00:35Z</time>
      </trkpt>
      <trkpt lat="48.5699" lon="-2.1119">
        <ele>56</ele>
        <time>2019-05-05T08:00:39Z</time>
      </trkpt>
      <trkpt lat="48.56986" lon="-2.11184">
        <ele>54</ele>
        <time>2019-05-05T08:00:42Z</time>
      </trkpt>
      <trkpt lat="48.56972" lon="-2.1116">
        <ele>55</ele>
        <time>2019-05-05T08:00:54Z</time>
      </trkpt>
      <trkpt lat="48.56958" lon="-2.11148">
        <ele>54</ele>
        <time>2019-05-05T08:01:03Z</time>
      </trkpt>
      <trkpt lat="48.56955" lon="-2.11142">
        <ele>53</ele>
        <time>2019-05-05T08:01:06Z</time>
      </trkpt>
      <trkpt lat="48.56948" lon="-2.11129">
        <ele>53</ele>
        <time>2019-05-05T08:01:12Z</time>
      </trkpt>
      <trkpt lat="48.56937" lon="-2.11104">
        <ele>54</ele>
        <time>2019-05-05T08:01:28Z</time>
      </trkpt>
      <trkpt lat="48.56927" lon="-2.11097">
        <ele>53</ele>
        <time>2019-05-05T08:01:36Z</time>
      </trkpt>
      <trkpt lat="48.56852" lon="-2.11061">
        <ele>47</ele>
        <time>2019-05-05T08:01:57Z</time>
      </trkpt>
      <trkpt lat="48.56831" lon="-2.11037">
        <ele>46</ele>
        <time>2019-05-05T08:02:02Z</time>
      </trkpt>
      <trkpt lat="48.56806" lon="-2.10995">
        <ele>46</ele>
        <time>2019-05-05T08:02:12Z</time>
      </trkpt>
      <trkpt lat="48.56786" lon="-2.10881">
        <ele>50</ele>
        <time>2019-05-05T08:02:32Z</time>
      </trkpt>
      <trkpt lat="48.5678" lon="-2.1085">
        <ele>48</ele>
        <time>2019-05-05T08:02:46Z</time>
      </trkpt>
      <trkpt lat="48.56748" lon="-2.10795">
        <ele>50</ele>
        <time>2019-05-05T08:03:03Z</time>
      </trkpt>
      <trkpt lat="48.5669" lon="-2.10704">
        <ele>50</ele>
        <time>2019-05-05T08:03:25Z</time>
      </trkpt>
      <trkpt lat="48.56687" lon="-2.10698">
        <ele>50</ele>
        <time>2019-05-05T08:03:27Z</time>
      </trkpt>
      <trkpt lat="48.56683" lon="-2.10693">
        <ele>50</ele>
        <time>2019-05-05T08:03:30Z</time>
      </trkpt>
      <trkpt lat="48.56675" lon="-2.10673">
        <ele>51</ele>
        <time>2019-05-05T08:03:37Z</time>
      </trkpt>
      <trkpt lat="48.56644" lon="-2.10566">
        <ele>55</ele>
        <time>2019-05-05T08:04:03Z</time>
      </trkpt>
      <trkpt lat="48.56644" lon="-2.10559">
        <ele>54</ele>
        <time>2019-05-05T08:04:08Z</time>
      </trkpt>
      <trkpt lat="48.56644" lon="-2.10542">
        <ele>50</ele>
        <time>2019-05-05T08:04:13Z</time>
      </trkpt>
      <trkpt lat="48.56646" lon="-2.10535">
        <ele>49</ele>
        <time>2019-05-05T08:04:16Z</time>
      </trkpt>
      <trkpt lat="48.56651" lon="-2.10531">
        <ele>50</ele>
        <time>2019-05-05T08:04:22Z</time>
      </trkpt>
      <trkpt lat="48.56656" lon="-2.10534">
        <ele>52</ele>
        <time>2019-05-05T08:04:25Z</time>
      </trkpt>
      <trkpt lat="48.56678" lon="-2.10564">
        <ele>55</ele>
        <time>2019-05-05T08:04:37Z</time>
      </trkpt>
      <trkpt lat="48.56697" lon="-2.10575">
        <ele>56</ele>
        <time>2019-05-05T08:04:50Z</time>
      </trkpt>
      <trkpt lat="48.567" lon="-2.10581">
        <ele>56</ele>
        <time>2019-05-05T08:04:54Z</time>
      </trkpt>
      <trkpt lat="48.56709" lon="-2.10587">
        <ele>56</ele>
        <time>2019-05-05T08:05:02Z</time>
      </trkpt>
      <trkpt lat="48.56714" lon="-2.10592">
        <ele>56</ele>
        <time>2019-05-05T08:05:06Z</time>
      </trkpt>
      <trkpt lat="48.56724" lon="-2.10594">
        <ele>56</ele>
        <time>2019-05-05T08:05:15Z</time>
      </trkpt>
      <trkpt lat="48.568" lon="-2.1065">
        <ele>52</ele>
        <time>2019-05-05T08:05:42Z</time>
      </trkpt>
      <trkpt lat="48.56813" lon="-2.10655">
        <ele>52</ele>
        <time>2019-05-05T08:05:46Z</time>
      </trkpt>
      <trkpt lat="48.56827" lon="-2.10668">
        <ele>53</ele>
        <time>2019-05-05T08:05:55Z</time>
      </trkpt>
      <trkpt lat="48.56832" lon="-2.10669">
        <ele>54</ele>
        <time>2019-05-05T08:05:58Z</time>
      </trkpt>
      <trkpt lat="48.56838" lon="-2.10672">
        <ele>54</ele>
        <time>2019-05-05T08:06:02Z</time>
      </trkpt>
      <trkpt lat="48.5684" lon="-2.10666">
        <ele>54</ele>
        <time>2019-05-05T08:06:06Z</time>
      </trkpt>
      <trkpt lat="48.56891" lon="-2.1056">
        <ele>54</ele>
        <time>2019-05-05T08:06:30Z</time>
      </trkpt>
      <trkpt lat="48.56908" lon="-2.10509">
        <ele>50</ele>
        <time>2019-05-05T08:06:42Z</time>
      </trkpt>
      <trkpt lat="48.56906" lon="-2.10499">
        <ele>51</ele>
        <time>2019-05-05T08:06:45Z</time>
      </trkpt>
      <trkpt lat="48.56902" lon="-2.10492">
        <ele>53</ele>
        <time>2019-05-05T08:06:47Z</time>
      </trkpt>
      <trkpt lat="48.56901" lon="-2.10484">
        <ele>53</ele>
        <time>2019-05-05T08:06:49Z</time>
      </trkpt>
      <trkpt lat="48.5692" lon="-2.10414">
        <ele>47</ele>
        <time>2019-05-05T08:07:03Z</time>
      </trkpt>
      <trkpt lat="48.56963" lon="-2.10254">
        <ele>41</ele>
        <time>2019-05-05T08:07:33Z</time>
      </trkpt>
      <trkpt lat="48.56986" lon="-2.10146">
        <ele>36</ele>
        <time>2019-05-05T08:07:56Z</time>
      </trkpt>
      <trkpt lat="48.56986" lon="-2.10085">
        <ele>32</ele>
        <time>2019-05-05T08:08:06Z</time>
      </trkpt>
      <trkpt lat="48.56989" lon="-2.10072">
        <ele>31</ele>
        <time>2019-05-05T08:08:08Z</time>
      </trkpt>
      <trkpt lat="48.56988" lon="-2.10064">
        <ele>31</ele>
        <time>2019-05-05T08:08:11Z</time>
      </trkpt>
      <trkpt lat="48.56948" lon="-2.10034">
        <ele>36</ele>
        <time>2019-05-05T08:08:23Z</time>
      </trkpt>
      <trkpt lat="48.56945" lon="-2.10027">
        <ele>36</ele>
        <time>2019-05-05T08:08:25Z</time>
      </trkpt>
      <trkpt lat="48.56945" lon="-2.1002">
        <ele>36</ele>
        <time>2019-05-05T08:08:27Z</time>
      </trkpt>
      <trkpt lat="48.56947" lon="-2.10014">
        <ele>36</ele>
        <time>2019-05-05T08:08:29Z</time>
      </trkpt>
      <trkpt lat="48.56953" lon="-2.10005">
        <ele>36</ele>
        <time>2019-05-05T08:08:32Z</time>
      </trkpt>
      <trkpt lat="48.56998" lon="-2.09981">
        <ele>32</ele>
        <time>2019-05-05T08:08:47Z</time>
      </trkpt>
      <trkpt lat="48.57032" lon="-2.09966">
        <ele>28</ele>
        <time>2019-05-05T08:08:55Z</time>
      </trkpt>
      <trkpt lat="48.5704" lon="-2.09952">
        <ele>27</ele>
        <time>2019-05-05T08:08:58Z</time>
      </trkpt>
      <trkpt lat="48.57044" lon="-2.09942">
        <ele>26</ele>
        <time>2019-05-05T08:09:00Z</time>
      </trkpt>
      <trkpt lat="48.5705" lon="-2.0987">
        <ele>29</ele>
        <time>2019-05-05T08:09:14Z</time>
      </trkpt>
      <trkpt lat="48.57046" lon="-2.09846">
        <ele>30</ele>
        <time>2019-05-05T08:09:18Z</time>
      </trkpt>
      <trkpt lat="48.57038" lon="-2.09821">
        <ele>31</ele>
        <time>2019-05-05T08:09:24Z</time>
      </trkpt>
      <trkpt lat="48.57039" lon="-2.0979">
        <ele>30</ele>
        <time>2019-05-05T08:09:30Z</time>
      </trkpt>
      <trkpt lat="48.57038" lon="-2.09781">
        <ele>30</ele>
        <time>2019-05-05T08:09:32Z</time>
      </trkpt>
      <trkpt lat="48.57042" lon="-2.09727">
        <ele>29</ele>
        <time>2019-05-05T08:09:40Z</time>
      </trkpt>
      <trkpt lat="48.57041" lon="-2.09713">
        <ele>28</ele>
        <time>2019-05-05T08:09:42Z</time>
      </trkpt>
      <trkpt lat="48.57041" lon="-2.09689">
        <ele>26</ele>
        <time>2019-05-05T08:09:46Z</time>
      </trkpt>
      <trkpt lat="48.57046" lon="-2.09665">
        <ele>24</ele>
        <time>2019-05-05T08:09:52Z</time>
      </trkpt>
      <trkpt lat="48.57045" lon="-2.09658">
        <ele>25</ele>
        <time>2019-05-05T08:09:54Z</time>
      </trkpt>
      <trkpt lat="48.57036" lon="-2.09641">
        <ele>24</ele>
        <time>2019-05-05T08:09:58Z</time>
      </trkpt>
      <trkpt lat="48.57016" lon="-2.09592">
        <ele>24</ele>
        <time>2019-05-05T08:10:08Z</time>
      </trkpt>
      <trkpt lat="48.5701" lon="-2.0958">
        <ele>23</ele>
        <time>2019-05-05T08:10:16Z</time>
      </trkpt>
      <trkpt lat="48.57001" lon="-2.09575">
        <ele>26</ele>
        <time>2019-05-05T08:10:24Z</time>
      </trkpt>
      <trkpt lat="48.5699" lon="-2.09572">
        <ele>29</ele>
        <time>2019-05-05T08:10:31Z</time>
      </trkpt>
      <trkpt lat="48.56976" lon="-2.09563">
        <ele>36</ele>
        <time>2019-05-05T08:10:42Z</time>
      </trkpt>
      <trkpt lat="48.56944" lon="-2.09562">
        <ele>41</ele>
        <time>2019-05-05T08:11:02Z</time>
      </trkpt>
      <trkpt lat="48.56939" lon="-2.0956">
        <ele>41</ele>
        <time>2019-05-05T08:11:07Z</time>
      </trkpt>
      <trkpt lat="48.5694" lon="-2.09552">
        <ele>40</ele>
        <time>2019-05-05T08:11:10Z</time>
      </trkpt>
      <trkpt lat="48.56944" lon="-2.09546">
        <ele>39</ele>
        <time>2019-05-05T08:11:14Z</time>
      </trkpt>
      <trkpt lat="48.56946" lon="-2.09539">
        <ele>39</ele>
        <time>2019-05-05T08:11:17Z</time>
      </trkpt>
      <trkpt lat="48.56947" lon="-2.09532">
        <ele>38</ele>
        <time>2019-05-05T08:11:20Z</time>
      </trkpt>
      <trkpt lat="48.56973" lon="-2.09491">
        <ele>41</ele>
        <time>2019-05-05T08:11:36Z</time>
      </trkpt>
      <trkpt lat="48.56975" lon="-2.09481">
        <ele>40</ele>
        <time>2019-05-05T08:11:38Z</time>
      </trkpt>
      <trkpt lat="48.56973" lon="-2.09466">
        <ele>39</ele>
        <time>2019-05-05T08:11:40Z</time>
      </trkpt>
      <trkpt lat="48.56951" lon="-2.09415">
        <ele>32</ele>
        <time>2019-05-05T08:11:50Z</time>
      </trkpt>
      <trkpt lat="48.56931" lon="-2.09359">
        <ele>33</ele>
        <time>2019-05-05T08:12:09Z</time>
      </trkpt>
      <trkpt lat="48.56927" lon="-2.09352">
        <ele>33</ele>
        <time>2019-05-05T08:12:12Z</time>
      </trkpt>
      <trkpt lat="48.56923" lon="-2.09344">
        <ele>32</ele>
        <time>2019-05-05T08:12:15Z</time>
      </trkpt>
      <trkpt lat="48.56896" lon="-2.09271">
        <ele>29</ele>
        <time>2019-05-05T08:12:31Z</time>
      </trkpt>
      <trkpt lat="48.5689" lon="-2.09264">
        <ele>30</ele>
        <time>2019-05-05T08:12:33Z</time>
      </trkpt>
      <trkpt lat="48.56856" lon="-2.09272">
        <ele>31</ele>
        <time>2019-05-05T08:12:49Z</time>
      </trkpt>
      <trkpt lat="48.56846" lon="-2.09277">
        <ele>34</ele>
        <time>2019-05-05T08:12:57Z</time>
      </trkpt>
      <trkpt lat="48.56841" lon="-2.09278">
        <ele>35</ele>
        <time>2019-05-05T08:13:00Z</time>
      </trkpt>
      <trkpt lat="48.56836" lon="-2.09276">
        <ele>36</ele>
        <time>2019-05-05T08:13:03Z</time>
      </trkpt>
      <trkpt lat="48.56825" lon="-2.09274">
        <ele>37</ele>
        <time>2019-05-05T08:13:12Z</time>
      </trkpt>
      <trkpt lat="48.56795" lon="-2.09265">
        <ele>35</ele>
        <time>2019-05-05T08:13:26Z</time>
      </trkpt>
      <trkpt lat="48.56756" lon="-2.09267">
        <ele>32</ele>
        <time>2019-05-05T08:13:38Z</time>
      </trkpt>
      <trkpt lat="48.56745" lon="-2.09273">
        <ele>33</ele>
        <time>2019-05-05T08:13:42Z</time>
      </trkpt>
      <trkpt lat="48.56676" lon="-2.09325">
        <ele>39</ele>
        <time>2019-05-05T08:14:00Z</time>
      </trkpt>
      <trkpt lat="48.56585" lon="-2.09359">
        <ele>37</ele>
        <time>2019-05-05T08:14:24Z</time>
      </trkpt>
      <trkpt lat="48.5658" lon="-2.09362">
        <ele>37</ele>
        <time>2019-05-05T08:14:27Z</time>
      </trkpt>
      <trkpt lat="48.56565" lon="-2.09375">
        <ele>39</ele>
        <time>2019-05-05T08:14:38Z</time>
      </trkpt>
      <trkpt lat="48.56562" lon="-2.09395">
        <ele>38</ele>
        <time>2019-05-05T08:14:42Z</time>
      </trkpt>
      <trkpt lat="48.56559" lon="-2.09401">
        <ele>38</ele>
        <time>2019-05-05T08:14:56Z</time>
      </trkpt>
      <trkpt lat="48.56556" lon="-2.09408">
        <ele>38</ele>
        <time>2019-05-05T08:14:58Z</time>
      </trkpt>
      <trkpt lat="48.56552" lon="-2.09415">
        <ele>39</ele>
        <time>2019-05-05T08:15:01Z</time>
      </trkpt>
      <trkpt lat="48.56548" lon="-2.0942">
        <ele>40</ele>
        <time>2019-05-05T08:15:07Z</time>
      </trkpt>
      <trkpt lat="48.5652" lon="-2.09443">
        <ele>39</ele>
        <time>2019-05-05T08:15:18Z</time>
      </trkpt>
      <trkpt lat="48.56515" lon="-2.09448">
        <ele>39</ele>
        <time>2019-05-05T08:15:22Z</time>
      </trkpt>
      <trkpt lat="48.5651" lon="-2.09449">
        <ele>40</ele>
        <time>2019-05-05T08:15:28Z</time>
      </trkpt>
      <trkpt lat="48.56505" lon="-2.09448">
        <ele>41</ele>
        <time>2019-05-05T08:15:31Z</time>
      </trkpt>
      <trkpt lat="48.56501" lon="-2.09442">
        <ele>41</ele>
        <time>2019-05-05T08:15:34Z</time>
      </trkpt>
      <trkpt lat="48.565" lon="-2.09435">
        <ele>40</ele>
        <time>2019-05-05T08:15:37Z</time>
      </trkpt>
      <trkpt lat="48.56502" lon="-2.09419">
        <ele>40</ele>
        <time>2019-05-05T08:15:41Z</time>
      </trkpt>
      <trkpt lat="48.56504" lon="-2.09399">
        <ele>40</ele>
        <time>2019-05-05T08:15:45Z</time>
      </trkpt>
      <trkpt lat="48.56503" lon="-2.09387">
        <ele>40</ele>
        <time>2019-05-05T08:15:47Z</time>
      </trkpt>
      <trkpt lat="48.565" lon="-2.09365">
        <ele>41</ele>
        <time>2019-05-05T08:15:50Z</time>
      </trkpt>
      <trkpt lat="48.56501" lon="-2.09354">
        <ele>40</ele>
        <time>2019-05-05T08:15:52Z</time>
      </trkpt>
      <trkpt lat="48.56498" lon="-2.09345">
        <ele>40</ele>
        <time>2019-05-05T08:15:54Z</time>
      </trkpt>
      <trkpt lat="48.56468" lon="-2.09333">
        <ele>38</ele>
        <time>2019-05-05T08:16:01Z</time>
      </trkpt>
      <trkpt lat="48.56455" lon="-2.09331">
        <ele>38</ele>
        <time>2019-05-05T08:16:04Z</time>
      </trkpt>
      <trkpt lat="48.56426" lon="-2.09342">
        <ele>40</ele>
        <time>2019-05-05T08:16:17Z</time>
      </trkpt>
      <trkpt lat="48.56378" lon="-2.09314">
        <ele>39</ele>
        <time>2019-05-05T08:16:35Z</time>
      </trkpt>
      <trkpt lat="48.56372" lon="-2.0931">
        <ele>39</ele>
        <time>2019-05-05T08:16:37Z</time>
      </trkpt>
      <trkpt lat="48.56368" lon="-2.09303">
        <ele>40</ele>
        <time>2019-05-05T08:16:44Z</time>
      </trkpt>
      <trkpt lat="48.5636" lon="-2.09284">
        <ele>40</ele>
        <time>2019-05-05T08:16:50Z</time>
      </trkpt>
      <trkpt lat="48.56354" lon="-2.09265">
        <ele>40</ele>
        <time>2019-05-05T08:16:54Z</time>
      </trkpt>
      <trkpt lat="48.56352" lon="-2.09244">
        <ele>39</ele>
        <time>2019-05-05T08:16:58Z</time>
      </trkpt>
      <trkpt lat="48.56353" lon="-2.09236">
        <ele>38</ele>
        <time>2019-05-05T08:17:00Z</time>
      </trkpt>
      <trkpt lat="48.56358" lon="-2.09231">
        <ele>37</ele>
        <time>2019-05-05T08:17:03Z</time>
      </trkpt>
      <trkpt lat="48.56363" lon="-2.09229">
        <ele>37</ele>
        <time>2019-05-05T08:17:05Z</time>
      </trkpt>
      <trkpt lat="48.5642" lon="-2.09254">
        <ele>30</ele>
        <time>2019-05-05T08:17:20Z</time>
      </trkpt>
      <trkpt lat="48.56458" lon="-2.09252">
        <ele>28</ele>
        <time>2019-05-05T08:17:26Z</time>
      </trkpt>
      <trkpt lat="48.56483" lon="-2.09242">
        <ele>28</ele>
        <time>2019-05-05T08:17:29Z</time>
      </trkpt>
      <trkpt lat="48.56522" lon="-2.09203">
        <ele>26</ele>
        <time>2019-05-05T08:17:38Z</time>
      </trkpt>
      <trkpt lat="48.56539" lon="-2.09196">
        <ele>26</ele>
        <time>2019-05-05T08:17:44Z</time>
      </trkpt>
      <trkpt lat="48.56567" lon="-2.092">
        <ele>26</ele>
        <time>2019-05-05T08:17:52Z</time>
      </trkpt>
      <trkpt lat="48.56572" lon="-2.09199">
        <ele>25</ele>
        <time>2019-05-05T08:17:55Z</time>
      </trkpt>
      <trkpt lat="48.56586" lon="-2.09187">
        <ele>24</ele>
        <time>2019-05-05T08:18:04Z</time>
      </trkpt>
      <trkpt lat="48.56614" lon="-2.09179">
        <ele>21</ele>
        <time>2019-05-05T08:18:14Z</time>
      </trkpt>
      <trkpt lat="48.56631" lon="-2.09166">
        <ele>20</ele>
        <time>2019-05-05T08:18:22Z</time>
      </trkpt>
      <trkpt lat="48.56636" lon="-2.09163">
        <ele>19</ele>
        <time>2019-05-05T08:18:24Z</time>
      </trkpt>
      <trkpt lat="48.56688" lon="-2.09162">
        <ele>18</ele>
        <time>2019-05-05T08:18:37Z</time>
      </trkpt>
      <trkpt lat="48.56801" lon="-2.09127">
        <ele>19</ele>
        <time>2019-05-05T08:18:56Z</time>
      </trkpt>
      <trkpt lat="48.56814" lon="-2.09133">
        <ele>18</ele>
        <time>2019-05-05T08:19:00Z</time>
      </trkpt>
      <trkpt lat="48.56821" lon="-2.0913">
        <ele>19</ele>
        <time>2019-05-05T08:19:03Z</time>
      </trkpt>
      <trkpt lat="48.56837" lon="-2.09132">
        <ele>22</ele>
        <time>2019-05-05T08:19:15Z</time>
      </trkpt>
      <trkpt lat="48.56847" lon="-2.09141">
        <ele>25</ele>
        <time>2019-05-05T08:19:21Z</time>
      </trkpt>
      <trkpt lat="48.56853" lon="-2.09142">
        <ele>26</ele>
        <time>2019-05-05T08:19:24Z</time>
      </trkpt>
      <trkpt lat="48.56863" lon="-2.09138">
        <ele>27</ele>
        <time>2019-05-05T08:19:29Z</time>
      </trkpt>
      <trkpt lat="48.56871" lon="-2.09126">
        <ele>28</ele>
        <time>2019-05-05T08:19:35Z</time>
      </trkpt>
      <trkpt lat="48.56874" lon="-2.0912">
        <ele>28</ele>
        <time>2019-05-05T08:19:39Z</time>
      </trkpt>
      <trkpt lat="48.56876" lon="-2.09113">
        <ele>29</ele>
        <time>2019-05-05T08:19:42Z</time>
      </trkpt>
      <trkpt lat="48.5688" lon="-2.09099">
        <ele>31</ele>
        <time>2019-05-05T08:19:49Z</time>
      </trkpt>
      <trkpt lat="48.56883" lon="-2.09092">
        <ele>32</ele>
        <time>2019-05-05T08:19:52Z</time>
      </trkpt>
      <trkpt lat="48.56885" lon="-2.09086">
        <ele>33</ele>
        <time>2019-05-05T08:19:55Z</time>
      </trkpt>
      <trkpt lat="48.56888" lon="-2.0908">
        <ele>34</ele>
        <time>2019-05-05T08:19:58Z</time>
      </trkpt>
      <trkpt lat="48.56891" lon="-2.09073">
        <ele>36</ele>
        <time>2019-05-05T08:20:02Z</time>
      </trkpt>
      <trkpt lat="48.56894" lon="-2.09066">
        <ele>38</ele>
        <time>2019-05-05T08:20:06Z</time>
      </trkpt>
      <trkpt lat="48.56901" lon="-2.09053">
        <ele>42</ele>
        <time>2019-05-05T08:20:14Z</time>
      </trkpt>
      <trkpt lat="48.56902" lon="-2.09043">
        <ele>42</ele>
        <time>2019-05-05T08:20:17Z</time>
      </trkpt>
      <trkpt lat="48.56904" lon="-2.09035">
        <ele>43</ele>
        <time>2019-05-05T08:20:20Z</time>
      </trkpt>
      <trkpt lat="48.56911" lon="-2.09022">
        <ele>41</ele>
        <time>2019-05-05T08:20:28Z</time>
      </trkpt>
      <trkpt lat="48.56925" lon="-2.08989">
        <ele>38</ele>
        <time>2019-05-05T08:20:45Z</time>
      </trkpt>
      <trkpt lat="48.56928" lon="-2.08985">
        <ele>38</ele>
        <time>2019-05-05T08:20:49Z</time>
      </trkpt>
      <trkpt lat="48.5693" lon="-2.08978">
        <ele>37</ele>
        <time>2019-05-05T08:20:52Z</time>
      </trkpt>
      <trkpt lat="48.56942" lon="-2.08954">
        <ele>40</ele>
        <time>2019-05-05T08:21:09Z</time>
      </trkpt>
      <trkpt lat="48.56949" lon="-2.08935">
        <ele>43</ele>
        <time>2019-05-05T08:21:18Z</time>
      </trkpt>
      <trkpt lat="48.56952" lon="-2.08929">
        <ele>44</ele>
        <time>2019-05-05T08:21:22Z</time>
      </trkpt>
      <trkpt lat="48.56967" lon="-2.08904">
        <ele>45</ele>
        <time>2019-05-05T08:21:31Z</time>
      </trkpt>
      <trkpt lat="48.56972" lon="-2.08888">
        <ele>46</ele>
        <time>2019-05-05T08:21:35Z</time>
      </trkpt>
      <trkpt lat="48.56995" lon="-2.08854">
        <ele>45</ele>
        <time>2019-05-05T08:21:42Z</time>
      </trkpt>
      <trkpt lat="48.57013" lon="-2.08842">
        <ele>42</ele>
        <time>2019-05-05T08:21:45Z</time>
      </trkpt>
      <trkpt lat="48.57027" lon="-2.08819">
        <ele>41</ele>
        <time>2019-05-05T08:21:48Z</time>
      </trkpt>
      <trkpt lat="48.57034" lon="-2.08803">
        <ele>41</ele>
        <time>2019-05-05T08:21:50Z</time>
      </trkpt>
      <trkpt lat="48.57036" lon="-2.08796">
        <ele>41</ele>
        <time>2019-05-05T08:21:51Z</time>
      </trkpt>
      <trkpt lat="48.57037" lon="-2.08788">
        <ele>42</ele>
        <time>2019-05-05T08:21:52Z</time>
      </trkpt>
      <trkpt lat="48.57033" lon="-2.08769">
        <ele>42</ele>
        <time>2019-05-05T08:21:54Z</time>
      </trkpt>
      <trkpt lat="48.57023" lon="-2.08748">
        <ele>41</ele>
        <time>2019-05-05T08:21:57Z</time>
      </trkpt>
      <trkpt lat="48.57018" lon="-2.08743">
        <ele>39</ele>
        <time>2019-05-05T08:21:59Z</time>
      </trkpt>
      <trkpt lat="48.57013" lon="-2.08742">
        <ele>38</ele>
        <time>2019-05-05T08:22:01Z</time>
      </trkpt>
      <trkpt lat="48.56999" lon="-2.08748">
        <ele>36</ele>
        <time>2019-05-05T08:22:08Z</time>
      </trkpt>
      <trkpt lat="48.5699" lon="-2.0875">
        <ele>36</ele>
        <time>2019-05-05T08:22:15Z</time>
      </trkpt>
      <trkpt lat="48.56984" lon="-2.0875">
        <ele>36</ele>
        <time>2019-05-05T08:22:18Z</time>
      </trkpt>
      <trkpt lat="48.5698" lon="-2.08743">
        <ele>35</ele>
        <time>2019-05-05T08:22:21Z</time>
      </trkpt>
      <trkpt lat="48.56978" lon="-2.08736">
        <ele>35</ele>
        <time>2019-05-05T08:22:24Z</time>
      </trkpt>
      <trkpt lat="48.56979" lon="-2.08727">
        <ele>33</ele>
        <time>2019-05-05T08:22:28Z</time>
      </trkpt>
      <trkpt lat="48.56978" lon="-2.08719">
        <ele>33</ele>
        <time>2019-05-05T08:22:31Z</time>
      </trkpt>
      <trkpt lat="48.56979" lon="-2.0871">
        <ele>32</ele>
        <time>2019-05-05T08:22:35Z</time>
      </trkpt>
      <trkpt lat="48.56978" lon="-2.08703">
        <ele>32</ele>
        <time>2019-05-05T08:22:38Z</time>
      </trkpt>
      <trkpt lat="48.56977" lon="-2.08689">
        <ele>32</ele>
        <time>2019-05-05T08:22:45Z</time>
      </trkpt>
      <trkpt lat="48.5698" lon="-2.08681">
        <ele>31</ele>
        <time>2019-05-05T08:22:48Z</time>
      </trkpt>
      <trkpt lat="48.56988" lon="-2.0867">
        <ele>30</ele>
        <time>2019-05-05T08:22:54Z</time>
      </trkpt>
      <trkpt lat="48.5699" lon="-2.08663">
        <ele>29</ele>
        <time>2019-05-05T08:22:57Z</time>
      </trkpt>
      <trkpt lat="48.5699" lon="-2.08655">
        <ele>28</ele>
        <time>2019-05-05T08:23:00Z</time>
      </trkpt>
      <trkpt lat="48.56962" lon="-2.08592">
        <ele>25</ele>
        <time>2019-05-05T08:23:18Z</time>
      </trkpt>
      <trkpt lat="48.56951" lon="-2.08574">
        <ele>26</ele>
        <time>2019-05-05T08:23:25Z</time>
      </trkpt>
      <trkpt lat="48.56939" lon="-2.08535">
        <ele>24</ele>
        <time>2019-05-05T08:23:36Z</time>
      </trkpt>
      <trkpt lat="48.56935" lon="-2.08529">
        <ele>23</ele>
        <time>2019-05-05T08:23:38Z</time>
      </trkpt>
      <trkpt lat="48.56915" lon="-2.08494">
        <ele>23</ele>
        <time>2019-05-05T08:23:53Z</time>
      </trkpt>
      <trkpt lat="48.56832" lon="-2.08395">
        <ele>31</ele>
        <time>2019-05-05T08:24:23Z</time>
      </trkpt>
      <trkpt lat="48.56804" lon="-2.0838">
        <ele>31</ele>
        <time>2019-05-05T08:24:28Z</time>
      </trkpt>
      <trkpt lat="48.56694" lon="-2.08325">
        <ele>24</ele>
        <time>2019-05-05T08:24:47Z</time>
      </trkpt>
      <trkpt lat="48.56654" lon="-2.08318">
        <ele>23</ele>
        <time>2019-05-05T08:24:53Z</time>
      </trkpt>
      <trkpt lat="48.56628" lon="-2.08319">
        <ele>27</ele>
        <time>2019-05-05T08:24:58Z</time>
      </trkpt>
      <trkpt lat="48.56554" lon="-2.08298">
        <ele>35</ele>
        <time>2019-05-05T08:25:17Z</time>
      </trkpt>
      <trkpt lat="48.56545" lon="-2.08293">
        <ele>37</ele>
        <time>2019-05-05T08:25:24Z</time>
      </trkpt>
      <trkpt lat="48.5653" lon="-2.08288">
        <ele>41</ele>
        <time>2019-05-05T08:25:37Z</time>
      </trkpt>
      <trkpt lat="48.56526" lon="-2.08283">
        <ele>42</ele>
        <time>2019-05-05T08:25:42Z</time>
      </trkpt>
      <trkpt lat="48.56522" lon="-2.08278">
        <ele>44</ele>
        <time>2019-05-05T08:25:45Z</time>
      </trkpt>
      <trkpt lat="48.56514" lon="-2.0827">
        <ele>43</ele>
        <time>2019-05-05T08:25:54Z</time>
      </trkpt>
      <trkpt lat="48.56509" lon="-2.08258">
        <ele>45</ele>
        <time>2019-05-05T08:26:02Z</time>
      </trkpt>
      <trkpt lat="48.56504" lon="-2.08253">
        <ele>46</ele>
        <time>2019-05-05T08:26:05Z</time>
      </trkpt>
      <trkpt lat="48.565" lon="-2.08247">
        <ele>47</ele>
        <time>2019-05-05T08:26:08Z</time>
      </trkpt>
      <trkpt lat="48.56497" lon="-2.08241">
        <ele>48</ele>
        <time>2019-05-05T08:26:12Z</time>
      </trkpt>
      <trkpt lat="48.56476" lon="-2.08203">
        <ele>49</ele>
        <time>2019-05-05T08:26:22Z</time>
      </trkpt>
      <trkpt lat="48.56454" lon="-2.08095">
        <ele>49</ele>
        <time>2019-05-05T08:26:36Z</time>
      </trkpt>
      <trkpt lat="48.56444" lon="-2.08067">
        <ele>49</ele>
        <time>2019-05-05T08:26:39Z</time>
      </trkpt>
      <trkpt lat="48.5644" lon="-2.08052">
        <ele>50</ele>
        <time>2019-05-05T08:26:41Z</time>
      </trkpt>
      <trkpt lat="48.56436" lon="-2.08004">
        <ele>52</ele>
        <time>2019-05-05T08:26:48Z</time>
      </trkpt>
      <trkpt lat="48.56433" lon="-2.07988">
        <ele>52</ele>
        <time>2019-05-05T08:26:50Z</time>
      </trkpt>
      <trkpt lat="48.56426" lon="-2.07964">
        <ele>52</ele>
        <time>2019-05-05T08:26:53Z</time>
      </trkpt>
      <trkpt lat="48.56415" lon="-2.07945">
        <ele>52</ele>
        <time>2019-05-05T08:26:56Z</time>
      </trkpt>
      <trkpt lat="48.56402" lon="-2.07945">
        <ele>50</ele>
        <time>2019-05-05T08:27:00Z</time>
      </trkpt>
      <trkpt lat="48.56386" lon="-2.07951">
        <ele>47</ele>
        <time>2019-05-05T08:27:04Z</time>
      </trkpt>
      <trkpt lat="48.5638" lon="-2.07951">
        <ele>46</ele>
        <time>2019-05-05T08:27:06Z</time>
      </trkpt>
      <trkpt lat="48.56364" lon="-2.07954">
        <ele>45</ele>
        <time>2019-05-05T08:27:14Z</time>
      </trkpt>
      <trkpt lat="48.56352" lon="-2.07953">
        <ele>44</ele>
        <time>2019-05-05T08:27:23Z</time>
      </trkpt>
      <trkpt lat="48.56347" lon="-2.07955">
        <ele>44</ele>
        <time>2019-05-05T08:27:27Z</time>
      </trkpt>
      <trkpt lat="48.56342" lon="-2.07955">
        <ele>45</ele>
        <time>2019-05-05T08:27:29Z</time>
      </trkpt>
      <trkpt lat="48.56321" lon="-2.07959">
        <ele>49</ele>
        <time>2019-05-05T08:27:39Z</time>
      </trkpt>
      <trkpt lat="48.56317" lon="-2.07961">
        <ele>50</ele>
        <time>2019-05-05T08:27:43Z</time>
      </trkpt>
      <trkpt lat="48.56312" lon="-2.07966">
        <ele>51</ele>
        <time>2019-05-05T08:27:47Z</time>
      </trkpt>
      <trkpt lat="48.56263" lon="-2.08001">
        <ele>54</ele>
        <time>2019-05-05T08:27:59Z</time>
      </trkpt>
      <trkpt lat="48.5621" lon="-2.08018">
        <ele>55</ele>
        <time>2019-05-05T08:28:08Z</time>
      </trkpt>
      <trkpt lat="48.56199" lon="-2.08019">
        <ele>55</ele>
        <time>2019-05-05T08:28:10Z</time>
      </trkpt>
      <trkpt lat="48.5614" lon="-2.08013">
        <ele>56</ele>
        <time>2019-05-05T08:28:18Z</time>
      </trkpt>
      <trkpt lat="48.5609" lon="-2.07992">
        <ele>56</ele>
        <time>2019-05-05T08:28:30Z</time>
      </trkpt>
      <trkpt lat="48.56074" lon="-2.07983">
        <ele>54</ele>
        <time>2019-05-05T08:28:34Z</time>
      </trkpt>
      <trkpt lat="48.56032" lon="-2.0798">
        <ele>55</ele>
        <time>2019-05-05T08:28:42Z</time>
      </trkpt>
      <trkpt lat="48.56013" lon="-2.07972">
        <ele>57</ele>
        <time>2019-05-05T08:28:46Z</time>
      </trkpt>
      <trkpt lat="48.56008" lon="-2.07972">
        <ele>56</ele>
        <time>2019-05-05T08:28:49Z</time>
      </trkpt>
      <trkpt lat="48.56002" lon="-2.07973">
        <ele>55</ele>
        <time>2019-05-05T08:28:54Z</time>
      </trkpt>
      <trkpt lat="48.55997" lon="-2.07971">
        <ele>54</ele>
        <time>2019-05-05T08:28:57Z</time>
      </trkpt>
      <trkpt lat="48.55987" lon="-2.07966">
        <ele>52</ele>
        <time>2019-05-05T08:29:09Z</time>
      </trkpt>
      <trkpt lat="48.55966" lon="-2.07957">
        <ele>54</ele>
        <time>2019-05-05T08:29:21Z</time>
      </trkpt>
      <trkpt lat="48.55966" lon="-2.07965">
        <ele>53</ele>
        <time>2019-05-05T08:29:25Z</time>
      </trkpt>
      <trkpt lat="48.5596" lon="-2.07977">
        <ele>51</ele>
        <time>2019-05-05T08:29:29Z</time>
      </trkpt>
      <trkpt lat="48.55955" lon="-2.07982">
        <ele>50</ele>
        <time>2019-05-05T08:29:31Z</time>
      </trkpt>
      <trkpt lat="48.55947" lon="-2.07985">
        <ele>50</ele>
        <time>2019-05-05T08:29:33Z</time>
      </trkpt>
      <trkpt lat="48.55915" lon="-2.0798">
        <ele>49</ele>
        <time>2019-05-05T08:29:40Z</time>
      </trkpt>
      <trkpt lat="48.55902" lon="-2.07967">
        <ele>48</ele>
        <time>2019-05-05T08:29:43Z</time>
      </trkpt>
      <trkpt lat="48.55894" lon="-2.07953">
        <ele>49</ele>
        <time>2019-05-05T08:29:46Z</time>
      </trkpt>
      <trkpt lat="48.55857" lon="-2.07743">
        <ele>54</ele>
        <time>2019-05-05T08:30:15Z</time>
      </trkpt>
      <trkpt lat="48.55853" lon="-2.07602">
        <ele>55</ele>
        <time>2019-05-05T08:30:38Z</time>
      </trkpt>
      <trkpt lat="48.55856" lon="-2.07596">
        <ele>54</ele>
        <time>2019-05-05T08:30:47Z</time>
      </trkpt>
      <trkpt lat="48.55859" lon="-2.07588">
        <ele>54</ele>
        <time>2019-05-05T08:30:58Z</time>
      </trkpt>
      <trkpt lat="48.55862" lon="-2.07582">
        <ele>54</ele>
        <time>2019-05-05T08:31:01Z</time>
      </trkpt>
      <trkpt lat="48.55864" lon="-2.07561">
        <ele>59</ele>
        <time>2019-05-05T08:31:11Z</time>
      </trkpt>
      <trkpt lat="48.5586" lon="-2.07545">
        <ele>61</ele>
        <time>2019-05-05T08:31:16Z</time>
      </trkpt>
      <trkpt lat="48.55857" lon="-2.07528">
        <ele>62</ele>
        <time>2019-05-05T08:31:22Z</time>
      </trkpt>
      <trkpt lat="48.55857" lon="-2.0752">
        <ele>62</ele>
        <time>2019-05-05T08:31:25Z</time>
      </trkpt>
      <trkpt lat="48.5585" lon="-2.07498">
        <ele>60</ele>
        <time>2019-05-05T08:31:33Z</time>
      </trkpt>
      <trkpt lat="48.55848" lon="-2.07492">
        <ele>60</ele>
        <time>2019-05-05T08:31:35Z</time>
      </trkpt>
      <trkpt lat="48.55843" lon="-2.07486">
        <ele>57</ele>
        <time>2019-05-05T08:31:38Z</time>
      </trkpt>
      <trkpt lat="48.55832" lon="-2.07484">
        <ele>54</ele>
        <time>2019-05-05T08:31:41Z</time>
      </trkpt>
      <trkpt lat="48.55824" lon="-2.07484">
        <ele>51</ele>
        <time>2019-05-05T08:31:43Z</time>
      </trkpt>
      <trkpt lat="48.55809" lon="-2.07485">
        <ele>46</ele>
        <time>2019-05-05T08:31:47Z</time>
      </trkpt>
      <trkpt lat="48.55802" lon="-2.07484">
        <ele>44</ele>
        <time>2019-05-05T08:31:49Z</time>
      </trkpt>
      <trkpt lat="48.55795" lon="-2.07485">
        <ele>42</ele>
        <time>2019-05-05T08:31:51Z</time>
      </trkpt>
      <trkpt lat="48.55766" lon="-2.07499">
        <ele>36</ele>
        <time>2019-05-05T08:31:58Z</time>
      </trkpt>
      <trkpt lat="48.55749" lon="-2.07517">
        <ele>34</ele>
        <time>2019-05-05T08:32:03Z</time>
      </trkpt>
      <trkpt lat="48.55711" lon="-2.07577">
        <ele>27</ele>
        <time>2019-05-05T08:32:14Z</time>
      </trkpt>
      <trkpt lat="48.55694" lon="-2.07589">
        <ele>26</ele>
        <time>2019-05-05T08:32:17Z</time>
      </trkpt>
      <trkpt lat="48.55689" lon="-2.07588">
        <ele>25</ele>
        <time>2019-05-05T08:32:18Z</time>
      </trkpt>
      <trkpt lat="48.55677" lon="-2.07583">
        <ele>26</ele>
        <time>2019-05-05T08:32:21Z</time>
      </trkpt>
      <trkpt lat="48.55669" lon="-2.07572">
        <ele>27</ele>
        <time>2019-05-05T08:32:25Z</time>
      </trkpt>
      <trkpt lat="48.55661" lon="-2.07544">
        <ele>28</ele>
        <time>2019-05-05T08:32:34Z</time>
      </trkpt>
      <trkpt lat="48.55658" lon="-2.07539">
        <ele>28</ele>
        <time>2019-05-05T08:32:36Z</time>
      </trkpt>
      <trkpt lat="48.55653" lon="-2.07526">
        <ele>28</ele>
        <time>2019-05-05T08:32:43Z</time>
      </trkpt>
      <trkpt lat="48.55652" lon="-2.07509">
        <ele>26</ele>
        <time>2019-05-05T08:32:53Z</time>
      </trkpt>
      <trkpt lat="48.55656" lon="-2.07473">
        <ele>22</ele>
        <time>2019-05-05T08:33:01Z</time>
      </trkpt>
      <trkpt lat="48.55655" lon="-2.07464">
        <ele>22</ele>
        <time>2019-05-05T08:33:03Z</time>
      </trkpt>
      <trkpt lat="48.55646" lon="-2.07454">
        <ele>22</ele>
        <time>2019-05-05T08:33:08Z</time>
      </trkpt>
      <trkpt lat="48.55635" lon="-2.07453">
        <ele>22</ele>
        <time>2019-05-05T08:33:12Z</time>
      </trkpt>
      <trkpt lat="48.5557" lon="-2.0744">
        <ele>21</ele>
        <time>2019-05-05T08:33:30Z</time>
      </trkpt>
      <trkpt lat="48.555" lon="-2.07457">
        <ele>20</ele>
        <time>2019-05-05T08:33:44Z</time>
      </trkpt>
      <trkpt lat="48.55494" lon="-2.07456">
        <ele>20</ele>
        <time>2019-05-05T08:33:46Z</time>
      </trkpt>
      <trkpt lat="48.55497" lon="-2.07461">
        <ele>19</ele>
        <time>2019-05-05T08:34:02Z</time>
      </trkpt>
      <trkpt lat="48.55504" lon="-2.07465">
        <ele>19</ele>
        <time>2019-05-05T08:34:04Z</time>
      </trkpt>
      <trkpt lat="48.55515" lon="-2.07456">
        <ele>19</ele>
        <time>2019-05-05T08:34:08Z</time>
      </trkpt>
      <trkpt lat="48.55522" lon="-2.0745">
        <ele>19</ele>
        <time>2019-05-05T08:34:11Z</time>
      </trkpt>
      <trkpt lat="48.55526" lon="-2.07441">
        <ele>19</ele>
        <time>2019-05-05T08:34:13Z</time>
      </trkpt>
      <trkpt lat="48.55529" lon="-2.07429">
        <ele>20</ele>
        <time>2019-05-05T08:34:15Z</time>
      </trkpt>
      <trkpt lat="48.55542" lon="-2.07421">
        <ele>21</ele>
        <time>2019-05-05T08:34:20Z</time>
      </trkpt>
      <trkpt lat="48.55547" lon="-2.07421">
        <ele>21</ele>
        <time>2019-05-05T08:34:22Z</time>
      </trkpt>
      <trkpt lat="48.55539" lon="-2.07384">
        <ele>22</ele>
        <time>2019-05-05T08:34:33Z</time>
      </trkpt>
      <trkpt lat="48.55539" lon="-2.07373">
        <ele>23</ele>
        <time>2019-05-05T08:34:36Z</time>
      </trkpt>
      <trkpt lat="48.55539" lon="-2.07365">
        <ele>24</ele>
        <time>2019-05-05T08:34:39Z</time>
      </trkpt>
      <trkpt lat="48.55539" lon="-2.07356">
        <ele>25</ele>
        <time>2019-05-05T08:34:42Z</time>
      </trkpt>
      <trkpt lat="48.55543" lon="-2.07354">
        <ele>27</ele>
        <time>2019-05-05T08:34:45Z</time>
      </trkpt>
      <trkpt lat="48.55547" lon="-2.07349">
        <ele>29</ele>
        <time>2019-05-05T08:34:49Z</time>
      </trkpt>
      <trkpt lat="48.55549" lon="-2.07342">
        <ele>32</ele>
        <time>2019-05-05T08:34:53Z</time>
      </trkpt>
      <trkpt lat="48.55542" lon="-2.0732">
        <ele>35</ele>
        <time>2019-05-05T08:35:01Z</time>
      </trkpt>
      <trkpt lat="48.55541" lon="-2.07304">
        <ele>37</ele>
        <time>2019-05-05T08:35:06Z</time>
      </trkpt>
      <trkpt lat="48.55541" lon="-2.0729">
        <ele>42</ele>
        <time>2019-05-05T08:35:12Z</time>
      </trkpt>
      <trkpt lat="48.55541" lon="-2.0727">
        <ele>47</ele>
        <time>2019-05-05T08:35:18Z</time>
      </trkpt>
      <trkpt lat="48.55543" lon="-2.07263">
        <ele>50</ele>
        <time>2019-05-05T08:35:21Z</time>
      </trkpt>
      <trkpt lat="48.5554" lon="-2.07255">
        <ele>51</ele>
        <time>2019-05-05T08:35:24Z</time>
      </trkpt>
      <trkpt lat="48.55532" lon="-2.07245">
        <ele>54</ele>
        <time>2019-05-05T08:35:30Z</time>
      </trkpt>
      <trkpt lat="48.55511" lon="-2.07244">
        <ele>57</ele>
        <time>2019-05-05T08:35:48Z</time>
      </trkpt>
      <trkpt lat="48.55508" lon="-2.07238">
        <ele>57</ele>
        <time>2019-05-05T08:35:52Z</time>
      </trkpt>
      <trkpt lat="48.5551" lon="-2.07222">
        <ele>56</ele>
        <time>2019-05-05T08:36:01Z</time>
      </trkpt>
      <trkpt lat="48.55511" lon="-2.07215">
        <ele>55</ele>
        <time>2019-05-05T08:36:06Z</time>
      </trkpt>
      <trkpt lat="48.55512" lon="-2.07204">
        <ele>55</ele>
        <time>2019-05-05T08:36:10Z</time>
      </trkpt>
      <trkpt lat="48.55516" lon="-2.07165">
        <ele>54</ele>
        <time>2019-05-05T08:36:18Z</time>
      </trkpt>
      <trkpt lat="48.55535" lon="-2.07084">
        <ele>53</ele>
        <time>2019-05-05T08:36:36Z</time>
      </trkpt>
      <trkpt lat="48.55531" lon="-2.07079">
        <ele>54</ele>
        <time>2019-05-05T08:36:40Z</time>
      </trkpt>
      <trkpt lat="48.55522" lon="-2.07073">
        <ele>56</ele>
        <time>2019-05-05T08:36:45Z</time>
      </trkpt>
      <trkpt lat="48.55497" lon="-2.07065">
        <ele>58</ele>
        <time>2019-05-05T08:37:03Z</time>
      </trkpt>
      <trkpt lat="48.55492" lon="-2.07065">
        <ele>59</ele>
        <time>2019-05-05T08:37:07Z</time>
      </trkpt>
      <trkpt lat="48.55463" lon="-2.07059">
        <ele>62</ele>
        <time>2019-05-05T08:37:33Z</time>
      </trkpt>
      <trkpt lat="48.55457" lon="-2.07057">
        <ele>61</ele>
        <time>2019-05-05T08:37:37Z</time>
      </trkpt>
      <trkpt lat="48.5544" lon="-2.07057">
        <ele>60</ele>
        <time>2019-05-05T08:37:47Z</time>
      </trkpt>
      <trkpt lat="48.5543" lon="-2.07062">
        <ele>60</ele>
        <time>2019-05-05T08:37:51Z</time>
      </trkpt>
      <trkpt lat="48.55423" lon="-2.07071">
        <ele>58</ele>
        <time>2019-05-05T08:37:55Z</time>
      </trkpt>
      <trkpt lat="48.55419" lon="-2.07079">
        <ele>57</ele>
        <time>2019-05-05T08:37:58Z</time>
      </trkpt>
      <trkpt lat="48.55418" lon="-2.07088">
        <ele>56</ele>
        <time>2019-05-05T08:38:03Z</time>
      </trkpt>
      <trkpt lat="48.55417" lon="-2.07107">
        <ele>54</ele>
        <time>2019-05-05T08:38:08Z</time>
      </trkpt>
      <trkpt lat="48.55414" lon="-2.07116">
        <ele>53</ele>
        <time>2019-05-05T08:38:11Z</time>
      </trkpt>
      <trkpt lat="48.55405" lon="-2.07127">
        <ele>55</ele>
        <time>2019-05-05T08:38:16Z</time>
      </trkpt>
      <trkpt lat="48.55401" lon="-2.07131">
        <ele>55</ele>
        <time>2019-05-05T08:38:19Z</time>
      </trkpt>
      <trkpt lat="48.55397" lon="-2.07135">
        <ele>55</ele>
        <time>2019-05-05T08:38:22Z</time>
      </trkpt>
      <trkpt lat="48.55393" lon="-2.07141">
        <ele>54</ele>
        <time>2019-05-05T08:38:26Z</time>
      </trkpt>
      <trkpt lat="48.55384" lon="-2.07149">
        <ele>54</ele>
        <time>2019-05-05T08:38:34Z</time>
      </trkpt>
      <trkpt lat="48.55374" lon="-2.07156">
        <ele>55</ele>
        <time>2019-05-05T08:38:40Z</time>
      </trkpt>
      <trkpt lat="48.55349" lon="-2.07174">
        <ele>52</ele>
        <time>2019-05-05T08:38:55Z</time>
      </trkpt>
      <trkpt lat="48.55334" lon="-2.07182">
        <ele>51</ele>
        <time>2019-05-05T08:39:07Z</time>
      </trkpt>
      <trkpt lat="48.55315" lon="-2.07198">
        <ele>52</ele>
        <time>2019-05-05T08:39:21Z</time>
      </trkpt>
      <trkpt lat="48.5531" lon="-2.07202">
        <ele>53</ele>
        <time>2019-05-05T08:39:24Z</time>
      </trkpt>
      <trkpt lat="48.55307" lon="-2.07209">
        <ele>53</ele>
        <time>2019-05-05T08:39:28Z</time>
      </trkpt>
      <trkpt lat="48.55303" lon="-2.07215">
        <ele>54</ele>
        <time>2019-05-05T08:39:32Z</time>
      </trkpt>
      <trkpt lat="48.553" lon="-2.0722">
        <ele>55</ele>
        <time>2019-05-05T08:39:35Z</time>
      </trkpt>
      <trkpt lat="48.55296" lon="-2.07225">
        <ele>55</ele>
        <time>2019-05-05T08:39:39Z</time>
      </trkpt>
      <trkpt lat="48.55294" lon="-2.07232">
        <ele>55</ele>
        <time>2019-05-05T08:39:42Z</time>
      </trkpt>
      <trkpt lat="48.55283" lon="-2.07251">
        <ele>55</ele>
        <time>2019-05-05T08:39:51Z</time>
      </trkpt>
      <trkpt lat="48.55281" lon="-2.07257">
        <ele>55</ele>
        <time>2019-05-05T08:39:55Z</time>
      </trkpt>
      <trkpt lat="48.55279" lon="-2.07264">
        <ele>55</ele>
        <time>2019-05-05T08:40:04Z</time>
      </trkpt>
      <trkpt lat="48.55255" lon="-2.07301">
        <ele>54</ele>
        <time>2019-05-05T08:40:21Z</time>
      </trkpt>
      <trkpt lat="48.55246" lon="-2.07309">
        <ele>52</ele>
        <time>2019-05-05T08:40:28Z</time>
      </trkpt>
      <trkpt lat="48.55239" lon="-2.07322">
        <ele>52</ele>
        <time>2019-05-05T08:40:38Z</time>
      </trkpt>
      <trkpt lat="48.55234" lon="-2.07328">
        <ele>51</ele>
        <time>2019-05-05T08:40:41Z</time>
      </trkpt>
      <trkpt lat="48.5523" lon="-2.07331">
        <ele>51</ele>
        <time>2019-05-05T08:40:44Z</time>
      </trkpt>
      <trkpt lat="48.55221" lon="-2.0734">
        <ele>50</ele>
        <time>2019-05-05T08:40:51Z</time>
      </trkpt>
      <trkpt lat="48.55217" lon="-2.07344">
        <ele>50</ele>
        <time>2019-05-05T08:40:54Z</time>
      </trkpt>
      <trkpt lat="48.55212" lon="-2.07348">
        <ele>49</ele>
        <time>2019-05-05T08:40:58Z</time>
      </trkpt>
      <trkpt lat="48.55208" lon="-2.0735">
        <ele>49</ele>
        <time>2019-05-05T08:41:00Z</time>
      </trkpt>
      <trkpt lat="48.55197" lon="-2.07355">
        <ele>49</ele>
        <time>2019-05-05T08:41:05Z</time>
      </trkpt>
      <trkpt lat="48.55187" lon="-2.0736">
        <ele>49</ele>
        <time>2019-05-05T08:41:11Z</time>
      </trkpt>
      <trkpt lat="48.55182" lon="-2.07361">
        <ele>51</ele>
        <time>2019-05-05T08:41:14Z</time>
      </trkpt>
      <trkpt lat="48.55177" lon="-2.07361">
        <ele>52</ele>
        <time>2019-05-05T08:41:18Z</time>
      </trkpt>
      <trkpt lat="48.55168" lon="-2.07367">
        <ele>52</ele>
        <time>2019-05-05T08:41:27Z</time>
      </trkpt>
      <trkpt lat="48.55154" lon="-2.07372">
        <ele>52</ele>
        <time>2019-05-05T08:41:39Z</time>
      </trkpt>
      <trkpt lat="48.5515" lon="-2.07375">
        <ele>52</ele>
        <time>2019-05-05T08:41:43Z</time>
      </trkpt>
      <trkpt lat="48.55145" lon="-2.07378">
        <ele>52</ele>
        <time>2019-05-05T08:41:45Z</time>
      </trkpt>
      <trkpt lat="48.55141" lon="-2.07383">
        <ele>52</ele>
        <time>2019-05-05T08:41:48Z</time>
      </trkpt>
      <trkpt lat="48.55133" lon="-2.07393">
        <ele>47</ele>
        <time>2019-05-05T08:41:56Z</time>
      </trkpt>
      <trkpt lat="48.55124" lon="-2.07401">
        <ele>41</ele>
        <time>2019-05-05T08:42:05Z</time>
      </trkpt>
      <trkpt lat="48.55121" lon="-2.07396">
        <ele>39</ele>
        <time>2019-05-05T08:42:12Z</time>
      </trkpt>
      <trkpt lat="48.55117" lon="-2.07387">
        <ele>39</ele>
        <time>2019-05-05T08:42:14Z</time>
      </trkpt>
      <trkpt lat="48.55093" lon="-2.07264">
        <ele>34</ele>
        <time>2019-05-05T08:42:31Z</time>
      </trkpt>
      <trkpt lat="48.55055" lon="-2.07142">
        <ele>37</ele>
        <time>2019-05-05T08:42:51Z</time>
      </trkpt>
      <trkpt lat="48.5505" lon="-2.06946">
        <ele>43</ele>
        <time>2019-05-05T08:43:21Z</time>
      </trkpt>
      <trkpt lat="48.55047" lon="-2.06901">
        <ele>44</ele>
        <time>2019-05-05T08:43:30Z</time>
      </trkpt>
      <trkpt lat="48.55046" lon="-2.0689">
        <ele>45</ele>
        <time>2019-05-05T08:43:32Z</time>
      </trkpt>
      <trkpt lat="48.55039" lon="-2.06854">
        <ele>46</ele>
        <time>2019-05-05T08:43:40Z</time>
      </trkpt>
      <trkpt lat="48.55037" lon="-2.06845">
        <ele>46</ele>
        <time>2019-05-05T08:43:42Z</time>
      </trkpt>
      <trkpt lat="48.55033" lon="-2.06836">
        <ele>47</ele>
        <time>2019-05-05T08:43:44Z</time>
      </trkpt>
      <trkpt lat="48.5503" lon="-2.06831">
        <ele>48</ele>
        <time>2019-05-05T08:43:46Z</time>
      </trkpt>
      <trkpt lat="48.55032" lon="-2.06822">
        <ele>51</ele>
        <time>2019-05-05T08:43:49Z</time>
      </trkpt>
      <trkpt lat="48.55033" lon="-2.06813">
        <ele>54</ele>
        <time>2019-05-05T08:43:53Z</time>
      </trkpt>
      <trkpt lat="48.55032" lon="-2.06805">
        <ele>55</ele>
        <time>2019-05-05T08:43:55Z</time>
      </trkpt>
      <trkpt lat="48.55032" lon="-2.06779">
        <ele>59</ele>
        <time>2019-05-05T08:44:05Z</time>
      </trkpt>
      <trkpt lat="48.55031" lon="-2.06765">
        <ele>60</ele>
        <time>2019-05-05T08:44:13Z</time>
      </trkpt>
      <trkpt lat="48.55031" lon="-2.06756">
        <ele>60</ele>
        <time>2019-05-05T08:44:17Z</time>
      </trkpt>
      <trkpt lat="48.55036" lon="-2.06744">
        <ele>58</ele>
        <time>2019-05-05T08:44:23Z</time>
      </trkpt>
      <trkpt lat="48.55041" lon="-2.06745">
        <ele>58</ele>
        <time>2019-05-05T08:44:27Z</time>
      </trkpt>
      <trkpt lat="48.55046" lon="-2.06746">
        <ele>58</ele>
        <time>2019-05-05T08:44:30Z</time>
      </trkpt>
      <trkpt lat="48.55066" lon="-2.06743">
        <ele>60</ele>
        <time>2019-05-05T08:44:39Z</time>
      </trkpt>
      <trkpt lat="48.55071" lon="-2.06742">
        <ele>60</ele>
        <time>2019-05-05T08:44:41Z</time>
      </trkpt>
      <trkpt lat="48.55088" lon="-2.06737">
        <ele>65</ele>
        <time>2019-05-05T08:44:51Z</time>
      </trkpt>
      <trkpt lat="48.55092" lon="-2.06734">
        <ele>66</ele>
        <time>2019-05-05T08:44:54Z</time>
      </trkpt>
      <trkpt lat="48.55096" lon="-2.06728">
        <ele>68</ele>
        <time>2019-05-05T08:44:59Z</time>
      </trkpt>
      <trkpt lat="48.55102" lon="-2.06717">
        <ele>69</ele>
        <time>2019-05-05T08:45:10Z</time>
      </trkpt>
      <trkpt lat="48.55107" lon="-2.06714">
        <ele>69</ele>
        <time>2019-05-05T08:45:13Z</time>
      </trkpt>
      <trkpt lat="48.55111" lon="-2.06712">
        <ele>68</ele>
        <time>2019-05-05T08:45:16Z</time>
      </trkpt>
      <trkpt lat="48.5513" lon="-2.067">
        <ele>67</ele>
        <time>2019-05-05T08:45:31Z</time>
      </trkpt>
      <trkpt lat="48.55147" lon="-2.0669">
        <ele>67</ele>
        <time>2019-05-05T08:45:40Z</time>
      </trkpt>
      <trkpt lat="48.55152" lon="-2.06686">
        <ele>67</ele>
        <time>2019-05-05T08:45:43Z</time>
      </trkpt>
      <trkpt lat="48.55158" lon="-2.06683">
        <ele>67</ele>
        <time>2019-05-05T08:45:46Z</time>
      </trkpt>
      <trkpt lat="48.55162" lon="-2.06677">
        <ele>67</ele>
        <time>2019-05-05T08:45:51Z</time>
      </trkpt>
      <trkpt lat="48.55171" lon="-2.06674">
        <ele>68</ele>
        <time>2019-05-05T08:46:02Z</time>
      </trkpt>
      <trkpt lat="48.55176" lon="-2.06677">
        <ele>68</ele>
        <time>2019-05-05T08:46:10Z</time>
      </trkpt>
      <trkpt lat="48.55183" lon="-2.06688">
        <ele>65</ele>
        <time>2019-05-05T08:46:16Z</time>
      </trkpt>
      <trkpt lat="48.55203" lon="-2.06709">
        <ele>63</ele>
        <time>2019-05-05T08:46:24Z</time>
      </trkpt>
      <trkpt lat="48.55207" lon="-2.06713">
        <ele>62</ele>
        <time>2019-05-05T08:46:27Z</time>
      </trkpt>
      <trkpt lat="48.55218" lon="-2.06719">
        <ele>62</ele>
        <time>2019-05-05T08:46:33Z</time>
      </trkpt>
      <trkpt lat="48.55223" lon="-2.06719">
        <ele>62</ele>
        <time>2019-05-05T08:46:37Z</time>
      </trkpt>
      <trkpt lat="48.55227" lon="-2.06715">
        <ele>62</ele>
        <time>2019-05-05T08:46:41Z</time>
      </trkpt>
      <trkpt lat="48.55232" lon="-2.06713">
        <ele>62</ele>
        <time>2019-05-05T08:46:47Z</time>
      </trkpt>
      <trkpt lat="48.55238" lon="-2.06714">
        <ele>61</ele>
        <time>2019-05-05T08:46:58Z</time>
      </trkpt>
      <trkpt lat="48.55243" lon="-2.06717">
        <ele>61</ele>
        <time>2019-05-05T08:47:02Z</time>
      </trkpt>
      <trkpt lat="48.5525" lon="-2.06719">
        <ele>60</ele>
        <time>2019-05-05T08:47:04Z</time>
      </trkpt>
      <trkpt lat="48.55255" lon="-2.06724">
        <ele>60</ele>
        <time>2019-05-05T08:47:06Z</time>
      </trkpt>
      <trkpt lat="48.55264" lon="-2.06734">
        <ele>61</ele>
        <time>2019-05-05T08:47:11Z</time>
      </trkpt>
      <trkpt lat="48.55271" lon="-2.06735">
        <ele>61</ele>
        <time>2019-05-05T08:47:14Z</time>
      </trkpt>
      <trkpt lat="48.55279" lon="-2.06732">
        <ele>61</ele>
        <time>2019-05-05T08:47:16Z</time>
      </trkpt>
      <trkpt lat="48.55347" lon="-2.06653">
        <ele>65</ele>
        <time>2019-05-05T08:47:34Z</time>
      </trkpt>
      <trkpt lat="48.55355" lon="-2.06646">
        <ele>66</ele>
        <time>2019-05-05T08:47:36Z</time>
      </trkpt>
      <trkpt lat="48.55389" lon="-2.06648">
        <ele>64</ele>
        <time>2019-05-05T08:47:45Z</time>
      </trkpt>
      <trkpt lat="48.55406" lon="-2.06659">
        <ele>64</ele>
        <time>2019-05-05T08:47:51Z</time>
      </trkpt>
      <trkpt lat="48.55411" lon="-2.06661">
        <ele>63</ele>
        <time>2019-05-05T08:47:53Z</time>
      </trkpt>
      <trkpt lat="48.55415" lon="-2.06658">
        <ele>63</ele>
        <time>2019-05-05T08:47:55Z</time>
      </trkpt>
      <trkpt lat="48.55426" lon="-2.06631">
        <ele>61</ele>
        <time>2019-05-05T08:48:01Z</time>
      </trkpt>
      <trkpt lat="48.55432" lon="-2.06539">
        <ele>56</ele>
        <time>2019-05-05T08:48:15Z</time>
      </trkpt>
      <trkpt lat="48.55431" lon="-2.06467">
        <ele>52</ele>
        <time>2019-05-05T08:48:26Z</time>
      </trkpt>
      <trkpt lat="48.55434" lon="-2.06449">
        <ele>50</ele>
        <time>2019-05-05T08:48:29Z</time>
      </trkpt>
      <trkpt lat="48.55437" lon="-2.0644">
        <ele>49</ele>
        <time>2019-05-05T08:48:31Z</time>
      </trkpt>
      <trkpt lat="48.55444" lon="-2.06433">
        <ele>48</ele>
        <time>2019-05-05T08:48:33Z</time>
      </trkpt>
      <trkpt lat="48.55585" lon="-2.06386">
        <ele>56</ele>
        <time>2019-05-05T08:48:58Z</time>
      </trkpt>
      <trkpt lat="48.5559" lon="-2.06385">
        <ele>57</ele>
        <time>2019-05-05T08:48:59Z</time>
      </trkpt>
      <trkpt lat="48.55649" lon="-2.06343">
        <ele>65</ele>
        <time>2019-05-05T08:49:13Z</time>
      </trkpt>
      <trkpt lat="48.55652" lon="-2.06337">
        <ele>66</ele>
        <time>2019-05-05T08:49:17Z</time>
      </trkpt>
      <trkpt lat="48.55656" lon="-2.06331">
        <ele>68</ele>
        <time>2019-05-05T08:49:20Z</time>
      </trkpt>
      <trkpt lat="48.55661" lon="-2.06328">
        <ele>70</ele>
        <time>2019-05-05T08:49:24Z</time>
      </trkpt>
      <trkpt lat="48.55708" lon="-2.06357">
        <ele>80</ele>
        <time>2019-05-05T08:49:57Z</time>
      </trkpt>
      <trkpt lat="48.55717" lon="-2.06362">
        <ele>82</ele>
        <time>2019-05-05T08:50:05Z</time>
      </trkpt>
      <trkpt lat="48.55723" lon="-2.06365">
        <ele>81</ele>
        <time>2019-05-05T08:50:09Z</time>
      </trkpt>
      <trkpt lat="48.5573" lon="-2.06376">
        <ele>80</ele>
        <time>2019-05-05T08:50:15Z</time>
      </trkpt>
      <trkpt lat="48.55739" lon="-2.06386">
        <ele>80</ele>
        <time>2019-05-05T08:50:22Z</time>
      </trkpt>
      <trkpt lat="48.55743" lon="-2.06392">
        <ele>80</ele>
        <time>2019-05-05T08:50:26Z</time>
      </trkpt>
      <trkpt lat="48.55746" lon="-2.06399">
        <ele>80</ele>
        <time>2019-05-05T08:50:29Z</time>
      </trkpt>
      <trkpt lat="48.55769" lon="-2.0643">
        <ele>75</ele>
        <time>2019-05-05T08:50:52Z</time>
      </trkpt>
      <trkpt lat="48.55773" lon="-2.06437">
        <ele>74</ele>
        <time>2019-05-05T08:50:56Z</time>
      </trkpt>
      <trkpt lat="48.55776" lon="-2.06443">
        <ele>75</ele>
        <time>2019-05-05T08:50:59Z</time>
      </trkpt>
      <trkpt lat="48.55781" lon="-2.06444">
        <ele>75</ele>
        <time>2019-05-05T08:51:05Z</time>
      </trkpt>
      <trkpt lat="48.55796" lon="-2.06466">
        <ele>74</ele>
        <time>2019-05-05T08:51:18Z</time>
      </trkpt>
      <trkpt lat="48.55804" lon="-2.06473">
        <ele>73</ele>
        <time>2019-05-05T08:51:27Z</time>
      </trkpt>
      <trkpt lat="48.55808" lon="-2.06476">
        <ele>73</ele>
        <time>2019-05-05T08:51:30Z</time>
      </trkpt>
      <trkpt lat="48.5583" lon="-2.06481">
        <ele>74</ele>
        <time>2019-05-05T08:51:44Z</time>
      </trkpt>
      <trkpt lat="48.55835" lon="-2.06481">
        <ele>75</ele>
        <time>2019-05-05T08:51:47Z</time>
      </trkpt>
      <trkpt lat="48.55838" lon="-2.06488">
        <ele>75</ele>
        <time>2019-05-05T08:51:54Z</time>
      </trkpt>
      <trkpt lat="48.55837" lon="-2.06514">
        <ele>76</ele>
        <time>2019-05-05T08:52:04Z</time>
      </trkpt>
      <trkpt lat="48.55838" lon="-2.06521">
        <ele>76</ele>
        <time>2019-05-05T08:52:07Z</time>
      </trkpt>
      <trkpt lat="48.55842" lon="-2.06525">
        <ele>77</ele>
        <time>2019-05-05T08:52:10Z</time>
      </trkpt>
      <trkpt lat="48.55845" lon="-2.0653">
        <ele>77</ele>
        <time>2019-05-05T08:52:15Z</time>
      </trkpt>
      <trkpt lat="48.5585" lon="-2.06546">
        <ele>77</ele>
        <time>2019-05-05T08:52:22Z</time>
      </trkpt>
      <trkpt lat="48.55852" lon="-2.06554">
        <ele>78</ele>
        <time>2019-05-05T08:52:26Z</time>
      </trkpt>
      <trkpt lat="48.55853" lon="-2.06571">
        <ele>79</ele>
        <time>2019-05-05T08:52:32Z</time>
      </trkpt>
      <trkpt lat="48.55853" lon="-2.06596">
        <ele>80</ele>
        <time>2019-05-05T08:52:41Z</time>
      </trkpt>
      <trkpt lat="48.55856" lon="-2.06602">
        <ele>80</ele>
        <time>2019-05-05T08:52:45Z</time>
      </trkpt>
      <trkpt lat="48.55862" lon="-2.06604">
        <ele>79</ele>
        <time>2019-05-05T08:52:48Z</time>
      </trkpt>
      <trkpt lat="48.55866" lon="-2.06607">
        <ele>78</ele>
        <time>2019-05-05T08:52:51Z</time>
      </trkpt>
      <trkpt lat="48.55871" lon="-2.06611">
        <ele>76</ele>
        <time>2019-05-05T08:52:55Z</time>
      </trkpt>
      <trkpt lat="48.55876" lon="-2.06613">
        <ele>75</ele>
        <time>2019-05-05T08:52:58Z</time>
      </trkpt>
      <trkpt lat="48.55885" lon="-2.06621">
        <ele>74</ele>
        <time>2019-05-05T08:53:06Z</time>
      </trkpt>
      <trkpt lat="48.55895" lon="-2.06625">
        <ele>70</ele>
        <time>2019-05-05T08:53:14Z</time>
      </trkpt>
      <trkpt lat="48.559" lon="-2.06629">
        <ele>69</ele>
        <time>2019-05-05T08:53:18Z</time>
      </trkpt>
      <trkpt lat="48.55904" lon="-2.06633">
        <ele>68</ele>
        <time>2019-05-05T08:53:22Z</time>
      </trkpt>
      <trkpt lat="48.55909" lon="-2.06638">
        <ele>64</ele>
        <time>2019-05-05T08:53:27Z</time>
      </trkpt>
      <trkpt lat="48.55913" lon="-2.06645">
        <ele>62</ele>
        <time>2019-05-05T08:53:31Z</time>
      </trkpt>
      <trkpt lat="48.55927" lon="-2.06657">
        <ele>60</ele>
        <time>2019-05-05T08:53:41Z</time>
      </trkpt>
      <trkpt lat="48.55933" lon="-2.0666">
        <ele>61</ele>
        <time>2019-05-05T08:53:44Z</time>
      </trkpt>
      <trkpt lat="48.55962" lon="-2.06669">
        <ele>61</ele>
        <time>2019-05-05T08:53:58Z</time>
      </trkpt>
      <trkpt lat="48.55976" lon="-2.06669">
        <ele>61</ele>
        <time>2019-05-05T08:54:04Z</time>
      </trkpt>
      <trkpt lat="48.56015" lon="-2.06675">
        <ele>64</ele>
        <time>2019-05-05T08:54:32Z</time>
      </trkpt>
      <trkpt lat="48.56021" lon="-2.06678">
        <ele>65</ele>
        <time>2019-05-05T08:54:37Z</time>
      </trkpt>
      <trkpt lat="48.56032" lon="-2.0668">
        <ele>67</ele>
        <time>2019-05-05T08:54:45Z</time>
      </trkpt>
      <trkpt lat="48.56037" lon="-2.06681">
        <ele>68</ele>
        <time>2019-05-05T08:54:48Z</time>
      </trkpt>
      <trkpt lat="48.56042" lon="-2.06679">
        <ele>68</ele>
        <time>2019-05-05T08:54:51Z</time>
      </trkpt>
      <trkpt lat="48.56048" lon="-2.0668">
        <ele>68</ele>
        <time>2019-05-05T08:54:55Z</time>
      </trkpt>
      <trkpt lat="48.56102" lon="-2.0669">
        <ele>66</ele>
        <time>2019-05-05T08:55:14Z</time>
      </trkpt>
      <trkpt lat="48.56106" lon="-2.06694">
        <ele>67</ele>
        <time>2019-05-05T08:55:17Z</time>
      </trkpt>
      <trkpt lat="48.56106" lon="-2.06703">
        <ele>67</ele>
        <time>2019-05-05T08:55:21Z</time>
      </trkpt>
      <trkpt lat="48.56104" lon="-2.0671">
        <ele>67</ele>
        <time>2019-05-05T08:55:24Z</time>
      </trkpt>
      <trkpt lat="48.56103" lon="-2.06717">
        <ele>67</ele>
        <time>2019-05-05T08:55:27Z</time>
      </trkpt>
      <trkpt lat="48.56102" lon="-2.06724">
        <ele>66</ele>
        <time>2019-05-05T08:55:31Z</time>
      </trkpt>
      <trkpt lat="48.56106" lon="-2.06729">
        <ele>65</ele>
        <time>2019-05-05T08:55:35Z</time>
      </trkpt>
      <trkpt lat="48.56105" lon="-2.06736">
        <ele>64</ele>
        <time>2019-05-05T08:55:39Z</time>
      </trkpt>
      <trkpt lat="48.56103" lon="-2.06743">
        <ele>63</ele>
        <time>2019-05-05T08:55:41Z</time>
      </trkpt>
      <trkpt lat="48.56099" lon="-2.0675">
        <ele>63</ele>
        <time>2019-05-05T08:55:44Z</time>
      </trkpt>
      <trkpt lat="48.56097" lon="-2.06757">
        <ele>62</ele>
        <time>2019-05-05T08:55:47Z</time>
      </trkpt>
      <trkpt lat="48.56094" lon="-2.06765">
        <ele>61</ele>
        <time>2019-05-05T08:55:51Z</time>
      </trkpt>
      <trkpt lat="48.56093" lon="-2.06772">
        <ele>60</ele>
        <time>2019-05-05T08:55:55Z</time>
      </trkpt>
      <trkpt lat="48.56089" lon="-2.06788">
        <ele>59</ele>
        <time>2019-05-05T08:56:07Z</time>
      </trkpt>
      <trkpt lat="48.56085" lon="-2.06795">
        <ele>59</ele>
        <time>2019-05-05T08:56:10Z</time>
      </trkpt>
      <trkpt lat="48.56082" lon="-2.06801">
        <ele>58</ele>
        <time>2019-05-05T08:56:13Z</time>
      </trkpt>
      <trkpt lat="48.56079" lon="-2.06807">
        <ele>58</ele>
        <time>2019-05-05T08:56:15Z</time>
      </trkpt>
      <trkpt lat="48.56076" lon="-2.06812">
        <ele>58</ele>
        <time>2019-05-05T08:56:17Z</time>
      </trkpt>
      <trkpt lat="48.56072" lon="-2.06819">
        <ele>57</ele>
        <time>2019-05-05T08:56:20Z</time>
      </trkpt>
      <trkpt lat="48.56068" lon="-2.06823">
        <ele>56</ele>
        <time>2019-05-05T08:56:22Z</time>
      </trkpt>
      <trkpt lat="48.56063" lon="-2.06826">
        <ele>56</ele>
        <time>2019-05-05T08:56:25Z</time>
      </trkpt>
      <trkpt lat="48.56053" lon="-2.06832">
        <ele>56</ele>
        <time>2019-05-05T08:56:31Z</time>
      </trkpt>
      <trkpt lat="48.56051" lon="-2.0684">
        <ele>56</ele>
        <time>2019-05-05T08:56:34Z</time>
      </trkpt>
      <trkpt lat="48.56047" lon="-2.06845">
        <ele>56</ele>
        <time>2019-05-05T08:56:36Z</time>
      </trkpt>
      <trkpt lat="48.56042" lon="-2.06847">
        <ele>56</ele>
        <time>2019-05-05T08:56:38Z</time>
      </trkpt>
      <trkpt lat="48.56032" lon="-2.06852">
        <ele>56</ele>
        <time>2019-05-05T08:56:42Z</time>
      </trkpt>
      <trkpt lat="48.56027" lon="-2.06855">
        <ele>56</ele>
        <time>2019-05-05T08:56:44Z</time>
      </trkpt>
      <trkpt lat="48.56018" lon="-2.06861">
        <ele>57</ele>
        <time>2019-05-05T08:56:48Z</time>
      </trkpt>
      <trkpt lat="48.56003" lon="-2.06871">
        <ele>60</ele>
        <time>2019-05-05T08:56:56Z</time>
      </trkpt>
      <trkpt lat="48.55993" lon="-2.06877">
        <ele>61</ele>
        <time>2019-05-05T08:57:02Z</time>
      </trkpt>
      <trkpt lat="48.55988" lon="-2.06881">
        <ele>61</ele>
        <time>2019-05-05T08:57:04Z</time>
      </trkpt>
      <trkpt lat="48.55983" lon="-2.06885">
        <ele>61</ele>
        <time>2019-05-05T08:57:07Z</time>
      </trkpt>
      <trkpt lat="48.55981" lon="-2.06892">
        <ele>61</ele>
        <time>2019-05-05T08:57:09Z</time>
      </trkpt>
      <trkpt lat="48.55982" lon="-2.0691">
        <ele>61</ele>
        <time>2019-05-05T08:57:14Z</time>
      </trkpt>
      <trkpt lat="48.55995" lon="-2.06957">
        <ele>63</ele>
        <time>2019-05-05T08:57:24Z</time>
      </trkpt>
      <trkpt lat="48.55999" lon="-2.07015">
        <ele>65</ele>
        <time>2019-05-05T08:57:34Z</time>
      </trkpt>
      <trkpt lat="48.56038" lon="-2.07124">
        <ele>64</ele>
        <time>2019-05-05T08:58:02Z</time>
      </trkpt>
      <trkpt lat="48.56038" lon="-2.07132">
        <ele>64</ele>
        <time>2019-05-05T08:58:04Z</time>
      </trkpt>
      <trkpt lat="48.56034" lon="-2.07139">
        <ele>64</ele>
        <time>2019-05-05T08:58:06Z</time>
      </trkpt>
      <trkpt lat="48.56022" lon="-2.07172">
        <ele>64</ele>
        <time>2019-05-05T08:58:14Z</time>
      </trkpt>
      <trkpt lat="48.56014" lon="-2.07232">
        <ele>67</ele>
        <time>2019-05-05T08:58:26Z</time>
      </trkpt>
      <trkpt lat="48.56011" lon="-2.07252">
        <ele>67</ele>
        <time>2019-05-05T08:58:30Z</time>
      </trkpt>
      <trkpt lat="48.56003" lon="-2.07283">
        <ele>67</ele>
        <time>2019-05-05T08:58:36Z</time>
      </trkpt>
      <trkpt lat="48.55933" lon="-2.07396">
        <ele>63</ele>
        <time>2019-05-05T08:59:07Z</time>
      </trkpt>
      <trkpt lat="48.55925" lon="-2.07402">
        <ele>61</ele>
        <time>2019-05-05T08:59:11Z</time>
      </trkpt>
      <trkpt lat="48.55923" lon="-2.07408">
        <ele>60</ele>
        <time>2019-05-05T08:59:15Z</time>
      </trkpt>
      <trkpt lat="48.5592" lon="-2.07419">
        <ele>58</ele>
        <time>2019-05-05T08:59:17Z</time>
      </trkpt>
      <trkpt lat="48.55917" lon="-2.07425">
        <ele>57</ele>
        <time>2019-05-05T08:59:21Z</time>
      </trkpt>
      <trkpt lat="48.55917" lon="-2.07433">
        <ele>56</ele>
        <time>2019-05-05T08:59:28Z</time>
      </trkpt>
      <trkpt lat="48.55922" lon="-2.07436">
        <ele>56</ele>
        <time>2019-05-05T08:59:31Z</time>
      </trkpt>
      <trkpt lat="48.5593" lon="-2.07444">
        <ele>52</ele>
        <time>2019-05-05T08:59:37Z</time>
      </trkpt>
      <trkpt lat="48.55934" lon="-2.0745">
        <ele>50</ele>
        <time>2019-05-05T08:59:40Z</time>
      </trkpt>
      <trkpt lat="48.55935" lon="-2.07457">
        <ele>50</ele>
        <time>2019-05-05T08:59:46Z</time>
      </trkpt>
      <trkpt lat="48.5594" lon="-2.07461">
        <ele>48</ele>
        <time>2019-05-05T08:59:50Z</time>
      </trkpt>
      <trkpt lat="48.55946" lon="-2.07467">
        <ele>47</ele>
        <time>2019-05-05T08:59:58Z</time>
      </trkpt>
      <trkpt lat="48.55958" lon="-2.07491">
        <ele>49</ele>
        <time>2019-05-05T09:00:04Z</time>
      </trkpt>
      <trkpt lat="48.55963" lon="-2.07511">
        <ele>51</ele>
        <time>2019-05-05T09:00:08Z</time>
      </trkpt>
      <trkpt lat="48.55971" lon="-2.07534">
        <ele>52</ele>
        <time>2019-05-05T09:00:14Z</time>
      </trkpt>
      <trkpt lat="48.55972" lon="-2.07541">
        <ele>53</ele>
        <time>2019-05-05T09:00:16Z</time>
      </trkpt>
      <trkpt lat="48.55984" lon="-2.07575">
        <ele>53</ele>
        <time>2019-05-05T09:00:25Z</time>
      </trkpt>
      <trkpt lat="48.5599" lon="-2.07579">
        <ele>53</ele>
        <time>2019-05-05T09:00:28Z</time>
      </trkpt>
      <trkpt lat="48.5599" lon="-2.07604">
        <ele>53</ele>
        <time>2019-05-05T09:00:38Z</time>
      </trkpt>
      <trkpt lat="48.55988" lon="-2.07612">
        <ele>53</ele>
        <time>2019-05-05T09:00:44Z</time>
      </trkpt>
      <trkpt lat="48.55984" lon="-2.07619">
        <ele>53</ele>
        <time>2019-05-05T09:00:49Z</time>
      </trkpt>
      <trkpt lat="48.55977" lon="-2.07628">
        <ele>52</ele>
        <time>2019-05-05T09:00:53Z</time>
      </trkpt>
      <trkpt lat="48.55975" lon="-2.07633">
        <ele>52</ele>
        <time>2019-05-05T09:00:55Z</time>
      </trkpt>
      <trkpt lat="48.55974" lon="-2.07642">
        <ele>51</ele>
        <time>2019-05-05T09:00:58Z</time>
      </trkpt>
      <trkpt lat="48.55974" lon="-2.07651">
        <ele>51</ele>
        <time>2019-05-05T09:01:02Z</time>
      </trkpt>
      <trkpt lat="48.55981" lon="-2.07697">
        <ele>50</ele>
        <time>2019-05-05T09:01:21Z</time>
      </trkpt>
      <trkpt lat="48.55988" lon="-2.0772">
        <ele>49</ele>
        <time>2019-05-05T09:01:27Z</time>
      </trkpt>
      <trkpt lat="48.55987" lon="-2.0773">
        <ele>49</ele>
        <time>2019-05-05T09:01:30Z</time>
      </trkpt>
      <trkpt lat="48.55987" lon="-2.07739">
        <ele>49</ele>
        <time>2019-05-05T09:01:32Z</time>
      </trkpt>
      <trkpt lat="48.55999" lon="-2.07764">
        <ele>48</ele>
        <time>2019-05-05T09:01:42Z</time>
      </trkpt>
      <trkpt lat="48.56003" lon="-2.07768">
        <ele>48</ele>
        <time>2019-05-05T09:01:45Z</time>
      </trkpt>
      <trkpt lat="48.5602" lon="-2.07775">
        <ele>47</ele>
        <time>2019-05-05T09:01:56Z</time>
      </trkpt>
      <trkpt lat="48.56073" lon="-2.07806">
        <ele>49</ele>
        <time>2019-05-05T09:02:16Z</time>
      </trkpt>
      <trkpt lat="48.56113" lon="-2.07827">
        <ele>49</ele>
        <time>2019-05-05T09:02:32Z</time>
      </trkpt>
      <trkpt lat="48.56119" lon="-2.07826">
        <ele>49</ele>
        <time>2019-05-05T09:02:34Z</time>
      </trkpt>
      <trkpt lat="48.56124" lon="-2.07808">
        <ele>47</ele>
        <time>2019-05-05T09:02:37Z</time>
      </trkpt>
      <trkpt lat="48.56126" lon="-2.07801">
        <ele>46</ele>
        <time>2019-05-05T09:02:40Z</time>
      </trkpt>
      <trkpt lat="48.56129" lon="-2.07795">
        <ele>45</ele>
        <time>2019-05-05T09:02:44Z</time>
      </trkpt>
      <trkpt lat="48.5613" lon="-2.07789">
        <ele>45</ele>
        <time>2019-05-05T09:02:46Z</time>
      </trkpt>
      <trkpt lat="48.56136" lon="-2.07787">
        <ele>44</ele>
        <time>2019-05-05T09:02:50Z</time>
      </trkpt>
      <trkpt lat="48.56156" lon="-2.07793">
        <ele>43</ele>
        <time>2019-05-05T09:02:57Z</time>
      </trkpt>
      <trkpt lat="48.56173" lon="-2.07799">
        <ele>45</ele>
        <time>2019-05-05T09:03:03Z</time>
      </trkpt>
      <trkpt lat="48.56178" lon="-2.07799">
        <ele>46</ele>
        <time>2019-05-05T09:03:05Z</time>
      </trkpt>
      <trkpt lat="48.56183" lon="-2.07803">
        <ele>46</ele>
        <time>2019-05-05T09:03:07Z</time>
      </trkpt>
      <trkpt lat="48.56186" lon="-2.07809">
        <ele>47</ele>
        <time>2019-05-05T09:03:09Z</time>
      </trkpt>
      <trkpt lat="48.56191" lon="-2.07807">
        <ele>47</ele>
        <time>2019-05-05T09:03:14Z</time>
      </trkpt>
      <trkpt lat="48.56193" lon="-2.07801">
        <ele>48</ele>
        <time>2019-05-05T09:03:20Z</time>
      </trkpt>
      <trkpt lat="48.56204" lon="-2.07792">
        <ele>50</ele>
        <time>2019-05-05T09:03:31Z</time>
      </trkpt>
      <trkpt lat="48.56209" lon="-2.07789">
        <ele>50</ele>
        <time>2019-05-05T09:03:33Z</time>
      </trkpt>
      <trkpt lat="48.56214" lon="-2.07785">
        <ele>51</ele>
        <time>2019-05-05T09:03:36Z</time>
      </trkpt>
      <trkpt lat="48.56218" lon="-2.07786">
        <ele>52</ele>
        <time>2019-05-05T09:03:39Z</time>
      </trkpt>
      <trkpt lat="48.56224" lon="-2.07785">
        <ele>53</ele>
        <time>2019-05-05T09:03:42Z</time>
      </trkpt>
      <trkpt lat="48.56229" lon="-2.07786">
        <ele>53</ele>
        <time>2019-05-05T09:03:45Z</time>
      </trkpt>
      <trkpt lat="48.56237" lon="-2.07797">
        <ele>52</ele>
        <time>2019-05-05T09:03:52Z</time>
      </trkpt>
      <trkpt lat="48.56254" lon="-2.0781">
        <ele>52</ele>
        <time>2019-05-05T09:03:58Z</time>
      </trkpt>
      <trkpt lat="48.56266" lon="-2.07818">
        <ele>52</ele>
        <time>2019-05-05T09:04:02Z</time>
      </trkpt>
      <trkpt lat="48.56273" lon="-2.07818">
        <ele>52</ele>
        <time>2019-05-05T09:04:04Z</time>
      </trkpt>
      <trkpt lat="48.56291" lon="-2.07808">
        <ele>53</ele>
        <time>2019-05-05T09:04:14Z</time>
      </trkpt>
      <trkpt lat="48.56337" lon="-2.07808">
        <ele>54</ele>
        <time>2019-05-05T09:04:37Z</time>
      </trkpt>
      <trkpt lat="48.56353" lon="-2.07802">
        <ele>51</ele>
        <time>2019-05-05T09:04:45Z</time>
      </trkpt>
      <trkpt lat="48.56364" lon="-2.07793">
        <ele>49</ele>
        <time>2019-05-05T09:04:51Z</time>
      </trkpt>
      <trkpt lat="48.56369" lon="-2.0779">
        <ele>48</ele>
        <time>2019-05-05T09:04:55Z</time>
      </trkpt>
      <trkpt lat="48.56372" lon="-2.07784">
        <ele>47</ele>
        <time>2019-05-05T09:04:57Z</time>
      </trkpt>
      <trkpt lat="48.56377" lon="-2.07784">
        <ele>47</ele>
        <time>2019-05-05T09:05:03Z</time>
      </trkpt>
      <trkpt lat="48.56397" lon="-2.07787">
        <ele>48</ele>
        <time>2019-05-05T09:05:19Z</time>
      </trkpt>
      <trkpt lat="48.56402" lon="-2.07791">
        <ele>49</ele>
        <time>2019-05-05T09:05:22Z</time>
      </trkpt>
      <trkpt lat="48.56408" lon="-2.07794">
        <ele>50</ele>
        <time>2019-05-05T09:05:26Z</time>
      </trkpt>
      <trkpt lat="48.56412" lon="-2.07792">
        <ele>50</ele>
        <time>2019-05-05T09:05:29Z</time>
      </trkpt>
      <trkpt lat="48.56427" lon="-2.07804">
        <ele>50</ele>
        <time>2019-05-05T09:05:43Z</time>
      </trkpt>
      <trkpt lat="48.56432" lon="-2.07804">
        <ele>50</ele>
        <time>2019-05-05T09:05:46Z</time>
      </trkpt>
      <trkpt lat="48.56437" lon="-2.07807">
        <ele>50</ele>
        <time>2019-05-05T09:05:50Z</time>
      </trkpt>
      <trkpt lat="48.56442" lon="-2.07809">
        <ele>49</ele>
        <time>2019-05-05T09:05:54Z</time>
      </trkpt>
      <trkpt lat="48.56446" lon="-2.07808">
        <ele>49</ele>
        <time>2019-05-05T09:05:57Z</time>
      </trkpt>
      <trkpt lat="48.56451" lon="-2.0781">
        <ele>49</ele>
        <time>2019-05-05T09:06:00Z</time>
      </trkpt>
      <trkpt lat="48.56461" lon="-2.07815">
        <ele>49</ele>
        <time>2019-05-05T09:06:07Z</time>
      </trkpt>
      <trkpt lat="48.56492" lon="-2.07834">
        <ele>51</ele>
        <time>2019-05-05T09:06:22Z</time>
      </trkpt>
      <trkpt lat="48.56531" lon="-2.07877">
        <ele>56</ele>
        <time>2019-05-05T09:06:54Z</time>
      </trkpt>
      <trkpt lat="48.56535" lon="-2.07882">
        <ele>56</ele>
        <time>2019-05-05T09:06:59Z</time>
      </trkpt>
      <trkpt lat="48.56542" lon="-2.07885">
        <ele>56</ele>
        <time>2019-05-05T09:07:02Z</time>
      </trkpt>
      <trkpt lat="48.56547" lon="-2.07886">
        <ele>56</ele>
        <time>2019-05-05T09:07:04Z</time>
      </trkpt>
      <trkpt lat="48.56552" lon="-2.07885">
        <ele>55</ele>
        <time>2019-05-05T09:07:06Z</time>
      </trkpt>
      <trkpt lat="48.56561" lon="-2.07878">
        <ele>53</ele>
        <time>2019-05-05T09:07:12Z</time>
      </trkpt>
      <trkpt lat="48.56562" lon="-2.0787">
        <ele>51</ele>
        <time>2019-05-05T09:07:16Z</time>
      </trkpt>
      <trkpt lat="48.56565" lon="-2.07865">
        <ele>50</ele>
        <time>2019-05-05T09:07:19Z</time>
      </trkpt>
      <trkpt lat="48.56563" lon="-2.07858">
        <ele>50</ele>
        <time>2019-05-05T09:07:23Z</time>
      </trkpt>
      <trkpt lat="48.56561" lon="-2.07852">
        <ele>50</ele>
        <time>2019-05-05T09:07:45Z</time>
      </trkpt>
      <trkpt lat="48.56558" lon="-2.07847">
        <ele>50</ele>
        <time>2019-05-05T09:07:49Z</time>
      </trkpt>
      <trkpt lat="48.56553" lon="-2.07846">
        <ele>52</ele>
        <time>2019-05-05T09:07:58Z</time>
      </trkpt>
      <trkpt lat="48.56551" lon="-2.07861">
        <ele>53</ele>
        <time>2019-05-05T09:08:06Z</time>
      </trkpt>
      <trkpt lat="48.56552" lon="-2.0787">
        <ele>53</ele>
        <time>2019-05-05T09:08:09Z</time>
      </trkpt>
      <trkpt lat="48.56551" lon="-2.07877">
        <ele>52</ele>
        <time>2019-05-05T09:08:12Z</time>
      </trkpt>
      <trkpt lat="48.56546" lon="-2.07878">
        <ele>52</ele>
        <time>2019-05-05T09:08:19Z</time>
      </trkpt>
      <trkpt lat="48.56545" lon="-2.07862">
        <ele>53</ele>
        <time>2019-05-05T09:08:26Z</time>
      </trkpt>
      <trkpt lat="48.56547" lon="-2.07856">
        <ele>52</ele>
        <time>2019-05-05T09:08:30Z</time>
      </trkpt>
      <trkpt lat="48.56547" lon="-2.07849">
        <ele>52</ele>
        <time>2019-05-05T09:08:33Z</time>
      </trkpt>
      <trkpt lat="48.56546" lon="-2.07849">
        <ele>52</ele>
        <time>2019-05-05T09:08:52Z</time>
      </trkpt>
      <trkpt lat="48.56544" lon="-2.07856">
        <ele>51</ele>
        <time>2019-05-05T09:08:55Z</time>
      </trkpt>
      <trkpt lat="48.56544" lon="-2.07863">
        <ele>51</ele>
        <time>2019-05-05T09:08:58Z</time>
      </trkpt>
      <trkpt lat="48.56545" lon="-2.07872">
        <ele>52</ele>
        <time>2019-05-05T09:09:01Z</time>
      </trkpt>
      <trkpt lat="48.56549" lon="-2.07867">
        <ele>52</ele>
        <time>2019-05-05T09:09:05Z</time>
      </trkpt>
      <trkpt lat="48.56551" lon="-2.07858">
        <ele>52</ele>
        <time>2019-05-05T09:09:08Z</time>
      </trkpt>
      <trkpt lat="48.56553" lon="-2.07851">
        <ele>51</ele>
        <time>2019-05-05T09:09:10Z</time>
      </trkpt>
      <trkpt lat="48.56557" lon="-2.07847">
        <ele>51</ele>
        <time>2019-05-05T09:09:13Z</time>
      </trkpt>
      <trkpt lat="48.5656" lon="-2.07853">
        <ele>52</ele>
        <time>2019-05-05T09:09:52Z</time>
      </trkpt>
      <trkpt lat="48.56565" lon="-2.0785">
        <ele>52</ele>
        <time>2019-05-05T09:09:57Z</time>
      </trkpt>
      <trkpt lat="48.56569" lon="-2.07844">
        <ele>53</ele>
        <time>2019-05-05T09:10:01Z</time>
      </trkpt>
      <trkpt lat="48.5657" lon="-2.07852">
        <ele>55</ele>
        <time>2019-05-05T09:11:07Z</time>
      </trkpt>
      <trkpt lat="48.56575" lon="-2.07851">
        <ele>56</ele>
        <time>2019-05-05T09:13:26Z</time>
      </trkpt>
      <trkpt lat="48.56574" lon="-2.07852">
        <ele>57</ele>
        <time>2019-05-05T09:16:12Z</time>
      </trkpt>
      <trkpt lat="48.5657" lon="-2.07855">
        <ele>57</ele>
        <time>2019-05-05T09:19:40Z</time>
      </trkpt>
      <trkpt lat="48.56568" lon="-2.07849">
        <ele>57</ele>
        <time>2019-05-05T09:19:48Z</time>
      </trkpt>
      <trkpt lat="48.56566" lon="-2.07842">
        <ele>59</ele>
        <time>2019-05-05T09:19:55Z</time>
      </trkpt>
      <trkpt lat="48.56566" lon="-2.07842">
        <ele>57</ele>
        <time>2019-05-05T09:23:11Z</time>
      </trkpt>
      <trkpt lat="48.56562" lon="-2.07847">
        <ele>57</ele>
        <time>2019-05-05T09:23:15Z</time>
      </trkpt>
      <trkpt lat="48.5656" lon="-2.07853">
        <ele>57</ele>
        <time>2019-05-05T09:23:19Z</time>
      </trkpt>
      <trkpt lat="48.56552" lon="-2.07873">
        <ele>58</ele>
        <time>2019-05-05T09:23:29Z</time>
      </trkpt>
      <trkpt lat="48.56549" lon="-2.07879">
        <ele>58</ele>
        <time>2019-05-05T09:23:33Z</time>
      </trkpt>
      <trkpt lat="48.56546" lon="-2.07874">
        <ele>59</ele>
        <time>2019-05-05T09:23:41Z</time>
      </trkpt>
      <trkpt lat="48.56546" lon="-2.07857">
        <ele>58</ele>
        <time>2019-05-05T09:24:00Z</time>
      </trkpt>
      <trkpt lat="48.56546" lon="-2.07849">
        <ele>57</ele>
        <time>2019-05-05T09:24:02Z</time>
      </trkpt>
      <trkpt lat="48.56544" lon="-2.07841">
        <ele>56</ele>
        <time>2019-05-05T09:24:06Z</time>
      </trkpt>
      <trkpt lat="48.56544" lon="-2.07824">
        <ele>52</ele>
        <time>2019-05-05T09:24:33Z</time>
      </trkpt>
      <trkpt lat="48.56542" lon="-2.07817">
        <ele>54</ele>
        <time>2019-05-05T09:24:36Z</time>
      </trkpt>
      <trkpt lat="48.56549" lon="-2.07807">
        <ele>56</ele>
        <time>2019-05-05T09:24:45Z</time>
      </trkpt>
      <trkpt lat="48.56553" lon="-2.07799">
        <ele>57</ele>
        <time>2019-05-05T09:24:49Z</time>
      </trkpt>
      <trkpt lat="48.56555" lon="-2.07792">
        <ele>58</ele>
        <time>2019-05-05T09:24:52Z</time>
      </trkpt>
      <trkpt lat="48.56555" lon="-2.07778">
        <ele>60</ele>
        <time>2019-05-05T09:24:57Z</time>
      </trkpt>
      <trkpt lat="48.56558" lon="-2.07772">
        <ele>61</ele>
        <time>2019-05-05T09:25:00Z</time>
      </trkpt>
      <trkpt lat="48.56558" lon="-2.07758">
        <ele>61</ele>
        <time>2019-05-05T09:25:06Z</time>
      </trkpt>
      <trkpt lat="48.5656" lon="-2.07735">
        <ele>59</ele>
        <time>2019-05-05T09:25:16Z</time>
      </trkpt>
      <trkpt lat="48.56563" lon="-2.07728">
        <ele>59</ele>
        <time>2019-05-05T09:25:20Z</time>
      </trkpt>
      <trkpt lat="48.56566" lon="-2.07722">
        <ele>57</ele>
        <time>2019-05-05T09:25:23Z</time>
      </trkpt>
      <trkpt lat="48.56568" lon="-2.07715">
        <ele>57</ele>
        <time>2019-05-05T09:25:26Z</time>
      </trkpt>
      <trkpt lat="48.56572" lon="-2.07708">
        <ele>58</ele>
        <time>2019-05-05T09:25:29Z</time>
      </trkpt>
      <trkpt lat="48.56577" lon="-2.07703">
        <ele>60</ele>
        <time>2019-05-05T09:25:33Z</time>
      </trkpt>
      <trkpt lat="48.56583" lon="-2.07691">
        <ele>61</ele>
        <time>2019-05-05T09:25:39Z</time>
      </trkpt>
      <trkpt lat="48.56592" lon="-2.07659">
        <ele>63</ele>
        <time>2019-05-05T09:25:49Z</time>
      </trkpt>
      <trkpt lat="48.56609" lon="-2.0762">
        <ele>65</ele>
        <time>2019-05-05T09:25:59Z</time>
      </trkpt>
      <trkpt lat="48.56613" lon="-2.07603">
        <ele>65</ele>
        <time>2019-05-05T09:26:03Z</time>
      </trkpt>
      <trkpt lat="48.56624" lon="-2.07583">
        <ele>66</ele>
        <time>2019-05-05T09:26:09Z</time>
      </trkpt>
      <trkpt lat="48.56629" lon="-2.07577">
        <ele>67</ele>
        <time>2019-05-05T09:26:11Z</time>
      </trkpt>
      <trkpt lat="48.56635" lon="-2.07574">
        <ele>67</ele>
        <time>2019-05-05T09:26:13Z</time>
      </trkpt>
      <trkpt lat="48.56641" lon="-2.07574">
        <ele>67</ele>
        <time>2019-05-05T09:26:15Z</time>
      </trkpt>
      <trkpt lat="48.56667" lon="-2.0758">
        <ele>67</ele>
        <time>2019-05-05T09:26:24Z</time>
      </trkpt>
      <trkpt lat="48.56672" lon="-2.07583">
        <ele>66</ele>
        <time>2019-05-05T09:26:28Z</time>
      </trkpt>
      <trkpt lat="48.56697" lon="-2.076">
        <ele>62</ele>
        <time>2019-05-05T09:26:48Z</time>
      </trkpt>
      <trkpt lat="48.56702" lon="-2.07605">
        <ele>62</ele>
        <time>2019-05-05T09:26:50Z</time>
      </trkpt>
      <trkpt lat="48.56706" lon="-2.07609">
        <ele>62</ele>
        <time>2019-05-05T09:26:52Z</time>
      </trkpt>
      <trkpt lat="48.56723" lon="-2.07616">
        <ele>63</ele>
        <time>2019-05-05T09:27:00Z</time>
      </trkpt>
      <trkpt lat="48.56728" lon="-2.07619">
        <ele>63</ele>
        <time>2019-05-05T09:27:03Z</time>
      </trkpt>
      <trkpt lat="48.56733" lon="-2.07618">
        <ele>63</ele>
        <time>2019-05-05T09:27:05Z</time>
      </trkpt>
      <trkpt lat="48.56752" lon="-2.07622">
        <ele>64</ele>
        <time>2019-05-05T09:27:11Z</time>
      </trkpt>
      <trkpt lat="48.56757" lon="-2.07623">
        <ele>64</ele>
        <time>2019-05-05T09:27:13Z</time>
      </trkpt>
      <trkpt lat="48.56763" lon="-2.07625">
        <ele>63</ele>
        <time>2019-05-05T09:27:15Z</time>
      </trkpt>
      <trkpt lat="48.56768" lon="-2.07629">
        <ele>65</ele>
        <time>2019-05-05T09:27:18Z</time>
      </trkpt>
      <trkpt lat="48.5677" lon="-2.07636">
        <ele>65</ele>
        <time>2019-05-05T09:27:22Z</time>
      </trkpt>
      <trkpt lat="48.56768" lon="-2.07646">
        <ele>65</ele>
        <time>2019-05-05T09:27:25Z</time>
      </trkpt>
      <trkpt lat="48.56767" lon="-2.07652">
        <ele>65</ele>
        <time>2019-05-05T09:27:28Z</time>
      </trkpt>
      <trkpt lat="48.56766" lon="-2.07659">
        <ele>65</ele>
        <time>2019-05-05T09:27:31Z</time>
      </trkpt>
      <trkpt lat="48.56766" lon="-2.07666">
        <ele>66</ele>
        <time>2019-05-05T09:27:34Z</time>
      </trkpt>
      <trkpt lat="48.56762" lon="-2.07672">
        <ele>66</ele>
        <time>2019-05-05T09:27:38Z</time>
      </trkpt>
      <trkpt lat="48.56761" lon="-2.07679">
        <ele>66</ele>
        <time>2019-05-05T09:27:41Z</time>
      </trkpt>
      <trkpt lat="48.56774" lon="-2.07705">
        <ele>65</ele>
        <time>2019-05-05T09:27:52Z</time>
      </trkpt>
      <trkpt lat="48.56779" lon="-2.0771">
        <ele>64</ele>
        <time>2019-05-05T09:27:56Z</time>
      </trkpt>
      <trkpt lat="48.56782" lon="-2.07719">
        <ele>64</ele>
        <time>2019-05-05T09:28:00Z</time>
      </trkpt>
      <trkpt lat="48.5679" lon="-2.07732">
        <ele>62</ele>
        <time>2019-05-05T09:28:06Z</time>
      </trkpt>
      <trkpt lat="48.56795" lon="-2.07748">
        <ele>60</ele>
        <time>2019-05-05T09:28:12Z</time>
      </trkpt>
      <trkpt lat="48.568" lon="-2.07761">
        <ele>58</ele>
        <time>2019-05-05T09:28:18Z</time>
      </trkpt>
      <trkpt lat="48.56804" lon="-2.07775">
        <ele>56</ele>
        <time>2019-05-05T09:28:26Z</time>
      </trkpt>
      <trkpt lat="48.56803" lon="-2.07781">
        <ele>55</ele>
        <time>2019-05-05T09:28:29Z</time>
      </trkpt>
      <trkpt lat="48.56804" lon="-2.07805">
        <ele>48</ele>
        <time>2019-05-05T09:28:39Z</time>
      </trkpt>
      <trkpt lat="48.56806" lon="-2.07829">
        <ele>48</ele>
        <time>2019-05-05T09:28:48Z</time>
      </trkpt>
      <trkpt lat="48.56804" lon="-2.07845">
        <ele>47</ele>
        <time>2019-05-05T09:28:56Z</time>
      </trkpt>
      <trkpt lat="48.56805" lon="-2.07862">
        <ele>46</ele>
        <time>2019-05-05T09:29:04Z</time>
      </trkpt>
      <trkpt lat="48.56806" lon="-2.07869">
        <ele>46</ele>
        <time>2019-05-05T09:29:08Z</time>
      </trkpt>
      <trkpt lat="48.5681" lon="-2.07875">
        <ele>45</ele>
        <time>2019-05-05T09:29:11Z</time>
      </trkpt>
      <trkpt lat="48.56822" lon="-2.07879">
        <ele>43</ele>
        <time>2019-05-05T09:29:18Z</time>
      </trkpt>
      <trkpt lat="48.56827" lon="-2.07882">
        <ele>42</ele>
        <time>2019-05-05T09:29:20Z</time>
      </trkpt>
      <trkpt lat="48.56837" lon="-2.07889">
        <ele>41</ele>
        <time>2019-05-05T09:29:25Z</time>
      </trkpt>
      <trkpt lat="48.56841" lon="-2.07891">
        <ele>41</ele>
        <time>2019-05-05T09:29:31Z</time>
      </trkpt>
      <trkpt lat="48.56852" lon="-2.07897">
        <ele>40</ele>
        <time>2019-05-05T09:29:37Z</time>
      </trkpt>
      <trkpt lat="48.56868" lon="-2.07902">
        <ele>40</ele>
        <time>2019-05-05T09:29:44Z</time>
      </trkpt>
      <trkpt lat="48.56905" lon="-2.07928">
        <ele>38</ele>
        <time>2019-05-05T09:29:56Z</time>
      </trkpt>
      <trkpt lat="48.56924" lon="-2.07958">
        <ele>37</ele>
        <time>2019-05-05T09:30:03Z</time>
      </trkpt>
      <trkpt lat="48.56927" lon="-2.07966">
        <ele>36</ele>
        <time>2019-05-05T09:30:05Z</time>
      </trkpt>
      <trkpt lat="48.56928" lon="-2.07975">
        <ele>35</ele>
        <time>2019-05-05T09:30:07Z</time>
      </trkpt>
      <trkpt lat="48.56933" lon="-2.08066">
        <ele>30</ele>
        <time>2019-05-05T09:30:18Z</time>
      </trkpt>
      <trkpt lat="48.56935" lon="-2.08076">
        <ele>29</ele>
        <time>2019-05-05T09:30:19Z</time>
      </trkpt>
      <trkpt lat="48.56945" lon="-2.08094">
        <ele>28</ele>
        <time>2019-05-05T09:30:23Z</time>
      </trkpt>
      <trkpt lat="48.5696" lon="-2.08109">
        <ele>25</ele>
        <time>2019-05-05T09:30:29Z</time>
      </trkpt>
      <trkpt lat="48.56966" lon="-2.08111">
        <ele>24</ele>
        <time>2019-05-05T09:30:31Z</time>
      </trkpt>
      <trkpt lat="48.56972" lon="-2.0811">
        <ele>23</ele>
        <time>2019-05-05T09:30:34Z</time>
      </trkpt>
      <trkpt lat="48.56985" lon="-2.08063">
        <ele>19</ele>
        <time>2019-05-05T09:30:45Z</time>
      </trkpt>
      <trkpt lat="48.57037" lon="-2.0798">
        <ele>11</ele>
        <time>2019-05-05T09:31:05Z</time>
      </trkpt>
      <trkpt lat="48.57049" lon="-2.07933">
        <ele>12</ele>
        <time>2019-05-05T09:31:14Z</time>
      </trkpt>
      <trkpt lat="48.57052" lon="-2.07925">
        <ele>13</ele>
        <time>2019-05-05T09:31:16Z</time>
      </trkpt>
      <trkpt lat="48.57056" lon="-2.07922">
        <ele>14</ele>
        <time>2019-05-05T09:31:18Z</time>
      </trkpt>
      <trkpt lat="48.57059" lon="-2.07913">
        <ele>15</ele>
        <time>2019-05-05T09:31:20Z</time>
      </trkpt>
      <trkpt lat="48.57061" lon="-2.07902">
        <ele>15</ele>
        <time>2019-05-05T09:31:22Z</time>
      </trkpt>
      <trkpt lat="48.57071" lon="-2.07886">
        <ele>16</ele>
        <time>2019-05-05T09:31:26Z</time>
      </trkpt>
      <trkpt lat="48.57074" lon="-2.0788">
        <ele>16</ele>
        <time>2019-05-05T09:31:28Z</time>
      </trkpt>
      <trkpt lat="48.5708" lon="-2.07868">
        <ele>19</ele>
        <time>2019-05-05T09:31:37Z</time>
      </trkpt>
      <trkpt lat="48.571" lon="-2.07853">
        <ele>26</ele>
        <time>2019-05-05T09:31:45Z</time>
      </trkpt>
      <trkpt lat="48.57113" lon="-2.07832">
        <ele>32</ele>
        <time>2019-05-05T09:31:52Z</time>
      </trkpt>
      <trkpt lat="48.57123" lon="-2.07823">
        <ele>35</ele>
        <time>2019-05-05T09:31:56Z</time>
      </trkpt>
      <trkpt lat="48.57153" lon="-2.07808">
        <ele>41</ele>
        <time>2019-05-05T09:32:05Z</time>
      </trkpt>
      <trkpt lat="48.57154" lon="-2.07801">
        <ele>42</ele>
        <time>2019-05-05T09:32:08Z</time>
      </trkpt>
      <trkpt lat="48.5716" lon="-2.07796">
        <ele>44</ele>
        <time>2019-05-05T09:32:12Z</time>
      </trkpt>
      <trkpt lat="48.57166" lon="-2.07797">
        <ele>45</ele>
        <time>2019-05-05T09:32:14Z</time>
      </trkpt>
      <trkpt lat="48.57177" lon="-2.07803">
        <ele>46</ele>
        <time>2019-05-05T09:32:20Z</time>
      </trkpt>
      <trkpt lat="48.57183" lon="-2.07806">
        <ele>46</ele>
        <time>2019-05-05T09:32:23Z</time>
      </trkpt>
      <trkpt lat="48.57187" lon="-2.07811">
        <ele>47</ele>
        <time>2019-05-05T09:32:26Z</time>
      </trkpt>
      <trkpt lat="48.57189" lon="-2.07818">
        <ele>48</ele>
        <time>2019-05-05T09:32:28Z</time>
      </trkpt>
      <trkpt lat="48.57191" lon="-2.0784">
        <ele>48</ele>
        <time>2019-05-05T09:32:32Z</time>
      </trkpt>
      <trkpt lat="48.5719" lon="-2.07847">
        <ele>48</ele>
        <time>2019-05-05T09:32:34Z</time>
      </trkpt>
      <trkpt lat="48.57147" lon="-2.07895">
        <ele>46</ele>
        <time>2019-05-05T09:32:52Z</time>
      </trkpt>
      <trkpt lat="48.57137" lon="-2.07899">
        <ele>46</ele>
        <time>2019-05-05T09:32:57Z</time>
      </trkpt>
      <trkpt lat="48.57121" lon="-2.07923">
        <ele>47</ele>
        <time>2019-05-05T09:33:06Z</time>
      </trkpt>
      <trkpt lat="48.57119" lon="-2.07933">
        <ele>48</ele>
        <time>2019-05-05T09:33:08Z</time>
      </trkpt>
      <trkpt lat="48.57118" lon="-2.07954">
        <ele>48</ele>
        <time>2019-05-05T09:33:12Z</time>
      </trkpt>
      <trkpt lat="48.57115" lon="-2.07963">
        <ele>48</ele>
        <time>2019-05-05T09:33:14Z</time>
      </trkpt>
      <trkpt lat="48.571" lon="-2.07973">
        <ele>47</ele>
        <time>2019-05-05T09:33:18Z</time>
      </trkpt>
      <trkpt lat="48.57087" lon="-2.07985">
        <ele>48</ele>
        <time>2019-05-05T09:33:24Z</time>
      </trkpt>
      <trkpt lat="48.57065" lon="-2.07992">
        <ele>46</ele>
        <time>2019-05-05T09:33:30Z</time>
      </trkpt>
      <trkpt lat="48.57059" lon="-2.08">
        <ele>45</ele>
        <time>2019-05-05T09:33:32Z</time>
      </trkpt>
      <trkpt lat="48.57043" lon="-2.08007">
        <ele>43</ele>
        <time>2019-05-05T09:33:37Z</time>
      </trkpt>
      <trkpt lat="48.5704" lon="-2.08018">
        <ele>43</ele>
        <time>2019-05-05T09:33:39Z</time>
      </trkpt>
      <trkpt lat="48.57032" lon="-2.08032">
        <ele>42</ele>
        <time>2019-05-05T09:33:42Z</time>
      </trkpt>
      <trkpt lat="48.57024" lon="-2.08045">
        <ele>41</ele>
        <time>2019-05-05T09:33:45Z</time>
      </trkpt>
      <trkpt lat="48.57021" lon="-2.08067">
        <ele>39</ele>
        <time>2019-05-05T09:33:49Z</time>
      </trkpt>
      <trkpt lat="48.57022" lon="-2.08089">
        <ele>36</ele>
        <time>2019-05-05T09:33:53Z</time>
      </trkpt>
      <trkpt lat="48.57035" lon="-2.08117">
        <ele>34</ele>
        <time>2019-05-05T09:33:59Z</time>
      </trkpt>
      <trkpt lat="48.57109" lon="-2.08219">
        <ele>34</ele>
        <time>2019-05-05T09:34:22Z</time>
      </trkpt>
      <trkpt lat="48.57132" lon="-2.08277">
        <ele>35</ele>
        <time>2019-05-05T09:34:31Z</time>
      </trkpt>
      <trkpt lat="48.57138" lon="-2.08327">
        <ele>34</ele>
        <time>2019-05-05T09:34:37Z</time>
      </trkpt>
      <trkpt lat="48.57141" lon="-2.08371">
        <ele>34</ele>
        <time>2019-05-05T09:34:44Z</time>
      </trkpt>
      <trkpt lat="48.57139" lon="-2.0838">
        <ele>34</ele>
        <time>2019-05-05T09:34:47Z</time>
      </trkpt>
      <trkpt lat="48.57138" lon="-2.08391">
        <ele>35</ele>
        <time>2019-05-05T09:34:50Z</time>
      </trkpt>
      <trkpt lat="48.57134" lon="-2.08399">
        <ele>36</ele>
        <time>2019-05-05T09:34:52Z</time>
      </trkpt>
      <trkpt lat="48.57129" lon="-2.08403">
        <ele>36</ele>
        <time>2019-05-05T09:34:54Z</time>
      </trkpt>
      <trkpt lat="48.57123" lon="-2.08414">
        <ele>36</ele>
        <time>2019-05-05T09:35:00Z</time>
      </trkpt>
      <trkpt lat="48.57119" lon="-2.08445">
        <ele>35</ele>
        <time>2019-05-05T09:35:08Z</time>
      </trkpt>
      <trkpt lat="48.57118" lon="-2.08453">
        <ele>34</ele>
        <time>2019-05-05T09:35:11Z</time>
      </trkpt>
      <trkpt lat="48.5712" lon="-2.08461">
        <ele>33</ele>
        <time>2019-05-05T09:35:15Z</time>
      </trkpt>
      <trkpt lat="48.57119" lon="-2.08468">
        <ele>31</ele>
        <time>2019-05-05T09:35:20Z</time>
      </trkpt>
      <trkpt lat="48.57119" lon="-2.08476">
        <ele>31</ele>
        <time>2019-05-05T09:35:24Z</time>
      </trkpt>
      <trkpt lat="48.57111" lon="-2.08487">
        <ele>31</ele>
        <time>2019-05-05T09:35:30Z</time>
      </trkpt>
      <trkpt lat="48.57108" lon="-2.08492">
        <ele>31</ele>
        <time>2019-05-05T09:35:33Z</time>
      </trkpt>
      <trkpt lat="48.57108" lon="-2.08501">
        <ele>31</ele>
        <time>2019-05-05T09:35:38Z</time>
      </trkpt>
      <trkpt lat="48.57109" lon="-2.08509">
        <ele>31</ele>
        <time>2019-05-05T09:35:41Z</time>
      </trkpt>
      <trkpt lat="48.57112" lon="-2.08516">
        <ele>32</ele>
        <time>2019-05-05T09:35:43Z</time>
      </trkpt>
      <trkpt lat="48.57114" lon="-2.08524">
        <ele>32</ele>
        <time>2019-05-05T09:35:45Z</time>
      </trkpt>
      <trkpt lat="48.5712" lon="-2.08541">
        <ele>33</ele>
        <time>2019-05-05T09:35:49Z</time>
      </trkpt>
      <trkpt lat="48.57132" lon="-2.08558">
        <ele>33</ele>
        <time>2019-05-05T09:35:55Z</time>
      </trkpt>
      <trkpt lat="48.57139" lon="-2.08561">
        <ele>33</ele>
        <time>2019-05-05T09:35:57Z</time>
      </trkpt>
      <trkpt lat="48.57168" lon="-2.08552">
        <ele>30</ele>
        <time>2019-05-05T09:36:04Z</time>
      </trkpt>
      <trkpt lat="48.57185" lon="-2.0853">
        <ele>28</ele>
        <time>2019-05-05T09:36:10Z</time>
      </trkpt>
      <trkpt lat="48.57203" lon="-2.08496">
        <ele>27</ele>
        <time>2019-05-05T09:36:20Z</time>
      </trkpt>
      <trkpt lat="48.57214" lon="-2.08445">
        <ele>26</ele>
        <time>2019-05-05T09:36:30Z</time>
      </trkpt>
      <trkpt lat="48.57229" lon="-2.08428">
        <ele>26</ele>
        <time>2019-05-05T09:36:34Z</time>
      </trkpt>
      <trkpt lat="48.57234" lon="-2.08424">
        <ele>26</ele>
        <time>2019-05-05T09:36:36Z</time>
      </trkpt>
      <trkpt lat="48.57243" lon="-2.08421">
        <ele>28</ele>
        <time>2019-05-05T09:36:41Z</time>
      </trkpt>
      <trkpt lat="48.57259" lon="-2.084">
        <ele>32</ele>
        <time>2019-05-05T09:36:55Z</time>
      </trkpt>
      <trkpt lat="48.57266" lon="-2.08389">
        <ele>34</ele>
        <time>2019-05-05T09:37:02Z</time>
      </trkpt>
      <trkpt lat="48.57273" lon="-2.08377">
        <ele>37</ele>
        <time>2019-05-05T09:37:11Z</time>
      </trkpt>
      <trkpt lat="48.57277" lon="-2.08371">
        <ele>38</ele>
        <time>2019-05-05T09:37:15Z</time>
      </trkpt>
      <trkpt lat="48.57279" lon="-2.08364">
        <ele>38</ele>
        <time>2019-05-05T09:37:21Z</time>
      </trkpt>
      <trkpt lat="48.57286" lon="-2.08352">
        <ele>36</ele>
        <time>2019-05-05T09:37:28Z</time>
      </trkpt>
      <trkpt lat="48.5731" lon="-2.08302">
        <ele>40</ele>
        <time>2019-05-05T09:37:42Z</time>
      </trkpt>
      <trkpt lat="48.57362" lon="-2.08227">
        <ele>45</ele>
        <time>2019-05-05T09:38:06Z</time>
      </trkpt>
      <trkpt lat="48.57382" lon="-2.08206">
        <ele>48</ele>
        <time>2019-05-05T09:38:15Z</time>
      </trkpt>
      <trkpt lat="48.57386" lon="-2.08192">
        <ele>49</ele>
        <time>2019-05-05T09:38:22Z</time>
      </trkpt>
      <trkpt lat="48.57391" lon="-2.08186">
        <ele>51</ele>
        <time>2019-05-05T09:38:26Z</time>
      </trkpt>
      <trkpt lat="48.57397" lon="-2.08185">
        <ele>52</ele>
        <time>2019-05-05T09:38:30Z</time>
      </trkpt>
      <trkpt lat="48.57402" lon="-2.08186">
        <ele>53</ele>
        <time>2019-05-05T09:38:34Z</time>
      </trkpt>
      <trkpt lat="48.57415" lon="-2.08189">
        <ele>54</ele>
        <time>2019-05-05T09:38:45Z</time>
      </trkpt>
      <trkpt lat="48.57431" lon="-2.08191">
        <ele>55</ele>
        <time>2019-05-05T09:38:49Z</time>
      </trkpt>
      <trkpt lat="48.57438" lon="-2.08195">
        <ele>56</ele>
        <time>2019-05-05T09:38:51Z</time>
      </trkpt>
      <trkpt lat="48.57449" lon="-2.08216">
        <ele>57</ele>
        <time>2019-05-05T09:38:58Z</time>
      </trkpt>
      <trkpt lat="48.5745" lon="-2.08226">
        <ele>55</ele>
        <time>2019-05-05T09:39:01Z</time>
      </trkpt>
      <trkpt lat="48.57427" lon="-2.08235">
        <ele>52</ele>
        <time>2019-05-05T09:39:05Z</time>
      </trkpt>
      <trkpt lat="48.57405" lon="-2.0828">
        <ele>47</ele>
        <time>2019-05-05T09:39:17Z</time>
      </trkpt>
      <trkpt lat="48.57402" lon="-2.08285">
        <ele>47</ele>
        <time>2019-05-05T09:39:20Z</time>
      </trkpt>
      <trkpt lat="48.57378" lon="-2.083">
        <ele>46</ele>
        <time>2019-05-05T09:39:38Z</time>
      </trkpt>
      <trkpt lat="48.57375" lon="-2.08306">
        <ele>45</ele>
        <time>2019-05-05T09:39:40Z</time>
      </trkpt>
      <trkpt lat="48.57371" lon="-2.08308">
        <ele>45</ele>
        <time>2019-05-05T09:39:41Z</time>
      </trkpt>
      <trkpt lat="48.57368" lon="-2.08314">
        <ele>45</ele>
        <time>2019-05-05T09:39:43Z</time>
      </trkpt>
      <trkpt lat="48.57361" lon="-2.08345">
        <ele>44</ele>
        <time>2019-05-05T09:39:49Z</time>
      </trkpt>
      <trkpt lat="48.57354" lon="-2.08375">
        <ele>42</ele>
        <time>2019-05-05T09:39:54Z</time>
      </trkpt>
      <trkpt lat="48.57348" lon="-2.08384">
        <ele>42</ele>
        <time>2019-05-05T09:39:56Z</time>
      </trkpt>
      <trkpt lat="48.57331" lon="-2.08414">
        <ele>41</ele>
        <time>2019-05-05T09:40:04Z</time>
      </trkpt>
      <trkpt lat="48.5732" lon="-2.08472">
        <ele>40</ele>
        <time>2019-05-05T09:40:13Z</time>
      </trkpt>
      <trkpt lat="48.57314" lon="-2.0848">
        <ele>40</ele>
        <time>2019-05-05T09:40:15Z</time>
      </trkpt>
      <trkpt lat="48.57304" lon="-2.08495">
        <ele>40</ele>
        <time>2019-05-05T09:40:19Z</time>
      </trkpt>
      <trkpt lat="48.573" lon="-2.08503">
        <ele>40</ele>
        <time>2019-05-05T09:40:21Z</time>
      </trkpt>
      <trkpt lat="48.57295" lon="-2.08505">
        <ele>39</ele>
        <time>2019-05-05T09:40:24Z</time>
      </trkpt>
      <trkpt lat="48.57291" lon="-2.08508">
        <ele>39</ele>
        <time>2019-05-05T09:40:26Z</time>
      </trkpt>
      <trkpt lat="48.57228" lon="-2.08643">
        <ele>39</ele>
        <time>2019-05-05T09:40:49Z</time>
      </trkpt>
      <trkpt lat="48.57218" lon="-2.08682">
        <ele>37</ele>
        <time>2019-05-05T09:40:56Z</time>
      </trkpt>
      <trkpt lat="48.5719" lon="-2.08725">
        <ele>36</ele>
        <time>2019-05-05T09:41:08Z</time>
      </trkpt>
      <trkpt lat="48.57178" lon="-2.08772">
        <ele>35</ele>
        <time>2019-05-05T09:41:26Z</time>
      </trkpt>
      <trkpt lat="48.57177" lon="-2.08781">
        <ele>35</ele>
        <time>2019-05-05T09:41:28Z</time>
      </trkpt>
      <trkpt lat="48.57199" lon="-2.08838">
        <ele>34</ele>
        <time>2019-05-05T09:41:38Z</time>
      </trkpt>
      <trkpt lat="48.57202" lon="-2.08857">
        <ele>34</ele>
        <time>2019-05-05T09:41:42Z</time>
      </trkpt>
      <trkpt lat="48.57202" lon="-2.08881">
        <ele>34</ele>
        <time>2019-05-05T09:41:46Z</time>
      </trkpt>
      <trkpt lat="48.57201" lon="-2.0891">
        <ele>34</ele>
        <time>2019-05-05T09:41:53Z</time>
      </trkpt>
      <trkpt lat="48.57203" lon="-2.08926">
        <ele>36</ele>
        <time>2019-05-05T09:42:01Z</time>
      </trkpt>
      <trkpt lat="48.57207" lon="-2.08942">
        <ele>37</ele>
        <time>2019-05-05T09:42:06Z</time>
      </trkpt>
      <trkpt lat="48.57224" lon="-2.08978">
        <ele>40</ele>
        <time>2019-05-05T09:42:17Z</time>
      </trkpt>
      <trkpt lat="48.5725" lon="-2.08989">
        <ele>41</ele>
        <time>2019-05-05T09:42:25Z</time>
      </trkpt>
      <trkpt lat="48.57374" lon="-2.08992">
        <ele>41</ele>
        <time>2019-05-05T09:42:55Z</time>
      </trkpt>
      <trkpt lat="48.57407" lon="-2.08997">
        <ele>42</ele>
        <time>2019-05-05T09:43:02Z</time>
      </trkpt>
      <trkpt lat="48.57413" lon="-2.08992">
        <ele>42</ele>
        <time>2019-05-05T09:43:05Z</time>
      </trkpt>
      <trkpt lat="48.57425" lon="-2.08993">
        <ele>43</ele>
        <time>2019-05-05T09:43:09Z</time>
      </trkpt>
      <trkpt lat="48.57427" lon="-2.09002">
        <ele>44</ele>
        <time>2019-05-05T09:43:14Z</time>
      </trkpt>
      <trkpt lat="48.57426" lon="-2.09009">
        <ele>45</ele>
        <time>2019-05-05T09:43:17Z</time>
      </trkpt>
      <trkpt lat="48.5743" lon="-2.09025">
        <ele>46</ele>
        <time>2019-05-05T09:43:21Z</time>
      </trkpt>
      <trkpt lat="48.57421" lon="-2.09045">
        <ele>45</ele>
        <time>2019-05-05T09:43:25Z</time>
      </trkpt>
      <trkpt lat="48.57418" lon="-2.0905">
        <ele>45</ele>
        <time>2019-05-05T09:43:27Z</time>
      </trkpt>
      <trkpt lat="48.57408" lon="-2.09057">
        <ele>45</ele>
        <time>2019-05-05T09:43:31Z</time>
      </trkpt>
      <trkpt lat="48.57371" lon="-2.09069">
        <ele>45</ele>
        <time>2019-05-05T09:43:40Z</time>
      </trkpt>
      <trkpt lat="48.57287" lon="-2.0906">
        <ele>42</ele>
        <time>2019-05-05T09:43:59Z</time>
      </trkpt>
      <trkpt lat="48.57271" lon="-2.09066">
        <ele>42</ele>
        <time>2019-05-05T09:44:02Z</time>
      </trkpt>
      <trkpt lat="48.57242" lon="-2.09077">
        <ele>39</ele>
        <time>2019-05-05T09:44:08Z</time>
      </trkpt>
      <trkpt lat="48.57207" lon="-2.09078">
        <ele>38</ele>
        <time>2019-05-05T09:44:15Z</time>
      </trkpt>
      <trkpt lat="48.57166" lon="-2.09108">
        <ele>38</ele>
        <time>2019-05-05T09:44:25Z</time>
      </trkpt>
      <trkpt lat="48.57133" lon="-2.09113">
        <ele>37</ele>
        <time>2019-05-05T09:44:33Z</time>
      </trkpt>
      <trkpt lat="48.5711" lon="-2.0912">
        <ele>37</ele>
        <time>2019-05-05T09:44:43Z</time>
      </trkpt>
      <trkpt lat="48.57083" lon="-2.09133">
        <ele>39</ele>
        <time>2019-05-05T09:44:51Z</time>
      </trkpt>
      <trkpt lat="48.57076" lon="-2.09137">
        <ele>39</ele>
        <time>2019-05-05T09:44:53Z</time>
      </trkpt>
      <trkpt lat="48.5707" lon="-2.09142">
        <ele>39</ele>
        <time>2019-05-05T09:44:55Z</time>
      </trkpt>
      <trkpt lat="48.57065" lon="-2.09151">
        <ele>40</ele>
        <time>2019-05-05T09:44:57Z</time>
      </trkpt>
      <trkpt lat="48.57062" lon="-2.0916">
        <ele>40</ele>
        <time>2019-05-05T09:44:59Z</time>
      </trkpt>
      <trkpt lat="48.57059" lon="-2.09185">
        <ele>41</ele>
        <time>2019-05-05T09:45:03Z</time>
      </trkpt>
      <trkpt lat="48.57064" lon="-2.09209">
        <ele>40</ele>
        <time>2019-05-05T09:45:09Z</time>
      </trkpt>
      <trkpt lat="48.57069" lon="-2.09217">
        <ele>39</ele>
        <time>2019-05-05T09:45:11Z</time>
      </trkpt>
      <trkpt lat="48.57074" lon="-2.09226">
        <ele>36</ele>
        <time>2019-05-05T09:45:13Z</time>
      </trkpt>
      <trkpt lat="48.57076" lon="-2.09235">
        <ele>35</ele>
        <time>2019-05-05T09:45:15Z</time>
      </trkpt>
      <trkpt lat="48.57077" lon="-2.09259">
        <ele>34</ele>
        <time>2019-05-05T09:45:19Z</time>
      </trkpt>
      <trkpt lat="48.57072" lon="-2.09304">
        <ele>33</ele>
        <time>2019-05-05T09:45:27Z</time>
      </trkpt>
      <trkpt lat="48.57075" lon="-2.09323">
        <ele>33</ele>
        <time>2019-05-05T09:45:31Z</time>
      </trkpt>
      <trkpt lat="48.57083" lon="-2.0934">
        <ele>32</ele>
        <time>2019-05-05T09:45:34Z</time>
      </trkpt>
      <trkpt lat="48.57093" lon="-2.09355">
        <ele>31</ele>
        <time>2019-05-05T09:45:37Z</time>
      </trkpt>
      <trkpt lat="48.571" lon="-2.09361">
        <ele>31</ele>
        <time>2019-05-05T09:45:39Z</time>
      </trkpt>
      <trkpt lat="48.57106" lon="-2.09365">
        <ele>31</ele>
        <time>2019-05-05T09:45:41Z</time>
      </trkpt>
      <trkpt lat="48.57111" lon="-2.09362">
        <ele>30</ele>
        <time>2019-05-05T09:45:44Z</time>
      </trkpt>
      <trkpt lat="48.57115" lon="-2.09367">
        <ele>31</ele>
        <time>2019-05-05T09:45:50Z</time>
      </trkpt>
      <trkpt lat="48.57144" lon="-2.09365">
        <ele>34</ele>
        <time>2019-05-05T09:46:02Z</time>
      </trkpt>
      <trkpt lat="48.57166" lon="-2.09367">
        <ele>36</ele>
        <time>2019-05-05T09:46:08Z</time>
      </trkpt>
      <trkpt lat="48.57173" lon="-2.09365">
        <ele>37</ele>
        <time>2019-05-05T09:46:10Z</time>
      </trkpt>
      <trkpt lat="48.57193" lon="-2.09363">
        <ele>39</ele>
        <time>2019-05-05T09:46:14Z</time>
      </trkpt>
      <trkpt lat="48.57203" lon="-2.0936">
        <ele>40</ele>
        <time>2019-05-05T09:46:16Z</time>
      </trkpt>
      <trkpt lat="48.57227" lon="-2.09348">
        <ele>41</ele>
        <time>2019-05-05T09:46:23Z</time>
      </trkpt>
      <trkpt lat="48.57258" lon="-2.09349">
        <ele>44</ele>
        <time>2019-05-05T09:46:31Z</time>
      </trkpt>
      <trkpt lat="48.57266" lon="-2.09349">
        <ele>47</ele>
        <time>2019-05-05T09:46:33Z</time>
      </trkpt>
      <trkpt lat="48.5729" lon="-2.09354">
        <ele>52</ele>
        <time>2019-05-05T09:46:39Z</time>
      </trkpt>
      <trkpt lat="48.57312" lon="-2.09356">
        <ele>54</ele>
        <time>2019-05-05T09:46:45Z</time>
      </trkpt>
      <trkpt lat="48.57317" lon="-2.09355">
        <ele>54</ele>
        <time>2019-05-05T09:46:47Z</time>
      </trkpt>
      <trkpt lat="48.57322" lon="-2.09359">
        <ele>52</ele>
        <time>2019-05-05T09:46:51Z</time>
      </trkpt>
      <trkpt lat="48.57331" lon="-2.09376">
        <ele>49</ele>
        <time>2019-05-05T09:47:00Z</time>
      </trkpt>
      <trkpt lat="48.57333" lon="-2.09384">
        <ele>48</ele>
        <time>2019-05-05T09:47:03Z</time>
      </trkpt>
      <trkpt lat="48.57344" lon="-2.09404">
        <ele>49</ele>
        <time>2019-05-05T09:47:13Z</time>
      </trkpt>
      <trkpt lat="48.57347" lon="-2.0941">
        <ele>49</ele>
        <time>2019-05-05T09:47:17Z</time>
      </trkpt>
      <trkpt lat="48.57351" lon="-2.09417">
        <ele>48</ele>
        <time>2019-05-05T09:47:21Z</time>
      </trkpt>
      <trkpt lat="48.57354" lon="-2.09423">
        <ele>48</ele>
        <time>2019-05-05T09:47:25Z</time>
      </trkpt>
      <trkpt lat="48.57359" lon="-2.09427">
        <ele>48</ele>
        <time>2019-05-05T09:47:29Z</time>
      </trkpt>
      <trkpt lat="48.57364" lon="-2.09439">
        <ele>49</ele>
        <time>2019-05-05T09:47:37Z</time>
      </trkpt>
      <trkpt lat="48.57367" lon="-2.09444">
        <ele>49</ele>
        <time>2019-05-05T09:47:40Z</time>
      </trkpt>
      <trkpt lat="48.57366" lon="-2.09459">
        <ele>49</ele>
        <time>2019-05-05T09:47:50Z</time>
      </trkpt>
      <trkpt lat="48.57368" lon="-2.09465">
        <ele>48</ele>
        <time>2019-05-05T09:47:57Z</time>
      </trkpt>
      <trkpt lat="48.57373" lon="-2.09466">
        <ele>47</ele>
        <time>2019-05-05T09:48:01Z</time>
      </trkpt>
      <trkpt lat="48.57384" lon="-2.09475">
        <ele>44</ele>
        <time>2019-05-05T09:48:07Z</time>
      </trkpt>
      <trkpt lat="48.57387" lon="-2.09481">
        <ele>44</ele>
        <time>2019-05-05T09:48:09Z</time>
      </trkpt>
      <trkpt lat="48.57401" lon="-2.09492">
        <ele>41</ele>
        <time>2019-05-05T09:48:18Z</time>
      </trkpt>
      <trkpt lat="48.57406" lon="-2.09499">
        <ele>40</ele>
        <time>2019-05-05T09:48:21Z</time>
      </trkpt>
      <trkpt lat="48.5742" lon="-2.09509">
        <ele>37</ele>
        <time>2019-05-05T09:48:32Z</time>
      </trkpt>
      <trkpt lat="48.57425" lon="-2.09511">
        <ele>36</ele>
        <time>2019-05-05T09:48:39Z</time>
      </trkpt>
      <trkpt lat="48.57431" lon="-2.09512">
        <ele>35</ele>
        <time>2019-05-05T09:48:42Z</time>
      </trkpt>
      <trkpt lat="48.57436" lon="-2.09515">
        <ele>34</ele>
        <time>2019-05-05T09:48:45Z</time>
      </trkpt>
      <trkpt lat="48.5744" lon="-2.09519">
        <ele>33</ele>
        <time>2019-05-05T09:48:48Z</time>
      </trkpt>
      <trkpt lat="48.57441" lon="-2.09528">
        <ele>33</ele>
        <time>2019-05-05T09:48:52Z</time>
      </trkpt>
      <trkpt lat="48.57444" lon="-2.09535">
        <ele>33</ele>
        <time>2019-05-05T09:48:56Z</time>
      </trkpt>
      <trkpt lat="48.57446" lon="-2.09542">
        <ele>33</ele>
        <time>2019-05-05T09:48:59Z</time>
      </trkpt>
      <trkpt lat="48.57453" lon="-2.09553">
        <ele>32</ele>
        <time>2019-05-05T09:49:05Z</time>
      </trkpt>
      <trkpt lat="48.57462" lon="-2.09558">
        <ele>30</ele>
        <time>2019-05-05T09:49:09Z</time>
      </trkpt>
      <trkpt lat="48.57468" lon="-2.09563">
        <ele>28</ele>
        <time>2019-05-05T09:49:13Z</time>
      </trkpt>
      <trkpt lat="48.57472" lon="-2.09565">
        <ele>28</ele>
        <time>2019-05-05T09:49:16Z</time>
      </trkpt>
      <trkpt lat="48.57477" lon="-2.09569">
        <ele>27</ele>
        <time>2019-05-05T09:49:19Z</time>
      </trkpt>
      <trkpt lat="48.5748" lon="-2.09574">
        <ele>27</ele>
        <time>2019-05-05T09:49:22Z</time>
      </trkpt>
      <trkpt lat="48.57485" lon="-2.09578">
        <ele>27</ele>
        <time>2019-05-05T09:49:25Z</time>
      </trkpt>
      <trkpt lat="48.5749" lon="-2.0958">
        <ele>26</ele>
        <time>2019-05-05T09:49:29Z</time>
      </trkpt>
      <trkpt lat="48.57509" lon="-2.09598">
        <ele>22</ele>
        <time>2019-05-05T09:49:43Z</time>
      </trkpt>
      <trkpt lat="48.57524" lon="-2.09603">
        <ele>22</ele>
        <time>2019-05-05T09:49:52Z</time>
      </trkpt>
      <trkpt lat="48.57529" lon="-2.0961">
        <ele>22</ele>
        <time>2019-05-05T09:49:55Z</time>
      </trkpt>
      <trkpt lat="48.57533" lon="-2.09616">
        <ele>22</ele>
        <time>2019-05-05T09:49:58Z</time>
      </trkpt>
      <trkpt lat="48.57537" lon="-2.0962">
        <ele>23</ele>
        <time>2019-05-05T09:50:02Z</time>
      </trkpt>
      <trkpt lat="48.57535" lon="-2.09634">
        <ele>22</ele>
        <time>2019-05-05T09:50:09Z</time>
      </trkpt>
      <trkpt lat="48.57538" lon="-2.09639">
        <ele>21</ele>
        <time>2019-05-05T09:50:14Z</time>
      </trkpt>
      <trkpt lat="48.57547" lon="-2.09644">
        <ele>19</ele>
        <time>2019-05-05T09:50:23Z</time>
      </trkpt>
      <trkpt lat="48.57566" lon="-2.09659">
        <ele>15</ele>
        <time>2019-05-05T09:50:36Z</time>
      </trkpt>
      <trkpt lat="48.57576" lon="-2.09658">
        <ele>14</ele>
        <time>2019-05-05T09:50:45Z</time>
      </trkpt>
      <trkpt lat="48.57581" lon="-2.09657">
        <ele>14</ele>
        <time>2019-05-05T09:50:48Z</time>
      </trkpt>
      <trkpt lat="48.57586" lon="-2.09659">
        <ele>13</ele>
        <time>2019-05-05T09:50:52Z</time>
      </trkpt>
      <trkpt lat="48.57597" lon="-2.0966">
        <ele>12</ele>
        <time>2019-05-05T09:50:59Z</time>
      </trkpt>
      <trkpt lat="48.57603" lon="-2.09658">
        <ele>11</ele>
        <time>2019-05-05T09:51:02Z</time>
      </trkpt>
      <trkpt lat="48.57609" lon="-2.09658">
        <ele>11</ele>
        <time>2019-05-05T09:51:11Z</time>
      </trkpt>
      <trkpt lat="48.57615" lon="-2.0966">
        <ele>11</ele>
        <time>2019-05-05T09:51:14Z</time>
      </trkpt>
      <trkpt lat="48.57619" lon="-2.09662">
        <ele>12</ele>
        <time>2019-05-05T09:51:16Z</time>
      </trkpt>
      <trkpt lat="48.57623" lon="-2.09667">
        <ele>12</ele>
        <time>2019-05-05T09:51:19Z</time>
      </trkpt>
      <trkpt lat="48.57634" lon="-2.09672">
        <ele>12</ele>
        <time>2019-05-05T09:51:23Z</time>
      </trkpt>
      <trkpt lat="48.57645" lon="-2.09672">
        <ele>14</ele>
        <time>2019-05-05T09:51:28Z</time>
      </trkpt>
      <trkpt lat="48.5765" lon="-2.0967">
        <ele>15</ele>
        <time>2019-05-05T09:51:32Z</time>
      </trkpt>
      <trkpt lat="48.57656" lon="-2.09671">
        <ele>16</ele>
        <time>2019-05-05T09:51:35Z</time>
      </trkpt>
      <trkpt lat="48.57656" lon="-2.09661">
        <ele>17</ele>
        <time>2019-05-05T09:51:44Z</time>
      </trkpt>
      <trkpt lat="48.57658" lon="-2.09655">
        <ele>17</ele>
        <time>2019-05-05T09:51:48Z</time>
      </trkpt>
      <trkpt lat="48.57665" lon="-2.09656">
        <ele>17</ele>
        <time>2019-05-05T09:51:51Z</time>
      </trkpt>
      <trkpt lat="48.57683" lon="-2.09664">
        <ele>17</ele>
        <time>2019-05-05T09:51:57Z</time>
      </trkpt>
      <trkpt lat="48.57697" lon="-2.09667">
        <ele>17</ele>
        <time>2019-05-05T09:52:01Z</time>
      </trkpt>
      <trkpt lat="48.57712" lon="-2.09662">
        <ele>16</ele>
        <time>2019-05-05T09:52:06Z</time>
      </trkpt>
      <trkpt lat="48.57719" lon="-2.09663">
        <ele>15</ele>
        <time>2019-05-05T09:52:08Z</time>
      </trkpt>
      <trkpt lat="48.57724" lon="-2.09663">
        <ele>15</ele>
        <time>2019-05-05T09:52:11Z</time>
      </trkpt>
      <trkpt lat="48.57728" lon="-2.0967">
        <ele>15</ele>
        <time>2019-05-05T09:52:14Z</time>
      </trkpt>
      <trkpt lat="48.57739" lon="-2.09683">
        <ele>16</ele>
        <time>2019-05-05T09:52:19Z</time>
      </trkpt>
      <trkpt lat="48.57741" lon="-2.09689">
        <ele>17</ele>
        <time>2019-05-05T09:52:21Z</time>
      </trkpt>
      <trkpt lat="48.57745" lon="-2.09693">
        <ele>18</ele>
        <time>2019-05-05T09:52:24Z</time>
      </trkpt>
      <trkpt lat="48.57751" lon="-2.09693">
        <ele>19</ele>
        <time>2019-05-05T09:52:27Z</time>
      </trkpt>
      <trkpt lat="48.57756" lon="-2.09699">
        <ele>21</ele>
        <time>2019-05-05T09:52:33Z</time>
      </trkpt>
      <trkpt lat="48.57755" lon="-2.09706">
        <ele>23</ele>
        <time>2019-05-05T09:52:36Z</time>
      </trkpt>
      <trkpt lat="48.57755" lon="-2.09721">
        <ele>25</ele>
        <time>2019-05-05T09:52:41Z</time>
      </trkpt>
      <trkpt lat="48.57758" lon="-2.09726">
        <ele>26</ele>
        <time>2019-05-05T09:52:44Z</time>
      </trkpt>
      <trkpt lat="48.5776" lon="-2.09734">
        <ele>29</ele>
        <time>2019-05-05T09:52:49Z</time>
      </trkpt>
      <trkpt lat="48.57761" lon="-2.09742">
        <ele>30</ele>
        <time>2019-05-05T09:52:53Z</time>
      </trkpt>
      <trkpt lat="48.5776" lon="-2.0975">
        <ele>31</ele>
        <time>2019-05-05T09:52:56Z</time>
      </trkpt>
      <trkpt lat="48.57757" lon="-2.09755">
        <ele>30</ele>
        <time>2019-05-05T09:53:03Z</time>
      </trkpt>
      <trkpt lat="48.57753" lon="-2.0976">
        <ele>27</ele>
        <time>2019-05-05T09:53:07Z</time>
      </trkpt>
      <trkpt lat="48.57749" lon="-2.09768">
        <ele>26</ele>
        <time>2019-05-05T09:53:10Z</time>
      </trkpt>
      <trkpt lat="48.57745" lon="-2.09773">
        <ele>25</ele>
        <time>2019-05-05T09:53:12Z</time>
      </trkpt>
      <trkpt lat="48.57742" lon="-2.0978">
        <ele>24</ele>
        <time>2019-05-05T09:53:15Z</time>
      </trkpt>
      <trkpt lat="48.57745" lon="-2.09814">
        <ele>23</ele>
        <time>2019-05-05T09:53:26Z</time>
      </trkpt>
      <trkpt lat="48.57747" lon="-2.09828">
        <ele>22</ele>
        <time>2019-05-05T09:53:30Z</time>
      </trkpt>
      <trkpt lat="48.57749" lon="-2.09853">
        <ele>21</ele>
        <time>2019-05-05T09:53:36Z</time>
      </trkpt>
      <trkpt lat="48.57751" lon="-2.09876">
        <ele>21</ele>
        <time>2019-05-05T09:53:43Z</time>
      </trkpt>
      <trkpt lat="48.57742" lon="-2.09908">
        <ele>24</ele>
        <time>2019-05-05T09:53:58Z</time>
      </trkpt>
      <trkpt lat="48.57741" lon="-2.09935">
        <ele>23</ele>
        <time>2019-05-05T09:54:05Z</time>
      </trkpt>
      <trkpt lat="48.57738" lon="-2.0995">
        <ele>23</ele>
        <time>2019-05-05T09:54:11Z</time>
      </trkpt>
      <trkpt lat="48.57736" lon="-2.09957">
        <ele>23</ele>
        <time>2019-05-05T09:54:14Z</time>
      </trkpt>
      <trkpt lat="48.57731" lon="-2.09964">
        <ele>24</ele>
        <time>2019-05-05T09:54:18Z</time>
      </trkpt>
      <trkpt lat="48.57728" lon="-2.09971">
        <ele>23</ele>
        <time>2019-05-05T09:54:23Z</time>
      </trkpt>
      <trkpt lat="48.57724" lon="-2.09979">
        <ele>24</ele>
        <time>2019-05-05T09:54:27Z</time>
      </trkpt>
      <trkpt lat="48.57725" lon="-2.0999">
        <ele>23</ele>
        <time>2019-05-05T09:54:30Z</time>
      </trkpt>
      <trkpt lat="48.57725" lon="-2.09998">
        <ele>23</ele>
        <time>2019-05-05T09:54:32Z</time>
      </trkpt>
      <trkpt lat="48.57723" lon="-2.10004">
        <ele>22</ele>
        <time>2019-05-05T09:54:34Z</time>
      </trkpt>
      <trkpt lat="48.57714" lon="-2.10017">
        <ele>21</ele>
        <time>2019-05-05T09:54:39Z</time>
      </trkpt>
      <trkpt lat="48.57708" lon="-2.10019">
        <ele>22</ele>
        <time>2019-05-05T09:54:42Z</time>
      </trkpt>
      <trkpt lat="48.57703" lon="-2.10021">
        <ele>23</ele>
        <time>2019-05-05T09:54:45Z</time>
      </trkpt>
      <trkpt lat="48.57699" lon="-2.10025">
        <ele>24</ele>
        <time>2019-05-05T09:54:48Z</time>
      </trkpt>
      <trkpt lat="48.57691" lon="-2.10034">
        <ele>26</ele>
        <time>2019-05-05T09:54:55Z</time>
      </trkpt>
      <trkpt lat="48.57671" lon="-2.10041">
        <ele>27</ele>
        <time>2019-05-05T09:55:01Z</time>
      </trkpt>
      <trkpt lat="48.57665" lon="-2.10047">
        <ele>27</ele>
        <time>2019-05-05T09:55:03Z</time>
      </trkpt>
      <trkpt lat="48.5766" lon="-2.10056">
        <ele>28</ele>
        <time>2019-05-05T09:55:05Z</time>
      </trkpt>
      <trkpt lat="48.57658" lon="-2.10064">
        <ele>28</ele>
        <time>2019-05-05T09:55:07Z</time>
      </trkpt>
      <trkpt lat="48.5766" lon="-2.10071">
        <ele>28</ele>
        <time>2019-05-05T09:55:09Z</time>
      </trkpt>
      <trkpt lat="48.57663" lon="-2.10079">
        <ele>28</ele>
        <time>2019-05-05T09:55:12Z</time>
      </trkpt>
      <trkpt lat="48.57665" lon="-2.10086">
        <ele>29</ele>
        <time>2019-05-05T09:55:14Z</time>
      </trkpt>
      <trkpt lat="48.57665" lon="-2.10094">
        <ele>30</ele>
        <time>2019-05-05T09:55:18Z</time>
      </trkpt>
      <trkpt lat="48.57662" lon="-2.101">
        <ele>31</ele>
        <time>2019-05-05T09:55:23Z</time>
      </trkpt>
      <trkpt lat="48.5766" lon="-2.10108">
        <ele>31</ele>
        <time>2019-05-05T09:55:27Z</time>
      </trkpt>
      <trkpt lat="48.57662" lon="-2.10124">
        <ele>30</ele>
        <time>2019-05-05T09:55:33Z</time>
      </trkpt>
      <trkpt lat="48.57666" lon="-2.1013">
        <ele>29</ele>
        <time>2019-05-05T09:55:37Z</time>
      </trkpt>
      <trkpt lat="48.57672" lon="-2.10134">
        <ele>28</ele>
        <time>2019-05-05T09:55:40Z</time>
      </trkpt>
      <trkpt lat="48.57691" lon="-2.10123">
        <ele>24</ele>
        <time>2019-05-05T09:55:46Z</time>
      </trkpt>
      <trkpt lat="48.57714" lon="-2.10094">
        <ele>22</ele>
        <time>2019-05-05T09:55:55Z</time>
      </trkpt>
      <trkpt lat="48.57721" lon="-2.10092">
        <ele>21</ele>
        <time>2019-05-05T09:55:57Z</time>
      </trkpt>
      <trkpt lat="48.57773" lon="-2.10142">
        <ele>18</ele>
        <time>2019-05-05T09:56:13Z</time>
      </trkpt>
      <trkpt lat="48.57779" lon="-2.10144">
        <ele>18</ele>
        <time>2019-05-05T09:56:15Z</time>
      </trkpt>
      <trkpt lat="48.57785" lon="-2.10141">
        <ele>18</ele>
        <time>2019-05-05T09:56:17Z</time>
      </trkpt>
      <trkpt lat="48.5779" lon="-2.10135">
        <ele>17</ele>
        <time>2019-05-05T09:56:19Z</time>
      </trkpt>
      <trkpt lat="48.57796" lon="-2.10131">
        <ele>17</ele>
        <time>2019-05-05T09:56:22Z</time>
      </trkpt>
      <trkpt lat="48.57801" lon="-2.10133">
        <ele>17</ele>
        <time>2019-05-05T09:56:27Z</time>
      </trkpt>
      <trkpt lat="48.57803" lon="-2.10141">
        <ele>19</ele>
        <time>2019-05-05T09:56:30Z</time>
      </trkpt>
      <trkpt lat="48.57806" lon="-2.10147">
        <ele>20</ele>
        <time>2019-05-05T09:56:33Z</time>
      </trkpt>
      <trkpt lat="48.578" lon="-2.10184">
        <ele>20</ele>
        <time>2019-05-05T09:56:49Z</time>
      </trkpt>
      <trkpt lat="48.57801" lon="-2.10192">
        <ele>19</ele>
        <time>2019-05-05T09:56:52Z</time>
      </trkpt>
      <trkpt lat="48.57808" lon="-2.10244">
        <ele>16</ele>
        <time>2019-05-05T09:57:16Z</time>
      </trkpt>
      <trkpt lat="48.57811" lon="-2.10249">
        <ele>14</ele>
        <time>2019-05-05T09:57:20Z</time>
      </trkpt>
      <trkpt lat="48.57821" lon="-2.10264">
        <ele>15</ele>
        <time>2019-05-05T09:57:29Z</time>
      </trkpt>
      <trkpt lat="48.57824" lon="-2.1027">
        <ele>15</ele>
        <time>2019-05-05T09:57:33Z</time>
      </trkpt>
      <trkpt lat="48.57821" lon="-2.10277">
        <ele>16</ele>
        <time>2019-05-05T09:57:36Z</time>
      </trkpt>
      <trkpt lat="48.57813" lon="-2.10298">
        <ele>17</ele>
        <time>2019-05-05T09:57:45Z</time>
      </trkpt>
      <trkpt lat="48.57813" lon="-2.10313">
        <ele>16</ele>
        <time>2019-05-05T09:57:54Z</time>
      </trkpt>
      <trkpt lat="48.57816" lon="-2.10319">
        <ele>16</ele>
        <time>2019-05-05T09:57:58Z</time>
      </trkpt>
      <trkpt lat="48.57817" lon="-2.10327">
        <ele>16</ele>
        <time>2019-05-05T09:58:01Z</time>
      </trkpt>
      <trkpt lat="48.57818" lon="-2.10336">
        <ele>16</ele>
        <time>2019-05-05T09:58:05Z</time>
      </trkpt>
      <trkpt lat="48.57822" lon="-2.10351">
        <ele>17</ele>
        <time>2019-05-05T09:58:11Z</time>
      </trkpt>
      <trkpt lat="48.57821" lon="-2.1036">
        <ele>18</ele>
        <time>2019-05-05T09:58:14Z</time>
      </trkpt>
      <trkpt lat="48.57823" lon="-2.10366">
        <ele>18</ele>
        <time>2019-05-05T09:58:17Z</time>
      </trkpt>
      <trkpt lat="48.57826" lon="-2.10382">
        <ele>19</ele>
        <time>2019-05-05T09:58:23Z</time>
      </trkpt>
      <trkpt lat="48.57826" lon="-2.1039">
        <ele>19</ele>
        <time>2019-05-05T09:58:25Z</time>
      </trkpt>
      <trkpt lat="48.57834" lon="-2.10435">
        <ele>22</ele>
        <time>2019-05-05T09:58:41Z</time>
      </trkpt>
      <trkpt lat="48.57843" lon="-2.10446">
        <ele>24</ele>
        <time>2019-05-05T09:58:49Z</time>
      </trkpt>
      <trkpt lat="48.57848" lon="-2.10449">
        <ele>24</ele>
        <time>2019-05-05T09:58:52Z</time>
      </trkpt>
      <trkpt lat="48.57853" lon="-2.10451">
        <ele>24</ele>
        <time>2019-05-05T09:58:55Z</time>
      </trkpt>
      <trkpt lat="48.57857" lon="-2.10456">
        <ele>25</ele>
        <time>2019-05-05T09:58:59Z</time>
      </trkpt>
      <trkpt lat="48.57861" lon="-2.1046">
        <ele>25</ele>
        <time>2019-05-05T09:59:03Z</time>
      </trkpt>
      <trkpt lat="48.57869" lon="-2.10471">
        <ele>26</ele>
        <time>2019-05-05T09:59:11Z</time>
      </trkpt>
      <trkpt lat="48.57874" lon="-2.10476">
        <ele>27</ele>
        <time>2019-05-05T09:59:15Z</time>
      </trkpt>
      <trkpt lat="48.57884" lon="-2.10484">
        <ele>30</ele>
        <time>2019-05-05T09:59:22Z</time>
      </trkpt>
      <trkpt lat="48.57888" lon="-2.10498">
        <ele>31</ele>
        <time>2019-05-05T09:59:29Z</time>
      </trkpt>
      <trkpt lat="48.57886" lon="-2.10506">
        <ele>31</ele>
        <time>2019-05-05T09:59:33Z</time>
      </trkpt>
      <trkpt lat="48.57888" lon="-2.10513">
        <ele>31</ele>
        <time>2019-05-05T09:59:35Z</time>
      </trkpt>
      <trkpt lat="48.57893" lon="-2.10528">
        <ele>31</ele>
        <time>2019-05-05T09:59:40Z</time>
      </trkpt>
      <trkpt lat="48.57893" lon="-2.10546">
        <ele>33</ele>
        <time>2019-05-05T09:59:46Z</time>
      </trkpt>
      <trkpt lat="48.5789" lon="-2.10552">
        <ele>33</ele>
        <time>2019-05-05T09:59:49Z</time>
      </trkpt>
      <trkpt lat="48.57881" lon="-2.1056">
        <ele>32</ele>
        <time>2019-05-05T09:59:56Z</time>
      </trkpt>
      <trkpt lat="48.5787" lon="-2.10578">
        <ele>29</ele>
        <time>2019-05-05T10:00:04Z</time>
      </trkpt>
      <trkpt lat="48.57863" lon="-2.10588">
        <ele>29</ele>
        <time>2019-05-05T10:00:11Z</time>
      </trkpt>
      <trkpt lat="48.57862" lon="-2.10596">
        <ele>30</ele>
        <time>2019-05-05T10:00:16Z</time>
      </trkpt>
      <trkpt lat="48.57867" lon="-2.10602">
        <ele>30</ele>
        <time>2019-05-05T10:00:19Z</time>
      </trkpt>
      <trkpt lat="48.57875" lon="-2.10617">
        <ele>30</ele>
        <time>2019-05-05T10:00:24Z</time>
      </trkpt>
      <trkpt lat="48.57895" lon="-2.10641">
        <ele>31</ele>
        <time>2019-05-05T10:00:29Z</time>
      </trkpt>
      <trkpt lat="48.57929" lon="-2.10671">
        <ele>30</ele>
        <time>2019-05-05T10:00:37Z</time>
      </trkpt>
      <trkpt lat="48.57943" lon="-2.10678">
        <ele>28</ele>
        <time>2019-05-05T10:00:41Z</time>
      </trkpt>
      <trkpt lat="48.57946" lon="-2.10684">
        <ele>28</ele>
        <time>2019-05-05T10:00:43Z</time>
      </trkpt>
      <trkpt lat="48.57945" lon="-2.10706">
        <ele>28</ele>
        <time>2019-05-05T10:00:47Z</time>
      </trkpt>
      <trkpt lat="48.57947" lon="-2.10714">
        <ele>28</ele>
        <time>2019-05-05T10:00:49Z</time>
      </trkpt>
      <trkpt lat="48.57977" lon="-2.10723">
        <ele>26</ele>
        <time>2019-05-05T10:00:59Z</time>
      </trkpt>
      <trkpt lat="48.57982" lon="-2.10724">
        <ele>26</ele>
        <time>2019-05-05T10:01:02Z</time>
      </trkpt>
      <trkpt lat="48.57985" lon="-2.10729">
        <ele>27</ele>
        <time>2019-05-05T10:01:08Z</time>
      </trkpt>
      <trkpt lat="48.58002" lon="-2.10795">
        <ele>29</ele>
        <time>2019-05-05T10:01:28Z</time>
      </trkpt>
      <trkpt lat="48.58003" lon="-2.10806">
        <ele>29</ele>
        <time>2019-05-05T10:01:31Z</time>
      </trkpt>
      <trkpt lat="48.57998" lon="-2.10832">
        <ele>30</ele>
        <time>2019-05-05T10:01:36Z</time>
      </trkpt>
      <trkpt lat="48.5798" lon="-2.10878">
        <ele>30</ele>
        <time>2019-05-05T10:01:45Z</time>
      </trkpt>
      <trkpt lat="48.57981" lon="-2.10885">
        <ele>30</ele>
        <time>2019-05-05T10:01:48Z</time>
      </trkpt>
      <trkpt lat="48.57984" lon="-2.1089">
        <ele>29</ele>
        <time>2019-05-05T10:01:52Z</time>
      </trkpt>
      <trkpt lat="48.5799" lon="-2.10894">
        <ele>29</ele>
        <time>2019-05-05T10:01:54Z</time>
      </trkpt>
      <trkpt lat="48.57996" lon="-2.10897">
        <ele>29</ele>
        <time>2019-05-05T10:01:56Z</time>
      </trkpt>
      <trkpt lat="48.58008" lon="-2.10893">
        <ele>28</ele>
        <time>2019-05-05T10:02:02Z</time>
      </trkpt>
      <trkpt lat="48.58025" lon="-2.10885">
        <ele>26</ele>
        <time>2019-05-05T10:02:08Z</time>
      </trkpt>
      <trkpt lat="48.5803" lon="-2.10879">
        <ele>24</ele>
        <time>2019-05-05T10:02:11Z</time>
      </trkpt>
      <trkpt lat="48.58036" lon="-2.10877">
        <ele>23</ele>
        <time>2019-05-05T10:02:14Z</time>
      </trkpt>
      <trkpt lat="48.58059" lon="-2.10908">
        <ele>21</ele>
        <time>2019-05-05T10:02:25Z</time>
      </trkpt>
      <trkpt lat="48.5807" lon="-2.10932">
        <ele>21</ele>
        <time>2019-05-05T10:02:31Z</time>
      </trkpt>
      <trkpt lat="48.58073" lon="-2.1094">
        <ele>21</ele>
        <time>2019-05-05T10:02:34Z</time>
      </trkpt>
      <trkpt lat="48.58078" lon="-2.10944">
        <ele>21</ele>
        <time>2019-05-05T10:02:37Z</time>
      </trkpt>
      <trkpt lat="48.58083" lon="-2.10941">
        <ele>21</ele>
        <time>2019-05-05T10:02:40Z</time>
      </trkpt>
      <trkpt lat="48.58087" lon="-2.10936">
        <ele>22</ele>
        <time>2019-05-05T10:02:43Z</time>
      </trkpt>
      <trkpt lat="48.5809" lon="-2.1093">
        <ele>22</ele>
        <time>2019-05-05T10:02:47Z</time>
      </trkpt>
      <trkpt lat="48.58096" lon="-2.10931">
        <ele>22</ele>
        <time>2019-05-05T10:02:50Z</time>
      </trkpt>
      <trkpt lat="48.58102" lon="-2.10934">
        <ele>22</ele>
        <time>2019-05-05T10:02:52Z</time>
      </trkpt>
      <trkpt lat="48.58119" lon="-2.10934">
        <ele>22</ele>
        <time>2019-05-05T10:02:58Z</time>
      </trkpt>
      <trkpt lat="48.58134" lon="-2.10921">
        <ele>20</ele>
        <time>2019-05-05T10:03:04Z</time>
      </trkpt>
      <trkpt lat="48.58141" lon="-2.10908">
        <ele>20</ele>
        <time>2019-05-05T10:03:10Z</time>
      </trkpt>
      <trkpt lat="48.58145" lon="-2.10903">
        <ele>19</ele>
        <time>2019-05-05T10:03:19Z</time>
      </trkpt>
      <trkpt lat="48.58149" lon="-2.10898">
        <ele>19</ele>
        <time>2019-05-05T10:03:23Z</time>
      </trkpt>
      <trkpt lat="48.58153" lon="-2.10891">
        <ele>18</ele>
        <time>2019-05-05T10:03:27Z</time>
      </trkpt>
      <trkpt lat="48.58155" lon="-2.10885">
        <ele>17</ele>
        <time>2019-05-05T10:03:30Z</time>
      </trkpt>
      <trkpt lat="48.58157" lon="-2.10879">
        <ele>16</ele>
        <time>2019-05-05T10:03:33Z</time>
      </trkpt>
      <trkpt lat="48.58159" lon="-2.10872">
        <ele>15</ele>
        <time>2019-05-05T10:03:37Z</time>
      </trkpt>
      <trkpt lat="48.58163" lon="-2.10866">
        <ele>15</ele>
        <time>2019-05-05T10:03:40Z</time>
      </trkpt>
      <trkpt lat="48.58168" lon="-2.10861">
        <ele>15</ele>
        <time>2019-05-05T10:03:44Z</time>
      </trkpt>
      <trkpt lat="48.58172" lon="-2.10854">
        <ele>15</ele>
        <time>2019-05-05T10:03:47Z</time>
      </trkpt>
      <trkpt lat="48.58181" lon="-2.10843">
        <ele>14</ele>
        <time>2019-05-05T10:03:53Z</time>
      </trkpt>
      <trkpt lat="48.58199" lon="-2.10845">
        <ele>13</ele>
        <time>2019-05-05T10:04:00Z</time>
      </trkpt>
      <trkpt lat="48.5822" lon="-2.10839">
        <ele>13</ele>
        <time>2019-05-05T10:04:06Z</time>
      </trkpt>
      <trkpt lat="48.5825" lon="-2.10846">
        <ele>14</ele>
        <time>2019-05-05T10:04:12Z</time>
      </trkpt>
      <trkpt lat="48.58267" lon="-2.10859">
        <ele>15</ele>
        <time>2019-05-05T10:04:15Z</time>
      </trkpt>
      <trkpt lat="48.58335" lon="-2.1093">
        <ele>18</ele>
        <time>2019-05-05T10:04:29Z</time>
      </trkpt>
      <trkpt lat="48.58345" lon="-2.10952">
        <ele>18</ele>
        <time>2019-05-05T10:04:33Z</time>
      </trkpt>
      <trkpt lat="48.58355" lon="-2.1097">
        <ele>18</ele>
        <time>2019-05-05T10:04:37Z</time>
      </trkpt>
      <trkpt lat="48.58361" lon="-2.1099">
        <ele>19</ele>
        <time>2019-05-05T10:04:40Z</time>
      </trkpt>
      <trkpt lat="48.58365" lon="-2.11015">
        <ele>20</ele>
        <time>2019-05-05T10:04:43Z</time>
      </trkpt>
      <trkpt lat="48.58377" lon="-2.11046">
        <ele>21</ele>
        <time>2019-05-05T10:04:49Z</time>
      </trkpt>
      <trkpt lat="48.58379" lon="-2.11052">
        <ele>22</ele>
        <time>2019-05-05T10:04:50Z</time>
      </trkpt>
      <trkpt lat="48.58379" lon="-2.11059">
        <ele>22</ele>
        <time>2019-05-05T10:04:51Z</time>
      </trkpt>
      <trkpt lat="48.5838" lon="-2.11068">
        <ele>22</ele>
        <time>2019-05-05T10:04:52Z</time>
      </trkpt>
      <trkpt lat="48.58378" lon="-2.11082">
        <ele>24</ele>
        <time>2019-05-05T10:04:54Z</time>
      </trkpt>
      <trkpt lat="48.58363" lon="-2.11107">
        <ele>25</ele>
        <time>2019-05-05T10:04:58Z</time>
      </trkpt>
      <trkpt lat="48.58353" lon="-2.11116">
        <ele>25</ele>
        <time>2019-05-05T10:05:00Z</time>
      </trkpt>
      <trkpt lat="48.58323" lon="-2.11128">
        <ele>23</ele>
        <time>2019-05-05T10:05:07Z</time>
      </trkpt>
      <trkpt lat="48.58312" lon="-2.11141">
        <ele>22</ele>
        <time>2019-05-05T10:05:11Z</time>
      </trkpt>
      <trkpt lat="48.58285" lon="-2.11252">
        <ele>25</ele>
        <time>2019-05-05T10:05:27Z</time>
      </trkpt>
      <trkpt lat="48.58284" lon="-2.11263">
        <ele>25</ele>
        <time>2019-05-05T10:05:29Z</time>
      </trkpt>
      <trkpt lat="48.58285" lon="-2.11272">
        <ele>25</ele>
        <time>2019-05-05T10:05:31Z</time>
      </trkpt>
      <trkpt lat="48.58289" lon="-2.11276">
        <ele>25</ele>
        <time>2019-05-05T10:05:33Z</time>
      </trkpt>
      <trkpt lat="48.58302" lon="-2.1128">
        <ele>23</ele>
        <time>2019-05-05T10:05:37Z</time>
      </trkpt>
      <trkpt lat="48.58329" lon="-2.11293">
        <ele>23</ele>
        <time>2019-05-05T10:05:45Z</time>
      </trkpt>
      <trkpt lat="48.58333" lon="-2.11297">
        <ele>22</ele>
        <time>2019-05-05T10:05:56Z</time>
      </trkpt>
      <trkpt lat="48.58344" lon="-2.11321">
        <ele>23</ele>
        <time>2019-05-05T10:06:02Z</time>
      </trkpt>
      <trkpt lat="48.58347" lon="-2.11331">
        <ele>23</ele>
        <time>2019-05-05T10:06:04Z</time>
      </trkpt>
      <trkpt lat="48.58332" lon="-2.114">
        <ele>23</ele>
        <time>2019-05-05T10:06:16Z</time>
      </trkpt>
      <trkpt lat="48.58327" lon="-2.11433">
        <ele>20</ele>
        <time>2019-05-05T10:06:27Z</time>
      </trkpt>
      <trkpt lat="48.58315" lon="-2.11463">
        <ele>19</ele>
        <time>2019-05-05T10:06:35Z</time>
      </trkpt>
      <trkpt lat="48.58311" lon="-2.11465">
        <ele>19</ele>
        <time>2019-05-05T10:06:36Z</time>
      </trkpt>
      <trkpt lat="48.58291" lon="-2.11466">
        <ele>18</ele>
        <time>2019-05-05T10:06:40Z</time>
      </trkpt>
      <trkpt lat="48.58232" lon="-2.1146">
        <ele>14</ele>
        <time>2019-05-05T10:06:51Z</time>
      </trkpt>
      <trkpt lat="48.58229" lon="-2.11468">
        <ele>14</ele>
        <time>2019-05-05T10:06:53Z</time>
      </trkpt>
      <trkpt lat="48.58233" lon="-2.11473">
        <ele>14</ele>
        <time>2019-05-05T10:06:54Z</time>
      </trkpt>
      <trkpt lat="48.58237" lon="-2.1149">
        <ele>12</ele>
        <time>2019-05-05T10:06:57Z</time>
      </trkpt>
      <trkpt lat="48.58241" lon="-2.11494">
        <ele>12</ele>
        <time>2019-05-05T10:06:58Z</time>
      </trkpt>
      <trkpt lat="48.58245" lon="-2.115">
        <ele>11</ele>
        <time>2019-05-05T10:07:00Z</time>
      </trkpt>
      <trkpt lat="48.58268" lon="-2.1151">
        <ele>10</ele>
        <time>2019-05-05T10:07:08Z</time>
      </trkpt>
      <trkpt lat="48.58274" lon="-2.11516">
        <ele>10</ele>
        <time>2019-05-05T10:07:10Z</time>
      </trkpt>
      <trkpt lat="48.58277" lon="-2.11524">
        <ele>10</ele>
        <time>2019-05-05T10:07:12Z</time>
      </trkpt>
      <trkpt lat="48.58284" lon="-2.11562">
        <ele>9</ele>
        <time>2019-05-05T10:07:20Z</time>
      </trkpt>
      <trkpt lat="48.58276" lon="-2.11605">
        <ele>11</ele>
        <time>2019-05-05T10:07:34Z</time>
      </trkpt>
      <trkpt lat="48.58271" lon="-2.11618">
        <ele>13</ele>
        <time>2019-05-05T10:07:39Z</time>
      </trkpt>
      <trkpt lat="48.58262" lon="-2.11631">
        <ele>14</ele>
        <time>2019-05-05T10:07:44Z</time>
      </trkpt>
      <trkpt lat="48.58251" lon="-2.11638">
        <ele>13</ele>
        <time>2019-05-05T10:07:50Z</time>
      </trkpt>
      <trkpt lat="48.58243" lon="-2.11652">
        <ele>12</ele>
        <time>2019-05-05T10:07:55Z</time>
      </trkpt>
      <trkpt lat="48.58227" lon="-2.11675">
        <ele>13</ele>
        <time>2019-05-05T10:08:04Z</time>
      </trkpt>
      <trkpt lat="48.58216" lon="-2.11681">
        <ele>14</ele>
        <time>2019-05-05T10:08:10Z</time>
      </trkpt>
      <trkpt lat="48.58206" lon="-2.11695">
        <ele>16</ele>
        <time>2019-05-05T10:08:15Z</time>
      </trkpt>
      <trkpt lat="48.58202" lon="-2.1171">
        <ele>17</ele>
        <time>2019-05-05T10:08:19Z</time>
      </trkpt>
      <trkpt lat="48.58205" lon="-2.11717">
        <ele>17</ele>
        <time>2019-05-05T10:08:22Z</time>
      </trkpt>
      <trkpt lat="48.58207" lon="-2.11724">
        <ele>18</ele>
        <time>2019-05-05T10:08:25Z</time>
      </trkpt>
      <trkpt lat="48.58204" lon="-2.11731">
        <ele>18</ele>
        <time>2019-05-05T10:08:28Z</time>
      </trkpt>
      <trkpt lat="48.58202" lon="-2.11743">
        <ele>18</ele>
        <time>2019-05-05T10:08:32Z</time>
      </trkpt>
      <trkpt lat="48.58203" lon="-2.11755">
        <ele>18</ele>
        <time>2019-05-05T10:08:36Z</time>
      </trkpt>
      <trkpt lat="48.58111" lon="-2.11801">
        <ele>15</ele>
        <time>2019-05-05T10:08:58Z</time>
      </trkpt>
      <trkpt lat="48.5809" lon="-2.11832">
        <ele>16</ele>
        <time>2019-05-05T10:09:04Z</time>
      </trkpt>
      <trkpt lat="48.58064" lon="-2.11902">
        <ele>21</ele>
        <time>2019-05-05T10:09:16Z</time>
      </trkpt>
      <trkpt lat="48.58062" lon="-2.11921">
        <ele>23</ele>
        <time>2019-05-05T10:09:20Z</time>
      </trkpt>
      <trkpt lat="48.58053" lon="-2.11935">
        <ele>24</ele>
        <time>2019-05-05T10:09:23Z</time>
      </trkpt>
      <trkpt lat="48.58046" lon="-2.1194">
        <ele>25</ele>
        <time>2019-05-05T10:09:25Z</time>
      </trkpt>
      <trkpt lat="48.58031" lon="-2.11945">
        <ele>26</ele>
        <time>2019-05-05T10:09:29Z</time>
      </trkpt>
      <trkpt lat="48.58008" lon="-2.11962">
        <ele>26</ele>
        <time>2019-05-05T10:09:34Z</time>
      </trkpt>
      <trkpt lat="48.57998" lon="-2.11969">
        <ele>25</ele>
        <time>2019-05-05T10:09:36Z</time>
      </trkpt>
      <trkpt lat="48.57994" lon="-2.11976">
        <ele>25</ele>
        <time>2019-05-05T10:09:38Z</time>
      </trkpt>
      <trkpt lat="48.57995" lon="-2.11983">
        <ele>25</ele>
        <time>2019-05-05T10:09:41Z</time>
      </trkpt>
      <trkpt lat="48.57997" lon="-2.11991">
        <ele>25</ele>
        <time>2019-05-05T10:09:43Z</time>
      </trkpt>
      <trkpt lat="48.58007" lon="-2.11998">
        <ele>24</ele>
        <time>2019-05-05T10:09:47Z</time>
      </trkpt>
      <trkpt lat="48.58031" lon="-2.12029">
        <ele>26</ele>
        <time>2019-05-05T10:09:57Z</time>
      </trkpt>
      <trkpt lat="48.58073" lon="-2.12156">
        <ele>32</ele>
        <time>2019-05-05T10:10:27Z</time>
      </trkpt>
      <trkpt lat="48.58077" lon="-2.12171">
        <ele>34</ele>
        <time>2019-05-05T10:10:31Z</time>
      </trkpt>
      <trkpt lat="48.58102" lon="-2.1232">
        <ele>38</ele>
        <time>2019-05-05T10:11:02Z</time>
      </trkpt>
      <trkpt lat="48.58122" lon="-2.12412">
        <ele>43</ele>
        <time>2019-05-05T10:11:24Z</time>
      </trkpt>
      <trkpt lat="48.5813" lon="-2.12426">
        <ele>44</ele>
        <time>2019-05-05T10:11:28Z</time>
      </trkpt>
      <trkpt lat="48.58141" lon="-2.12438">
        <ele>45</ele>
        <time>2019-05-05T10:11:32Z</time>
      </trkpt>
      <trkpt lat="48.58145" lon="-2.1244">
        <ele>46</ele>
        <time>2019-05-05T10:11:34Z</time>
      </trkpt>
      <trkpt lat="48.58189" lon="-2.12434">
        <ele>49</ele>
        <time>2019-05-05T10:12:01Z</time>
      </trkpt>
      <trkpt lat="48.58194" lon="-2.12437">
        <ele>47</ele>
        <time>2019-05-05T10:12:06Z</time>
      </trkpt>
      <trkpt lat="48.58205" lon="-2.1244">
        <ele>42</ele>
        <time>2019-05-05T10:12:13Z</time>
      </trkpt>
      <trkpt lat="48.58215" lon="-2.12438">
        <ele>38</ele>
        <time>2019-05-05T10:12:20Z</time>
      </trkpt>
      <trkpt lat="48.58223" lon="-2.12431">
        <ele>38</ele>
        <time>2019-05-05T10:12:26Z</time>
      </trkpt>
      <trkpt lat="48.58229" lon="-2.12429">
        <ele>37</ele>
        <time>2019-05-05T10:12:30Z</time>
      </trkpt>
      <trkpt lat="48.58257" lon="-2.12438">
        <ele>37</ele>
        <time>2019-05-05T10:12:42Z</time>
      </trkpt>
      <trkpt lat="48.58349" lon="-2.12511">
        <ele>38</ele>
        <time>2019-05-05T10:13:12Z</time>
      </trkpt>
      <trkpt lat="48.58359" lon="-2.12524">
        <ele>38</ele>
        <time>2019-05-05T10:13:16Z</time>
      </trkpt>
      <trkpt lat="48.58465" lon="-2.1259">
        <ele>38</ele>
        <time>2019-05-05T10:13:46Z</time>
      </trkpt>
      <trkpt lat="48.58582" lon="-2.12632">
        <ele>39</ele>
        <time>2019-05-05T10:14:16Z</time>
      </trkpt>
      <trkpt lat="48.5862" lon="-2.12642">
        <ele>40</ele>
        <time>2019-05-05T10:14:24Z</time>
      </trkpt>
      <trkpt lat="48.58668" lon="-2.12672">
        <ele>41</ele>
        <time>2019-05-05T10:14:37Z</time>
      </trkpt>
      <trkpt lat="48.58676" lon="-2.12676">
        <ele>41</ele>
        <time>2019-05-05T10:14:39Z</time>
      </trkpt>
      <trkpt lat="48.58681" lon="-2.12676">
        <ele>42</ele>
        <time>2019-05-05T10:14:40Z</time>
      </trkpt>
      <trkpt lat="48.58686" lon="-2.12675">
        <ele>42</ele>
        <time>2019-05-05T10:14:41Z</time>
      </trkpt>
      <trkpt lat="48.5869" lon="-2.12673">
        <ele>42</ele>
        <time>2019-05-05T10:14:42Z</time>
      </trkpt>
      <trkpt lat="48.58693" lon="-2.12681">
        <ele>42</ele>
        <time>2019-05-05T10:14:50Z</time>
      </trkpt>
      <trkpt lat="48.58693" lon="-2.12689">
        <ele>42</ele>
        <time>2019-05-05T10:14:54Z</time>
      </trkpt>
      <trkpt lat="48.58696" lon="-2.12695">
        <ele>42</ele>
        <time>2019-05-05T10:14:57Z</time>
      </trkpt>
      <trkpt lat="48.58713" lon="-2.12705">
        <ele>44</ele>
        <time>2019-05-05T10:15:06Z</time>
      </trkpt>
      <trkpt lat="48.58724" lon="-2.12706">
        <ele>44</ele>
        <time>2019-05-05T10:15:12Z</time>
      </trkpt>
      <trkpt lat="48.58736" lon="-2.1271">
        <ele>43</ele>
        <time>2019-05-05T10:15:16Z</time>
      </trkpt>
      <trkpt lat="48.58746" lon="-2.12721">
        <ele>44</ele>
        <time>2019-05-05T10:15:23Z</time>
      </trkpt>
      <trkpt lat="48.58754" lon="-2.12724">
        <ele>44</ele>
        <time>2019-05-05T10:15:25Z</time>
      </trkpt>
      <trkpt lat="48.58781" lon="-2.12736">
        <ele>44</ele>
        <time>2019-05-05T10:15:32Z</time>
      </trkpt>
      <trkpt lat="48.58802" lon="-2.12753">
        <ele>42</ele>
        <time>2019-05-05T10:15:38Z</time>
      </trkpt>
      <trkpt lat="48.58841" lon="-2.12799">
        <ele>36</ele>
        <time>2019-05-05T10:15:55Z</time>
      </trkpt>
      <trkpt lat="48.58862" lon="-2.12814">
        <ele>34</ele>
        <time>2019-05-05T10:16:07Z</time>
      </trkpt>
      <trkpt lat="48.58909" lon="-2.12822">
        <ele>29</ele>
        <time>2019-05-05T10:16:39Z</time>
      </trkpt>
      <trkpt lat="48.58928" lon="-2.12831">
        <ele>27</ele>
        <time>2019-05-05T10:16:45Z</time>
      </trkpt>
      <trkpt lat="48.58956" lon="-2.12861">
        <ele>24</ele>
        <time>2019-05-05T10:16:58Z</time>
      </trkpt>
      <trkpt lat="48.5896" lon="-2.12867">
        <ele>23</ele>
        <time>2019-05-05T10:17:02Z</time>
      </trkpt>
      <trkpt lat="48.58976" lon="-2.12889">
        <ele>19</ele>
        <time>2019-05-05T10:17:12Z</time>
      </trkpt>
      <trkpt lat="48.58999" lon="-2.12923">
        <ele>20</ele>
        <time>2019-05-05T10:17:30Z</time>
      </trkpt>
      <trkpt lat="48.59005" lon="-2.12935">
        <ele>21</ele>
        <time>2019-05-05T10:17:37Z</time>
      </trkpt>
      <trkpt lat="48.59015" lon="-2.12955">
        <ele>23</ele>
        <time>2019-05-05T10:17:48Z</time>
      </trkpt>
      <trkpt lat="48.59018" lon="-2.12959">
        <ele>23</ele>
        <time>2019-05-05T10:17:51Z</time>
      </trkpt>
      <trkpt lat="48.59025" lon="-2.12971">
        <ele>23</ele>
        <time>2019-05-05T10:17:57Z</time>
      </trkpt>
      <trkpt lat="48.59036" lon="-2.12999">
        <ele>22</ele>
        <time>2019-05-05T10:18:07Z</time>
      </trkpt>
      <trkpt lat="48.59059" lon="-2.1303">
        <ele>21</ele>
        <time>2019-05-05T10:18:17Z</time>
      </trkpt>
      <trkpt lat="48.59064" lon="-2.13034">
        <ele>21</ele>
        <time>2019-05-05T10:18:19Z</time>
      </trkpt>
      <trkpt lat="48.59085" lon="-2.13071">
        <ele>21</ele>
        <time>2019-05-05T10:18:36Z</time>
      </trkpt>
      <trkpt lat="48.5909" lon="-2.13076">
        <ele>21</ele>
        <time>2019-05-05T10:18:39Z</time>
      </trkpt>
      <trkpt lat="48.59093" lon="-2.13081">
        <ele>23</ele>
        <time>2019-05-05T10:18:42Z</time>
      </trkpt>
      <trkpt lat="48.59143" lon="-2.13151">
        <ele>26</ele>
        <time>2019-05-05T10:19:14Z</time>
      </trkpt>
      <trkpt lat="48.5915" lon="-2.13162">
        <ele>26</ele>
        <time>2019-05-05T10:19:20Z</time>
      </trkpt>
      <trkpt lat="48.59156" lon="-2.13186">
        <ele>24</ele>
        <time>2019-05-05T10:19:28Z</time>
      </trkpt>
      <trkpt lat="48.59156" lon="-2.13194">
        <ele>25</ele>
        <time>2019-05-05T10:19:31Z</time>
      </trkpt>
      <trkpt lat="48.59156" lon="-2.13212">
        <ele>27</ele>
        <time>2019-05-05T10:19:36Z</time>
      </trkpt>
      <trkpt lat="48.59153" lon="-2.13237">
        <ele>26</ele>
        <time>2019-05-05T10:19:43Z</time>
      </trkpt>
      <trkpt lat="48.59135" lon="-2.13312">
        <ele>25</ele>
        <time>2019-05-05T10:20:09Z</time>
      </trkpt>
      <trkpt lat="48.59134" lon="-2.13319">
        <ele>25</ele>
        <time>2019-05-05T10:20:11Z</time>
      </trkpt>
      <trkpt lat="48.59132" lon="-2.13326">
        <ele>24</ele>
        <time>2019-05-05T10:20:13Z</time>
      </trkpt>
      <trkpt lat="48.59129" lon="-2.1333">
        <ele>24</ele>
        <time>2019-05-05T10:20:15Z</time>
      </trkpt>
      <trkpt lat="48.59122" lon="-2.13333">
        <ele>24</ele>
        <time>2019-05-05T10:20:18Z</time>
      </trkpt>
      <trkpt lat="48.59106" lon="-2.13345">
        <ele>23</ele>
        <time>2019-05-05T10:20:24Z</time>
      </trkpt>
      <trkpt lat="48.59044" lon="-2.13342">
        <ele>24</ele>
        <time>2019-05-05T10:20:37Z</time>
      </trkpt>
      <trkpt lat="48.58988" lon="-2.1333">
        <ele>24</ele>
        <time>2019-05-05T10:20:46Z</time>
      </trkpt>
      <trkpt lat="48.58973" lon="-2.13324">
        <ele>24</ele>
        <time>2019-05-05T10:20:49Z</time>
      </trkpt>
      <trkpt lat="48.58955" lon="-2.13326">
        <ele>25</ele>
        <time>2019-05-05T10:20:53Z</time>
      </trkpt>
      <trkpt lat="48.58942" lon="-2.13326">
        <ele>25</ele>
        <time>2019-05-05T10:20:56Z</time>
      </trkpt>
      <trkpt lat="48.5894" lon="-2.13333">
        <ele>26</ele>
        <time>2019-05-05T10:21:01Z</time>
      </trkpt>
      <trkpt lat="48.58943" lon="-2.13341">
        <ele>26</ele>
        <time>2019-05-05T10:21:03Z</time>
      </trkpt>
      <trkpt lat="48.58949" lon="-2.13372">
        <ele>25</ele>
        <time>2019-05-05T10:21:09Z</time>
      </trkpt>
      <trkpt lat="48.58953" lon="-2.13381">
        <ele>26</ele>
        <time>2019-05-05T10:21:11Z</time>
      </trkpt>
      <trkpt lat="48.58942" lon="-2.13456">
        <ele>30</ele>
        <time>2019-05-05T10:21:24Z</time>
      </trkpt>
      <trkpt lat="48.58941" lon="-2.13466">
        <ele>30</ele>
        <time>2019-05-05T10:21:30Z</time>
      </trkpt>
      <trkpt lat="48.58927" lon="-2.1347">
        <ele>29</ele>
        <time>2019-05-05T10:21:35Z</time>
      </trkpt>
      <trkpt lat="48.58875" lon="-2.13476">
        <ele>27</ele>
        <time>2019-05-05T10:21:46Z</time>
      </trkpt>
      <trkpt lat="48.58867" lon="-2.13477">
        <ele>27</ele>
        <time>2019-05-05T10:21:48Z</time>
      </trkpt>
      <trkpt lat="48.58855" lon="-2.13483">
        <ele>25</ele>
        <time>2019-05-05T10:21:52Z</time>
      </trkpt>
      <trkpt lat="48.58848" lon="-2.13482">
        <ele>25</ele>
        <time>2019-05-05T10:21:55Z</time>
      </trkpt>
      <trkpt lat="48.58829" lon="-2.13484">
        <ele>24</ele>
        <time>2019-05-05T10:22:04Z</time>
      </trkpt>
      <trkpt lat="48.58824" lon="-2.13485">
        <ele>24</ele>
        <time>2019-05-05T10:22:07Z</time>
      </trkpt>
      <trkpt lat="48.58814" lon="-2.1348">
        <ele>26</ele>
        <time>2019-05-05T10:22:14Z</time>
      </trkpt>
      <trkpt lat="48.58794" lon="-2.13475">
        <ele>33</ele>
        <time>2019-05-05T10:22:26Z</time>
      </trkpt>
      <trkpt lat="48.58791" lon="-2.13471">
        <ele>32</ele>
        <time>2019-05-05T10:22:29Z</time>
      </trkpt>
      <trkpt lat="48.58788" lon="-2.13466">
        <ele>30</ele>
        <time>2019-05-05T10:22:33Z</time>
      </trkpt>
      <trkpt lat="48.58672" lon="-2.13368">
        <ele>23</ele>
        <time>2019-05-05T10:23:03Z</time>
      </trkpt>
      <trkpt lat="48.5865" lon="-2.13356">
        <ele>22</ele>
        <time>2019-05-05T10:23:12Z</time>
      </trkpt>
      <trkpt lat="48.5864" lon="-2.13347">
        <ele>22</ele>
        <time>2019-05-05T10:23:16Z</time>
      </trkpt>
      <trkpt lat="48.58639" lon="-2.13341">
        <ele>22</ele>
        <time>2019-05-05T10:23:17Z</time>
      </trkpt>
      <trkpt lat="48.58636" lon="-2.1332">
        <ele>20</ele>
        <time>2019-05-05T10:23:21Z</time>
      </trkpt>
      <trkpt lat="48.58632" lon="-2.13311">
        <ele>20</ele>
        <time>2019-05-05T10:23:24Z</time>
      </trkpt>
      <trkpt lat="48.58616" lon="-2.13288">
        <ele>19</ele>
        <time>2019-05-05T10:23:30Z</time>
      </trkpt>
      <trkpt lat="48.58609" lon="-2.13285">
        <ele>19</ele>
        <time>2019-05-05T10:23:32Z</time>
      </trkpt>
      <trkpt lat="48.58584" lon="-2.13277">
        <ele>17</ele>
        <time>2019-05-05T10:23:38Z</time>
      </trkpt>
      <trkpt lat="48.5857" lon="-2.13261">
        <ele>15</ele>
        <time>2019-05-05T10:23:51Z</time>
      </trkpt>
      <trkpt lat="48.58566" lon="-2.13255">
        <ele>14</ele>
        <time>2019-05-05T10:23:54Z</time>
      </trkpt>
      <trkpt lat="48.58561" lon="-2.13254">
        <ele>14</ele>
        <time>2019-05-05T10:23:57Z</time>
      </trkpt>
      <trkpt lat="48.58546" lon="-2.13251">
        <ele>15</ele>
        <time>2019-05-05T10:24:11Z</time>
      </trkpt>
      <trkpt lat="48.58536" lon="-2.13236">
        <ele>16</ele>
        <time>2019-05-05T10:24:15Z</time>
      </trkpt>
      <trkpt lat="48.58533" lon="-2.13228">
        <ele>16</ele>
        <time>2019-05-05T10:24:17Z</time>
      </trkpt>
      <trkpt lat="48.58503" lon="-2.13213">
        <ele>19</ele>
        <time>2019-05-05T10:24:29Z</time>
      </trkpt>
      <trkpt lat="48.58497" lon="-2.1321">
        <ele>19</ele>
        <time>2019-05-05T10:24:31Z</time>
      </trkpt>
      <trkpt lat="48.58493" lon="-2.13206">
        <ele>18</ele>
        <time>2019-05-05T10:24:34Z</time>
      </trkpt>
      <trkpt lat="48.5849" lon="-2.132">
        <ele>17</ele>
        <time>2019-05-05T10:24:37Z</time>
      </trkpt>
      <trkpt lat="48.58482" lon="-2.1319">
        <ele>16</ele>
        <time>2019-05-05T10:24:42Z</time>
      </trkpt>
      <trkpt lat="48.58474" lon="-2.13177">
        <ele>14</ele>
        <time>2019-05-05T10:24:49Z</time>
      </trkpt>
      <trkpt lat="48.58462" lon="-2.13172">
        <ele>13</ele>
        <time>2019-05-05T10:24:54Z</time>
      </trkpt>
      <trkpt lat="48.58458" lon="-2.1317">
        <ele>13</ele>
        <time>2019-05-05T10:24:57Z</time>
      </trkpt>
      <trkpt lat="48.58441" lon="-2.13171">
        <ele>16</ele>
        <time>2019-05-05T10:25:05Z</time>
      </trkpt>
      <trkpt lat="48.58429" lon="-2.13181">
        <ele>15</ele>
        <time>2019-05-05T10:25:12Z</time>
      </trkpt>
      <trkpt lat="48.58408" lon="-2.13179">
        <ele>13</ele>
        <time>2019-05-05T10:25:20Z</time>
      </trkpt>
      <trkpt lat="48.58374" lon="-2.13181">
        <ele>12</ele>
        <time>2019-05-05T10:25:31Z</time>
      </trkpt>
      <trkpt lat="48.5837" lon="-2.13179">
        <ele>13</ele>
        <time>2019-05-05T10:25:33Z</time>
      </trkpt>
      <trkpt lat="48.5833" lon="-2.13137">
        <ele>23</ele>
        <time>2019-05-05T10:25:57Z</time>
      </trkpt>
      <trkpt lat="48.58326" lon="-2.1314">
        <ele>25</ele>
        <time>2019-05-05T10:26:01Z</time>
      </trkpt>
      <trkpt lat="48.58319" lon="-2.13151">
        <ele>28</ele>
        <time>2019-05-05T10:26:08Z</time>
      </trkpt>
      <trkpt lat="48.58315" lon="-2.13158">
        <ele>28</ele>
        <time>2019-05-05T10:26:11Z</time>
      </trkpt>
      <trkpt lat="48.58312" lon="-2.13166">
        <ele>28</ele>
        <time>2019-05-05T10:26:13Z</time>
      </trkpt>
      <trkpt lat="48.58303" lon="-2.13182">
        <ele>30</ele>
        <time>2019-05-05T10:26:19Z</time>
      </trkpt>
      <trkpt lat="48.58301" lon="-2.13189">
        <ele>31</ele>
        <time>2019-05-05T10:26:21Z</time>
      </trkpt>
      <trkpt lat="48.58303" lon="-2.132">
        <ele>30</ele>
        <time>2019-05-05T10:26:24Z</time>
      </trkpt>
      <trkpt lat="48.58307" lon="-2.13205">
        <ele>30</ele>
        <time>2019-05-05T10:26:28Z</time>
      </trkpt>
      <trkpt lat="48.5831" lon="-2.13212">
        <ele>29</ele>
        <time>2019-05-05T10:26:32Z</time>
      </trkpt>
      <trkpt lat="48.58304" lon="-2.13213">
        <ele>29</ele>
        <time>2019-05-05T10:26:35Z</time>
      </trkpt>
      <trkpt lat="48.58276" lon="-2.13218">
        <ele>25</ele>
        <time>2019-05-05T10:26:41Z</time>
      </trkpt>
      <trkpt lat="48.58267" lon="-2.13216">
        <ele>24</ele>
        <time>2019-05-05T10:26:43Z</time>
      </trkpt>
      <trkpt lat="48.58263" lon="-2.13216">
        <ele>23</ele>
        <time>2019-05-05T10:26:45Z</time>
      </trkpt>
      <trkpt lat="48.58254" lon="-2.13225">
        <ele>21</ele>
        <time>2019-05-05T10:26:53Z</time>
      </trkpt>
      <trkpt lat="48.58244" lon="-2.13246">
        <ele>22</ele>
        <time>2019-05-05T10:27:00Z</time>
      </trkpt>
      <trkpt lat="48.5824" lon="-2.13251">
        <ele>23</ele>
        <time>2019-05-05T10:27:02Z</time>
      </trkpt>
      <trkpt lat="48.58236" lon="-2.13258">
        <ele>23</ele>
        <time>2019-05-05T10:27:06Z</time>
      </trkpt>
      <trkpt lat="48.58231" lon="-2.1326">
        <ele>23</ele>
        <time>2019-05-05T10:27:11Z</time>
      </trkpt>
      <trkpt lat="48.58226" lon="-2.13259">
        <ele>24</ele>
        <time>2019-05-05T10:27:14Z</time>
      </trkpt>
      <trkpt lat="48.58221" lon="-2.13258">
        <ele>23</ele>
        <time>2019-05-05T10:27:17Z</time>
      </trkpt>
      <trkpt lat="48.58199" lon="-2.13256">
        <ele>20</ele>
        <time>2019-05-05T10:27:26Z</time>
      </trkpt>
      <trkpt lat="48.58194" lon="-2.13257">
        <ele>18</ele>
        <time>2019-05-05T10:27:28Z</time>
      </trkpt>
      <trkpt lat="48.58189" lon="-2.13257">
        <ele>18</ele>
        <time>2019-05-05T10:27:31Z</time>
      </trkpt>
      <trkpt lat="48.58183" lon="-2.13254">
        <ele>17</ele>
        <time>2019-05-05T10:27:34Z</time>
      </trkpt>
      <trkpt lat="48.58179" lon="-2.1325">
        <ele>17</ele>
        <time>2019-05-05T10:27:37Z</time>
      </trkpt>
      <trkpt lat="48.58168" lon="-2.1325">
        <ele>15</ele>
        <time>2019-05-05T10:27:42Z</time>
      </trkpt>
      <trkpt lat="48.58157" lon="-2.13256">
        <ele>13</ele>
        <time>2019-05-05T10:27:46Z</time>
      </trkpt>
      <trkpt lat="48.58111" lon="-2.13254">
        <ele>11</ele>
        <time>2019-05-05T10:28:03Z</time>
      </trkpt>
      <trkpt lat="48.58106" lon="-2.13249">
        <ele>11</ele>
        <time>2019-05-05T10:28:05Z</time>
      </trkpt>
      <trkpt lat="48.58101" lon="-2.13244">
        <ele>11</ele>
        <time>2019-05-05T10:28:07Z</time>
      </trkpt>
      <trkpt lat="48.58098" lon="-2.13239">
        <ele>11</ele>
        <time>2019-05-05T10:28:10Z</time>
      </trkpt>
      <trkpt lat="48.58092" lon="-2.1324">
        <ele>10</ele>
        <time>2019-05-05T10:28:19Z</time>
      </trkpt>
      <trkpt lat="48.58081" lon="-2.13263">
        <ele>9</ele>
        <time>2019-05-05T10:28:27Z</time>
      </trkpt>
      <trkpt lat="48.58076" lon="-2.13276">
        <ele>9</ele>
        <time>2019-05-05T10:28:31Z</time>
      </trkpt>
      <trkpt lat="48.58074" lon="-2.13285">
        <ele>10</ele>
        <time>2019-05-05T10:28:34Z</time>
      </trkpt>
      <trkpt lat="48.58071" lon="-2.13292">
        <ele>10</ele>
        <time>2019-05-05T10:28:38Z</time>
      </trkpt>
      <trkpt lat="48.58063" lon="-2.13309">
        <ele>9</ele>
        <time>2019-05-05T10:28:48Z</time>
      </trkpt>
      <trkpt lat="48.58059" lon="-2.13306">
        <ele>9</ele>
        <time>2019-05-05T10:28:50Z</time>
      </trkpt>
      <trkpt lat="48.58058" lon="-2.13295">
        <ele>10</ele>
        <time>2019-05-05T10:28:52Z</time>
      </trkpt>
      <trkpt lat="48.58057" lon="-2.13287">
        <ele>10</ele>
        <time>2019-05-05T10:28:54Z</time>
      </trkpt>
      <trkpt lat="48.58054" lon="-2.13278">
        <ele>11</ele>
        <time>2019-05-05T10:28:56Z</time>
      </trkpt>
      <trkpt lat="48.58053" lon="-2.13269">
        <ele>11</ele>
        <time>2019-05-05T10:28:59Z</time>
      </trkpt>
      <trkpt lat="48.58052" lon="-2.13258">
        <ele>11</ele>
        <time>2019-05-05T10:29:02Z</time>
      </trkpt>
      <trkpt lat="48.58052" lon="-2.13252">
        <ele>12</ele>
        <time>2019-05-05T10:29:04Z</time>
      </trkpt>
      <trkpt lat="48.5805" lon="-2.13243">
        <ele>13</ele>
        <time>2019-05-05T10:29:07Z</time>
      </trkpt>
      <trkpt lat="48.58042" lon="-2.13238">
        <ele>14</ele>
        <time>2019-05-05T10:29:14Z</time>
      </trkpt>
      <trkpt lat="48.58036" lon="-2.13238">
        <ele>13</ele>
        <time>2019-05-05T10:29:17Z</time>
      </trkpt>
      <trkpt lat="48.58022" lon="-2.13243">
        <ele>13</ele>
        <time>2019-05-05T10:29:21Z</time>
      </trkpt>
      <trkpt lat="48.57955" lon="-2.13292">
        <ele>11</ele>
        <time>2019-05-05T10:29:38Z</time>
      </trkpt>
      <trkpt lat="48.57942" lon="-2.13298">
        <ele>10</ele>
        <time>2019-05-05T10:29:42Z</time>
      </trkpt>
      <trkpt lat="48.57923" lon="-2.13319">
        <ele>10</ele>
        <time>2019-05-05T10:29:50Z</time>
      </trkpt>
      <trkpt lat="48.57898" lon="-2.13328">
        <ele>10</ele>
        <time>2019-05-05T10:29:58Z</time>
      </trkpt>
      <trkpt lat="48.57893" lon="-2.13326">
        <ele>11</ele>
        <time>2019-05-05T10:30:00Z</time>
      </trkpt>
      <trkpt lat="48.57793" lon="-2.13244">
        <ele>13</ele>
        <time>2019-05-05T10:30:30Z</time>
      </trkpt>
      <trkpt lat="48.5778" lon="-2.13233">
        <ele>14</ele>
        <time>2019-05-05T10:30:34Z</time>
      </trkpt>
      <trkpt lat="48.57776" lon="-2.13224">
        <ele>15</ele>
        <time>2019-05-05T10:30:36Z</time>
      </trkpt>
      <trkpt lat="48.57777" lon="-2.13216">
        <ele>15</ele>
        <time>2019-05-05T10:30:38Z</time>
      </trkpt>
      <trkpt lat="48.57788" lon="-2.132">
        <ele>16</ele>
        <time>2019-05-05T10:30:42Z</time>
      </trkpt>
      <trkpt lat="48.57801" lon="-2.13154">
        <ele>18</ele>
        <time>2019-05-05T10:30:52Z</time>
      </trkpt>
      <trkpt lat="48.57812" lon="-2.13097">
        <ele>22</ele>
        <time>2019-05-05T10:31:04Z</time>
      </trkpt>
      <trkpt lat="48.57814" lon="-2.1309">
        <ele>22</ele>
        <time>2019-05-05T10:31:06Z</time>
      </trkpt>
      <trkpt lat="48.57817" lon="-2.13083">
        <ele>23</ele>
        <time>2019-05-05T10:31:08Z</time>
      </trkpt>
      <trkpt lat="48.57821" lon="-2.13074">
        <ele>25</ele>
        <time>2019-05-05T10:31:10Z</time>
      </trkpt>
      <trkpt lat="48.57827" lon="-2.13056">
        <ele>27</ele>
        <time>2019-05-05T10:31:14Z</time>
      </trkpt>
      <trkpt lat="48.57861" lon="-2.12987">
        <ele>37</ele>
        <time>2019-05-05T10:31:37Z</time>
      </trkpt>
      <trkpt lat="48.57861" lon="-2.12979">
        <ele>39</ele>
        <time>2019-05-05T10:31:42Z</time>
      </trkpt>
      <trkpt lat="48.57856" lon="-2.12974">
        <ele>38</ele>
        <time>2019-05-05T10:31:45Z</time>
      </trkpt>
      <trkpt lat="48.57848" lon="-2.12965">
        <ele>37</ele>
        <time>2019-05-05T10:31:52Z</time>
      </trkpt>
      <trkpt lat="48.57845" lon="-2.1296">
        <ele>36</ele>
        <time>2019-05-05T10:31:56Z</time>
      </trkpt>
      <trkpt lat="48.57841" lon="-2.12955">
        <ele>36</ele>
        <time>2019-05-05T10:31:59Z</time>
      </trkpt>
      <trkpt lat="48.57833" lon="-2.12938">
        <ele>35</ele>
        <time>2019-05-05T10:32:08Z</time>
      </trkpt>
      <trkpt lat="48.57826" lon="-2.12926">
        <ele>34</ele>
        <time>2019-05-05T10:32:14Z</time>
      </trkpt>
      <trkpt lat="48.57803" lon="-2.12876">
        <ele>35</ele>
        <time>2019-05-05T10:32:44Z</time>
      </trkpt>
      <trkpt lat="48.578" lon="-2.12869">
        <ele>35</ele>
        <time>2019-05-05T10:32:48Z</time>
      </trkpt>
      <trkpt lat="48.57794" lon="-2.12857">
        <ele>36</ele>
        <time>2019-05-05T10:32:55Z</time>
      </trkpt>
      <trkpt lat="48.57791" lon="-2.12851">
        <ele>36</ele>
        <time>2019-05-05T10:32:58Z</time>
      </trkpt>
      <trkpt lat="48.57789" lon="-2.12843">
        <ele>36</ele>
        <time>2019-05-05T10:33:03Z</time>
      </trkpt>
      <trkpt lat="48.57763" lon="-2.12797">
        <ele>35</ele>
        <time>2019-05-05T10:33:31Z</time>
      </trkpt>
      <trkpt lat="48.5776" lon="-2.12793">
        <ele>35</ele>
        <time>2019-05-05T10:33:36Z</time>
      </trkpt>
      <trkpt lat="48.57755" lon="-2.12795">
        <ele>34</ele>
        <time>2019-05-05T10:33:42Z</time>
      </trkpt>
      <trkpt lat="48.57751" lon="-2.12799">
        <ele>34</ele>
        <time>2019-05-05T10:33:46Z</time>
      </trkpt>
      <trkpt lat="48.57746" lon="-2.12802">
        <ele>34</ele>
        <time>2019-05-05T10:33:52Z</time>
      </trkpt>
      <trkpt lat="48.57742" lon="-2.12805">
        <ele>35</ele>
        <time>2019-05-05T10:33:55Z</time>
      </trkpt>
      <trkpt lat="48.57734" lon="-2.12816">
        <ele>34</ele>
        <time>2019-05-05T10:34:02Z</time>
      </trkpt>
      <trkpt lat="48.57718" lon="-2.12833">
        <ele>34</ele>
        <time>2019-05-05T10:34:13Z</time>
      </trkpt>
      <trkpt lat="48.57714" lon="-2.12839">
        <ele>34</ele>
        <time>2019-05-05T10:34:16Z</time>
      </trkpt>
      <trkpt lat="48.57703" lon="-2.12852">
        <ele>33</ele>
        <time>2019-05-05T10:34:25Z</time>
      </trkpt>
      <trkpt lat="48.57684" lon="-2.12878">
        <ele>33</ele>
        <time>2019-05-05T10:34:40Z</time>
      </trkpt>
      <trkpt lat="48.57675" lon="-2.129">
        <ele>31</ele>
        <time>2019-05-05T10:34:47Z</time>
      </trkpt>
      <trkpt lat="48.57672" lon="-2.12917">
        <ele>30</ele>
        <time>2019-05-05T10:34:54Z</time>
      </trkpt>
      <trkpt lat="48.57668" lon="-2.12922">
        <ele>30</ele>
        <time>2019-05-05T10:34:57Z</time>
      </trkpt>
      <trkpt lat="48.57666" lon="-2.12929">
        <ele>30</ele>
        <time>2019-05-05T10:35:01Z</time>
      </trkpt>
      <trkpt lat="48.57662" lon="-2.12943">
        <ele>29</ele>
        <time>2019-05-05T10:35:05Z</time>
      </trkpt>
      <trkpt lat="48.57661" lon="-2.12951">
        <ele>28</ele>
        <time>2019-05-05T10:35:08Z</time>
      </trkpt>
      <trkpt lat="48.57656" lon="-2.12972">
        <ele>26</ele>
        <time>2019-05-05T10:35:12Z</time>
      </trkpt>
      <trkpt lat="48.57653" lon="-2.13">
        <ele>25</ele>
        <time>2019-05-05T10:35:18Z</time>
      </trkpt>
      <trkpt lat="48.57651" lon="-2.13007">
        <ele>25</ele>
        <time>2019-05-05T10:35:20Z</time>
      </trkpt>
      <trkpt lat="48.57647" lon="-2.13013">
        <ele>25</ele>
        <time>2019-05-05T10:35:22Z</time>
      </trkpt>
      <trkpt lat="48.57641" lon="-2.13018">
        <ele>24</ele>
        <time>2019-05-05T10:35:24Z</time>
      </trkpt>
      <trkpt lat="48.57595" lon="-2.13048">
        <ele>22</ele>
        <time>2019-05-05T10:35:38Z</time>
      </trkpt>
      <trkpt lat="48.57577" lon="-2.13063">
        <ele>21</ele>
        <time>2019-05-05T10:35:44Z</time>
      </trkpt>
      <trkpt lat="48.57562" lon="-2.13065">
        <ele>21</ele>
        <time>2019-05-05T10:35:48Z</time>
      </trkpt>
      <trkpt lat="48.57551" lon="-2.13059">
        <ele>22</ele>
        <time>2019-05-05T10:35:51Z</time>
      </trkpt>
      <trkpt lat="48.57509" lon="-2.13032">
        <ele>21</ele>
        <time>2019-05-05T10:36:04Z</time>
      </trkpt>
      <trkpt lat="48.57504" lon="-2.13034">
        <ele>21</ele>
        <time>2019-05-05T10:36:08Z</time>
      </trkpt>
      <trkpt lat="48.57501" lon="-2.13041">
        <ele>21</ele>
        <time>2019-05-05T10:36:12Z</time>
      </trkpt>
      <trkpt lat="48.57459" lon="-2.13191">
        <ele>21</ele>
        <time>2019-05-05T10:36:43Z</time>
      </trkpt>
      <trkpt lat="48.5744" lon="-2.13227">
        <ele>22</ele>
        <time>2019-05-05T10:36:53Z</time>
      </trkpt>
      <trkpt lat="48.57436" lon="-2.13273">
        <ele>24</ele>
        <time>2019-05-05T10:37:01Z</time>
      </trkpt>
      <trkpt lat="48.57428" lon="-2.13294">
        <ele>24</ele>
        <time>2019-05-05T10:37:11Z</time>
      </trkpt>
      <trkpt lat="48.57428" lon="-2.13303">
        <ele>24</ele>
        <time>2019-05-05T10:37:16Z</time>
      </trkpt>
      <trkpt lat="48.57426" lon="-2.13309">
        <ele>24</ele>
        <time>2019-05-05T10:37:19Z</time>
      </trkpt>
      <trkpt lat="48.57422" lon="-2.13317">
        <ele>26</ele>
        <time>2019-05-05T10:37:22Z</time>
      </trkpt>
      <trkpt lat="48.57421" lon="-2.13327">
        <ele>27</ele>
        <time>2019-05-05T10:37:27Z</time>
      </trkpt>
      <trkpt lat="48.57419" lon="-2.13343">
        <ele>29</ele>
        <time>2019-05-05T10:37:35Z</time>
      </trkpt>
      <trkpt lat="48.57412" lon="-2.13344">
        <ele>29</ele>
        <time>2019-05-05T10:37:40Z</time>
      </trkpt>
      <trkpt lat="48.57391" lon="-2.1337">
        <ele>26</ele>
        <time>2019-05-05T10:37:54Z</time>
      </trkpt>
      <trkpt lat="48.57384" lon="-2.13382">
        <ele>25</ele>
        <time>2019-05-05T10:37:59Z</time>
      </trkpt>
      <trkpt lat="48.57372" lon="-2.13399">
        <ele>26</ele>
        <time>2019-05-05T10:38:14Z</time>
      </trkpt>
      <trkpt lat="48.57358" lon="-2.13424">
        <ele>23</ele>
        <time>2019-05-05T10:38:29Z</time>
      </trkpt>
      <trkpt lat="48.57333" lon="-2.13478">
        <ele>23</ele>
        <time>2019-05-05T10:38:43Z</time>
      </trkpt>
      <trkpt lat="48.57331" lon="-2.13489">
        <ele>23</ele>
        <time>2019-05-05T10:38:45Z</time>
      </trkpt>
      <trkpt lat="48.57328" lon="-2.13502">
        <ele>23</ele>
        <time>2019-05-05T10:38:47Z</time>
      </trkpt>
      <trkpt lat="48.57329" lon="-2.13512">
        <ele>23</ele>
        <time>2019-05-05T10:38:49Z</time>
      </trkpt>
      <trkpt lat="48.57334" lon="-2.13518">
        <ele>23</ele>
        <time>2019-05-05T10:38:51Z</time>
      </trkpt>
      <trkpt lat="48.57385" lon="-2.13554">
        <ele>20</ele>
        <time>2019-05-05T10:39:17Z</time>
      </trkpt>
      <trkpt lat="48.57436" lon="-2.1358">
        <ele>24</ele>
        <time>2019-05-05T10:39:49Z</time>
      </trkpt>
      <trkpt lat="48.57446" lon="-2.13586">
        <ele>25</ele>
        <time>2019-05-05T10:39:56Z</time>
      </trkpt>
      <trkpt lat="48.57451" lon="-2.13589">
        <ele>26</ele>
        <time>2019-05-05T10:40:00Z</time>
      </trkpt>
      <trkpt lat="48.57456" lon="-2.13593">
        <ele>26</ele>
        <time>2019-05-05T10:40:05Z</time>
      </trkpt>
      <trkpt lat="48.57479" lon="-2.13617">
        <ele>30</ele>
        <time>2019-05-05T10:40:25Z</time>
      </trkpt>
      <trkpt lat="48.57489" lon="-2.13622">
        <ele>31</ele>
        <time>2019-05-05T10:40:30Z</time>
      </trkpt>
      <trkpt lat="48.57495" lon="-2.13627">
        <ele>31</ele>
        <time>2019-05-05T10:40:33Z</time>
      </trkpt>
      <trkpt lat="48.57499" lon="-2.13633">
        <ele>31</ele>
        <time>2019-05-05T10:40:36Z</time>
      </trkpt>
      <trkpt lat="48.57508" lon="-2.1364">
        <ele>30</ele>
        <time>2019-05-05T10:40:42Z</time>
      </trkpt>
      <trkpt lat="48.57521" lon="-2.13651">
        <ele>28</ele>
        <time>2019-05-05T10:40:53Z</time>
      </trkpt>
      <trkpt lat="48.57538" lon="-2.13674">
        <ele>26</ele>
        <time>2019-05-05T10:41:08Z</time>
      </trkpt>
      <trkpt lat="48.57538" lon="-2.13681">
        <ele>26</ele>
        <time>2019-05-05T10:41:11Z</time>
      </trkpt>
      <trkpt lat="48.5754" lon="-2.13697">
        <ele>26</ele>
        <time>2019-05-05T10:41:18Z</time>
      </trkpt>
      <trkpt lat="48.57537" lon="-2.13704">
        <ele>27</ele>
        <time>2019-05-05T10:41:23Z</time>
      </trkpt>
      <trkpt lat="48.57523" lon="-2.13736">
        <ele>26</ele>
        <time>2019-05-05T10:41:36Z</time>
      </trkpt>
      <trkpt lat="48.57523" lon="-2.13744">
        <ele>25</ele>
        <time>2019-05-05T10:41:39Z</time>
      </trkpt>
      <trkpt lat="48.5752" lon="-2.13758">
        <ele>25</ele>
        <time>2019-05-05T10:41:45Z</time>
      </trkpt>
      <trkpt lat="48.5752" lon="-2.13765">
        <ele>25</ele>
        <time>2019-05-05T10:41:49Z</time>
      </trkpt>
      <trkpt lat="48.57519" lon="-2.13773">
        <ele>24</ele>
        <time>2019-05-05T10:41:54Z</time>
      </trkpt>
      <trkpt lat="48.57521" lon="-2.1378">
        <ele>24</ele>
        <time>2019-05-05T10:41:59Z</time>
      </trkpt>
      <trkpt lat="48.57519" lon="-2.13788">
        <ele>24</ele>
        <time>2019-05-05T10:42:04Z</time>
      </trkpt>
      <trkpt lat="48.57512" lon="-2.13802">
        <ele>25</ele>
        <time>2019-05-05T10:42:08Z</time>
      </trkpt>
      <trkpt lat="48.57507" lon="-2.13808">
        <ele>25</ele>
        <time>2019-05-05T10:42:11Z</time>
      </trkpt>
      <trkpt lat="48.57496" lon="-2.13818">
        <ele>24</ele>
        <time>2019-05-05T10:42:17Z</time>
      </trkpt>
      <trkpt lat="48.57493" lon="-2.13825">
        <ele>24</ele>
        <time>2019-05-05T10:42:21Z</time>
      </trkpt>
      <trkpt lat="48.57492" lon="-2.13833">
        <ele>26</ele>
        <time>2019-05-05T10:42:24Z</time>
      </trkpt>
      <trkpt lat="48.57497" lon="-2.13834">
        <ele>27</ele>
        <time>2019-05-05T10:42:48Z</time>
      </trkpt>
      <trkpt lat="48.575" lon="-2.13839">
        <ele>26</ele>
        <time>2019-05-05T10:42:51Z</time>
      </trkpt>
      <trkpt lat="48.57504" lon="-2.13844">
        <ele>25</ele>
        <time>2019-05-05T10:42:55Z</time>
      </trkpt>
      <trkpt lat="48.5751" lon="-2.13857">
        <ele>26</ele>
        <time>2019-05-05T10:43:59Z</time>
      </trkpt>
      <trkpt lat="48.57502" lon="-2.13907">
        <ele>29</ele>
        <time>2019-05-05T10:44:19Z</time>
      </trkpt>
      <trkpt lat="48.57503" lon="-2.13914">
        <ele>32</ele>
        <time>2019-05-05T10:44:24Z</time>
      </trkpt>
      <trkpt lat="48.57497" lon="-2.13937">
        <ele>34</ele>
        <time>2019-05-05T10:44:37Z</time>
      </trkpt>
      <trkpt lat="48.57494" lon="-2.13944">
        <ele>32</ele>
        <time>2019-05-05T10:44:44Z</time>
      </trkpt>
      <trkpt lat="48.5749" lon="-2.13958">
        <ele>30</ele>
        <time>2019-05-05T10:44:51Z</time>
      </trkpt>
      <trkpt lat="48.57483" lon="-2.1397">
        <ele>28</ele>
        <time>2019-05-05T10:44:58Z</time>
      </trkpt>
      <trkpt lat="48.57478" lon="-2.13974">
        <ele>27</ele>
        <time>2019-05-05T10:45:03Z</time>
      </trkpt>
      <trkpt lat="48.57475" lon="-2.13982">
        <ele>27</ele>
        <time>2019-05-05T10:45:08Z</time>
      </trkpt>
      <trkpt lat="48.57473" lon="-2.13989">
        <ele>27</ele>
        <time>2019-05-05T10:45:12Z</time>
      </trkpt>
      <trkpt lat="48.57471" lon="-2.13997">
        <ele>27</ele>
        <time>2019-05-05T10:45:16Z</time>
      </trkpt>
      <trkpt lat="48.57471" lon="-2.14004">
        <ele>28</ele>
        <time>2019-05-05T10:45:20Z</time>
      </trkpt>
      <trkpt lat="48.57481" lon="-2.14008">
        <ele>30</ele>
        <time>2019-05-05T10:45:30Z</time>
      </trkpt>
      <trkpt lat="48.57508" lon="-2.14008">
        <ele>33</ele>
        <time>2019-05-05T10:45:46Z</time>
      </trkpt>
      <trkpt lat="48.57525" lon="-2.14006">
        <ele>34</ele>
        <time>2019-05-05T10:45:55Z</time>
      </trkpt>
      <trkpt lat="48.5753" lon="-2.14006">
        <ele>34</ele>
        <time>2019-05-05T10:45:59Z</time>
      </trkpt>
      <trkpt lat="48.57535" lon="-2.14004">
        <ele>34</ele>
        <time>2019-05-05T10:46:05Z</time>
      </trkpt>
      <trkpt lat="48.5754" lon="-2.14006">
        <ele>34</ele>
        <time>2019-05-05T10:46:10Z</time>
      </trkpt>
    </trkseg>
  </trk>
</gpx>